Darstellungsparameter: Aktuell verwendete Einstellungen:
Skalierung der Graphiken ... ?
xyx+y,   Skalierungsfaktor:      Skalierung: Modus: x, Faktor: 1
Darstellungszeitraum ... ?
Vom - - bis: - -   Zeitraum: 18.12.2006 - 17.03.2007
Min/Max/Avg-Anzeige ... ?
Zeige MMA aktuell
Zeige MMA Monat
Zeige MMA alles
Zeige --A aktuell
Zeige --A Monat
Zeige --A alles
Keine MMA-Anzeige
MMA:
Average (ber die Originaldaten)
MMA-Basis: 02.02.2010 - 04.03.2010
Quicknavigation für Darstellung... ?
Tage:      1T, 2T, 3T, 5T -1T -2T -3T -5T +1T +2T +3T +5T
Wochen: 1W, 2W, 3W -1W -2W -3W +1W +2W +3W
Monate: 1M, 3M, 6M -1M -3M -6M +1M +3M +6M
Jahre:    1J, 3J, 5J, 10J -1J -3J -5J -10J +1J +3J +5J +10J
Nutze für die Darstellung ... ?
Originaldaten oder Mittelwerte auf ...
Stundenbasis Tagesbasis Wochenbasis
Monatsbasis Jahresbasis      Datenbasis: Original-Daten
Darstellen als:
Statistik (Auto) Statistik J:M      Darstellung:
Zur Graphik,    zurück zur Übersicht aller Sensoren.
 
Tabellarische Datenbersicht: ?
 
Sensor: Nr:Datum:Temp:Abs-Feuchte:Windchill:Wind:
Aussen-T/F 1 18-12-2006 00:08:02 3.8 C 5.33 g/m*3 3.8 C 0 km/h
2 18-12-2006 00:20:02 3.8 C 5.4 g/m*3 3.8 C 0 km/h
3 18-12-2006 00:32:03 3.7 C 5.36 g/m*3 3.7 C 0 km/h
4 18-12-2006 00:44:03 3.7 C 5.42 g/m*3 3.7 C 0 km/h
5 18-12-2006 00:56:02 3.6 C 5.39 g/m*3 3.6 C 0 km/h
6 18-12-2006 01:08:02 3.7 C 5.48 g/m*3 3.7 C 0 km/h
7 18-12-2006 01:20:02 3.7 C 5.48 g/m*3 3.7 C 0 km/h
8 18-12-2006 01:32:02 3.6 C 5.51 g/m*3 3.6 C 0 km/h
9 18-12-2006 01:44:02 3.6 C 5.51 g/m*3 3.6 C 0 km/h
10 18-12-2006 01:56:02 3.7 C 5.61 g/m*3 3.7 C 0 km/h
11 18-12-2006 02:08:02 3.7 C 5.61 g/m*3 3.7 C 0 km/h
12 18-12-2006 02:20:02 3.7 C 5.67 g/m*3 3.7 C 0 km/h
13 18-12-2006 02:32:02 3.7 C 5.67 g/m*3 3.7 C 0 km/h
14 18-12-2006 02:44:02 3.6 C 5.63 g/m*3 3.6 C 0 km/h
15 18-12-2006 02:56:02 3.4 C 5.56 g/m*3 3.4 C 0 km/h
16 18-12-2006 03:08:02 3.2 C 5.48 g/m*3 3.2 C 0 km/h
17 18-12-2006 03:20:02 3.2 C 5.48 g/m*3 3.2 C 0 km/h
18 18-12-2006 03:32:02 3.2 C 5.48 g/m*3 3.2 C 0 km/h
19 18-12-2006 03:44:02 3.2 C 5.48 g/m*3 3.2 C 0 km/h
20 18-12-2006 03:56:02 2.9 C 5.43 g/m*3 2.9 C 0 km/h
21 18-12-2006 04:08:01 3 C 5.41 g/m*3 3 C 0 km/h
22 18-12-2006 04:20:02 3.1 C 5.51 g/m*3 3.1 C 0 km/h
23 18-12-2006 04:32:02 3.2 C 5.6 g/m*3 3.2 C 0 km/h
24 18-12-2006 04:44:02 3.3 C 5.64 g/m*3 3.3 C 0 km/h
25 18-12-2006 04:56:02 3.3 C 5.64 g/m*3 3.3 C 0 km/h
Sensor: Nr:Datum:Temp:Abs-Feuchte:Windchill:Wind:
Aussen-T/F 26 18-12-2006 05:08:01 3.3 C 5.64 g/m*3 3.3 C 0 km/h
27 18-12-2006 05:20:05 3.2 C 5.6 g/m*3 3.2 C 0 km/h
28 18-12-2006 05:32:02 3.2 C 5.66 g/m*3 3.2 C 0 km/h
29 18-12-2006 05:44:02 3.1 C 5.63 g/m*3 3.1 C 0 km/h
30 18-12-2006 05:56:01 3.1 C 5.63 g/m*3 3.1 C 0 km/h
31 18-12-2006 06:08:01 3 C 5.59 g/m*3 3 C 0 km/h
32 18-12-2006 06:20:01 3 C 5.59 g/m*3 3 C 0 km/h
33 18-12-2006 06:32:02 3 C 5.59 g/m*3 3 C 0 km/h
34 18-12-2006 06:44:02 2.9 C 5.61 g/m*3 2.9 C 0 km/h
35 18-12-2006 06:56:01 2.9 C 5.61 g/m*3 2.9 C 0 km/h
36 18-12-2006 07:08:01 2.9 C 5.61 g/m*3 2.9 C 0 km/h
37 18-12-2006 07:20:01 2.7 C 5.48 g/m*3 2.7 C 0 km/h
38 18-12-2006 07:32:02 2.7 C 5.48 g/m*3 2.7 C 0 km/h
39 18-12-2006 07:44:02 2.7 C 5.48 g/m*3 2.7 C 0 km/h
40 18-12-2006 07:56:02 2.7 C 5.54 g/m*3 2.7 C 0 km/h
41 18-12-2006 08:08:01 2.6 C 5.44 g/m*3 2.6 C 0 km/h
42 18-12-2006 08:20:01 2.7 C 5.54 g/m*3 2.7 C 0 km/h
43 18-12-2006 08:32:01 2.7 C 5.54 g/m*3 2.7 C 0 km/h
44 18-12-2006 08:44:01 2.5 C 5.4 g/m*3 2.5 C 0 km/h
45 18-12-2006 08:56:02 2.2 C 5.29 g/m*3 2.2 C 0 km/h
46 18-12-2006 09:08:01 2.2 C 5.29 g/m*3 2.2 C 0 km/h
47 18-12-2006 09:20:01 2.3 C 5.33 g/m*3 2.3 C 0 km/h
48 18-12-2006 09:32:02 2.6 C 5.44 g/m*3 2.6 C 0 km/h
49 18-12-2006 09:44:02 2.6 C 5.44 g/m*3 2.6 C 0 km/h
50 18-12-2006 09:56:01 2.6 C 5.44 g/m*3 2.6 C 0 km/h
Sensor: Nr:Datum:Temp:Abs-Feuchte:Windchill:Wind:
Aussen-T/F 51 18-12-2006 10:08:01 2.7 C 5.48 g/m*3 2.7 C 0 km/h
52 18-12-2006 10:20:02 2.7 C 5.48 g/m*3 2.7 C 0 km/h
53 18-12-2006 10:32:02 2.9 C 5.49 g/m*3 2.9 C 0 km/h
54 18-12-2006 10:44:02 2.9 C 5.43 g/m*3 2.9 C 0 km/h
55 18-12-2006 10:56:01 3.1 C 5.39 g/m*3 3.1 C 0 km/h
56 18-12-2006 11:08:01 3.2 C 5.36 g/m*3 3.2 C 0 km/h
57 18-12-2006 11:20:02 3.1 C 5.27 g/m*3 3.1 C 0 km/h
58 18-12-2006 11:32:02 3.3 C 5.34 g/m*3 3.3 C 0 km/h
59 18-12-2006 11:44:02 3.4 C 5.31 g/m*3 3.4 C 0 km/h
60 18-12-2006 11:56:01 3.2 C 5.18 g/m*3 3.2 C 0 km/h
61 18-12-2006 12:08:01 3.4 C 5.25 g/m*3 3.4 C 0 km/h
62 18-12-2006 12:20:02 3.6 C 5.26 g/m*3 3.6 C 0 km/h
63 18-12-2006 12:32:02 3.6 C 5.2 g/m*3 3.6 C 0 km/h
64 18-12-2006 12:44:02 3.7 C 5.23 g/m*3 3.7 C 0 km/h
65 18-12-2006 12:56:01 3.8 C 5.21 g/m*3 3.8 C 0 km/h
66 18-12-2006 13:08:02 4 C 5.21 g/m*3 4 C 0 km/h
67 18-12-2006 13:20:02 4.2 C 5.22 g/m*3 4.2 C 0 km/h
68 18-12-2006 13:32:02 4.4 C 5.29 g/m*3 4.4 C 0 km/h
69 18-12-2006 13:44:02 4.7 C 5.4 g/m*3 4.7 C 0 km/h
70 18-12-2006 13:56:01 4.8 C 5.43 g/m*3 4.8 C 0 km/h
71 18-12-2006 14:08:02 5 C 5.44 g/m*3 5 C 0 km/h
72 18-12-2006 14:20:02 5 C 5.37 g/m*3 5 C 0 km/h
73 18-12-2006 14:32:02 5 C 5.3 g/m*3 5 C 0 km/h
74 18-12-2006 14:44:02 5.1 C 5.34 g/m*3 5.1 C 0 km/h
75 18-12-2006 14:56:01 5.1 C 5.34 g/m*3 5.1 C 0 km/h
Sensor: Nr:Datum:Temp:Abs-Feuchte:Windchill:Wind:
Aussen-T/F 76 18-12-2006 15:08:02 4.9 C 5.33 g/m*3 4.9 C 0 km/h
77 18-12-2006 15:20:02 4.9 C 5.4 g/m*3 4.9 C 0 km/h
78 18-12-2006 15:32:02 4.9 C 5.4 g/m*3 4.9 C 0 km/h
79 18-12-2006 15:44:02 4.8 C 5.36 g/m*3 4.8 C 0 km/h
80 18-12-2006 15:56:01 4.6 C 5.29 g/m*3 4.6 C 0 km/h
81 18-12-2006 16:08:02 4.5 C 5.32 g/m*3 4.5 C 0 km/h
82 18-12-2006 16:20:02 4.4 C 5.29 g/m*3 4.4 C 0 km/h
83 18-12-2006 16:32:02 4.3 C 5.32 g/m*3 4.3 C 0 km/h
84 18-12-2006 16:44:02 4.2 C 5.28 g/m*3 4.2 C 0 km/h
85 18-12-2006 16:56:01 4 C 5.21 g/m*3 4 C 0 km/h
86 18-12-2006 17:08:02 4 C 5.28 g/m*3 4 C 0 km/h
87 18-12-2006 17:20:01 4 C 5.28 g/m*3 4 C 0 km/h
88 18-12-2006 17:32:02 4 C 5.34 g/m*3 4 C 0 km/h
89 18-12-2006 17:44:02 3.9 C 5.37 g/m*3 3.9 C 0 km/h
90 18-12-2006 17:56:01 3.9 C 5.37 g/m*3 3.9 C 0 km/h
91 18-12-2006 18:08:01 3.9 C 5.37 g/m*3 3.9 C 0 km/h
92 18-12-2006 18:20:02 3.9 C 5.37 g/m*3 3.9 C 0 km/h
93 18-12-2006 18:32:02 3.9 C 5.37 g/m*3 3.9 C 0 km/h
94 18-12-2006 18:44:02 3.9 C 5.43 g/m*3 3.9 C 0 km/h
95 18-12-2006 18:56:01 3.9 C 5.43 g/m*3 3.9 C 0 km/h
96 18-12-2006 19:08:01 3.6 C 5.26 g/m*3 3.6 C 0 km/h
97 18-12-2006 19:20:01 3.1 C 5.09 g/m*3 3.1 C 0 km/h
98 18-12-2006 19:32:02 2.8 C 5.04 g/m*3 2.8 C 0 km/h
99 18-12-2006 19:44:02 2.9 C 5.14 g/m*3 2.9 C 0 km/h
100 18-12-2006 19:56:02 2.9 C 5.2 g/m*3 2.9 C 0 km/h
Sensor: Nr:Datum:Temp:Abs-Feuchte:Windchill:Wind:
Aussen-T/F 101 18-12-2006 20:08:01 3 C 5.17 g/m*3 3 C 0 km/h
102 18-12-2006 20:20:01 2.7 C 5.13 g/m*3 2.7 C 0 km/h
103 18-12-2006 20:32:02 2.6 C 5.09 g/m*3 2.6 C 0 km/h
104 18-12-2006 20:44:02 2.6 C 5.09 g/m*3 2.6 C 0 km/h
105 18-12-2006 20:56:02 2.6 C 5.09 g/m*3 2.6 C 0 km/h
106 18-12-2006 21:08:02 2.5 C 5.06 g/m*3 2.5 C 0 km/h
107 18-12-2006 21:20:02 2.5 C 5.06 g/m*3 2.5 C 0 km/h
108 18-12-2006 21:32:01 2.5 C 5.12 g/m*3 2.5 C 0 km/h
109 18-12-2006 21:44:01 2.5 C 5.12 g/m*3 2.5 C 0 km/h
110 18-12-2006 21:56:01 2.6 C 5.15 g/m*3 2.6 C 0 km/h
111 18-12-2006 22:08:02 2.6 C 5.15 g/m*3 2.6 C 0 km/h
112 18-12-2006 22:20:02 2.7 C 5.24 g/m*3 2.7 C 0 km/h
113 18-12-2006 22:32:01 2.7 C 5.24 g/m*3 2.7 C 0 km/h
114 18-12-2006 22:44:01 2.7 C 5.24 g/m*3 2.7 C 0 km/h
115 18-12-2006 22:56:01 2.8 C 5.28 g/m*3 2.8 C 0 km/h
116 18-12-2006 23:08:02 2.8 C 5.28 g/m*3 2.8 C 0 km/h
117 18-12-2006 23:20:02 2.8 C 5.28 g/m*3 2.8 C 0 km/h
118 18-12-2006 23:32:01 2.8 C 5.28 g/m*3 2.8 C 0 km/h
119 18-12-2006 23:44:01 2.8 C 5.28 g/m*3 2.8 C 0 km/h
120 18-12-2006 23:56:01 2.7 C 5.24 g/m*3 2.7 C 0 km/h
121 19-12-2006 00:08:01 2.7 C 5.24 g/m*3 2.7 C 0 km/h
122 19-12-2006 00:20:01 2.7 C 5.24 g/m*3 2.7 C 0 km/h
123 19-12-2006 00:32:02 2.6 C 5.21 g/m*3 2.6 C 0 km/h
124 19-12-2006 00:44:02 2.6 C 5.21 g/m*3 2.6 C 0 km/h
125 19-12-2006 00:56:02 2.6 C 5.15 g/m*3 2.6 C 0 km/h
Sensor: Nr:Datum:Temp:Abs-Feuchte:Windchill:Wind:
Aussen-T/F 126 19-12-2006 01:08:02 2.6 C 5.15 g/m*3 2.6 C 0 km/h
127 19-12-2006 01:20:02 2.6 C 5.15 g/m*3 2.6 C 0 km/h
128 19-12-2006 01:32:02 2.5 C 5.06 g/m*3 2.5 C 0 km/h
129 19-12-2006 01:44:02 2.6 C 5.09 g/m*3 2.6 C 0 km/h
130 19-12-2006 01:56:01 2.6 C 5.09 g/m*3 2.6 C 0 km/h
131 19-12-2006 02:08:02 2.5 C 5.06 g/m*3 2.5 C 0 km/h
132 19-12-2006 02:20:02 2.4 C 5.02 g/m*3 2.4 C 0 km/h
133 19-12-2006 02:32:01 2.4 C 4.97 g/m*3 2.4 C 0 km/h
134 19-12-2006 02:44:01 2.4 C 4.97 g/m*3 2.4 C 0 km/h
135 19-12-2006 02:57:06 2.4 C 4.97 g/m*3 2.4 C 0 km/h
136 19-12-2006 03:09:06 2.4 C 4.97 g/m*3 2.4 C 0 km/h
137 19-12-2006 03:21:07 2.4 C 4.91 g/m*3 2.4 C 0 km/h
138 19-12-2006 03:33:02 2.4 C 4.91 g/m*3 2.4 C 0 km/h
139 19-12-2006 03:45:02 2.4 C 4.91 g/m*3 2.4 C 0 km/h
140 19-12-2006 03:57:03 2.4 C 4.85 g/m*3 2.4 C 0 km/h
141 19-12-2006 04:09:02 2.3 C 4.76 g/m*3 2.3 C 0 km/h
142 19-12-2006 04:21:02 2.3 C 4.71 g/m*3 2.3 C 0 km/h
143 19-12-2006 04:33:02 2.3 C 4.71 g/m*3 2.3 C 0 km/h
144 19-12-2006 04:45:02 2.3 C 4.71 g/m*3 2.3 C 0 km/h
145 19-12-2006 04:57:02 2.3 C 4.65 g/m*3 2.3 C 0 km/h
146 19-12-2006 05:09:02 2.3 C 4.65 g/m*3 2.3 C 0 km/h
147 19-12-2006 05:21:02 2.3 C 4.65 g/m*3 2.3 C 0 km/h
148 19-12-2006 05:33:02 2.3 C 4.65 g/m*3 2.3 C 0 km/h
149 19-12-2006 05:45:02 2.4 C 4.68 g/m*3 2.4 C 0 km/h
150 19-12-2006 05:57:03 2.4 C 4.68 g/m*3 2.4 C 0 km/h
Sensor: Nr:Datum:Temp:Abs-Feuchte:Windchill:Wind:
Aussen-T/F 151 19-12-2006 06:09:02 2.3 C 4.59 g/m*3 2.3 C 0 km/h
152 19-12-2006 06:21:01 2.3 C 4.54 g/m*3 2.3 C 0 km/h
153 19-12-2006 06:33:02 2.3 C 4.54 g/m*3 2.3 C 0 km/h
154 19-12-2006 06:45:02 2.3 C 4.54 g/m*3 2.3 C 0 km/h
155 19-12-2006 06:57:02 2.3 C 4.54 g/m*3 2.3 C 0 km/h
156 19-12-2006 07:09:03 2.3 C 4.54 g/m*3 2.3 C 0 km/h
157 19-12-2006 07:21:02 2.4 C 4.57 g/m*3 2.4 C 0 km/h
158 19-12-2006 07:33:02 2.4 C 4.51 g/m*3 2.4 C 0 km/h
159 19-12-2006 07:45:03 2.4 C 4.51 g/m*3 2.4 C 0 km/h
160 19-12-2006 07:57:03 2.4 C 4.51 g/m*3 2.4 C 0 km/h
161 19-12-2006 08:09:03 2.4 C 4.51 g/m*3 2.4 C 0 km/h
162 19-12-2006 08:21:02 2.4 C 4.51 g/m*3 2.4 C 0 km/h
163 19-12-2006 08:33:02 2.4 C 4.51 g/m*3 2.4 C 0 km/h
164 19-12-2006 08:45:02 2.4 C 4.51 g/m*3 2.4 C 0 km/h
165 19-12-2006 08:57:02 2.5 C 4.54 g/m*3 2.5 C 0 km/h
166 19-12-2006 09:09:02 2.6 C 4.57 g/m*3 2.6 C 0 km/h
167 19-12-2006 09:21:02 2.7 C 4.6 g/m*3 2.7 C 0 km/h
168 19-12-2006 09:33:01 2.8 C 4.63 g/m*3 2.8 C 0 km/h
169 19-12-2006 09:45:02 3 C 4.64 g/m*3 3 C 0 km/h
170 19-12-2006 09:57:02 3.2 C 4.7 g/m*3 3.2 C 0 km/h
171 19-12-2006 10:09:02 3.4 C 4.76 g/m*3 3.4 C 0 km/h
172 19-12-2006 10:21:02 3.6 C 4.83 g/m*3 3.6 C 0 km/h
173 19-12-2006 10:33:02 3.8 C 4.89 g/m*3 3.8 C 0 km/h
174 19-12-2006 10:45:02 4.1 C 4.93 g/m*3 4.1 C 0 km/h
175 19-12-2006 10:57:02 4.1 C 4.86 g/m*3 4.1 C 0 km/h
Sensor: Nr:Datum:Temp:Abs-Feuchte:Windchill:Wind:
Aussen-T/F 176 19-12-2006 11:09:02 4.4 C 4.83 g/m*3 4.4 C 0 km/h
177 19-12-2006 11:21:02 4.8 C 4.9 g/m*3 4.8 C 0 km/h
178 19-12-2006 11:33:02 5.1 C 4.58 g/m*3 5.1 C 0 km/h
179 19-12-2006 11:45:02 5.3 C 4.3 g/m*3 5.3 C 0 km/h
180 19-12-2006 11:57:02 5.5 C 3.93 g/m*3 5.5 C 0 km/h
181 19-12-2006 12:09:02 5.7 C 3.63 g/m*3 5.7 C 0 km/h
182 19-12-2006 12:21:02 5.9 C 3.32 g/m*3 5.9 C 0 km/h
183 19-12-2006 12:33:02 6 C 3.27 g/m*3 6 C 0 km/h
184 19-12-2006 12:45:02 6.1 C 3.07 g/m*3 6.1 C 0 km/h
185 19-12-2006 12:57:02 6.2 C 3.09 g/m*3 6.2 C 0 km/h
186 19-12-2006 13:09:02 6.3 C 2.96 g/m*3 6.3 C 0 km/h
187 19-12-2006 13:21:02 6.1 C 2.92 g/m*3 6.1 C 0 km/h
188 19-12-2006 13:33:03 6 C 2.83 g/m*3 6 C 0 km/h
189 19-12-2006 13:45:02 6.1 C 2.92 g/m*3 6.1 C 0 km/h
190 19-12-2006 13:57:02 6.1 C 2.85 g/m*3 6.1 C 0 km/h
191 19-12-2006 14:09:01 5.9 C 2.88 g/m*3 5.9 C 0 km/h
192 19-12-2006 14:21:01 6 C 2.98 g/m*3 6 C 0 km/h
193 19-12-2006 14:33:01 5.9 C 2.88 g/m*3 5.9 C 0 km/h
194 19-12-2006 14:45:02 6 C 2.9 g/m*3 6 C 0 km/h
195 19-12-2006 14:57:02 5.9 C 2.96 g/m*3 5.9 C 0 km/h
196 19-12-2006 15:09:01 5.8 C 3.08 g/m*3 5.8 C 0 km/h
197 19-12-2006 15:21:01 5.7 C 2.99 g/m*3 5.7 C 0 km/h
198 19-12-2006 15:33:01 5.6 C 3.04 g/m*3 5.6 C 0 km/h
199 19-12-2006 15:45:02 5.5 C 3.09 g/m*3 5.5 C 0 km/h
200 19-12-2006 15:57:02 5.3 C 3.26 g/m*3 5.3 C 0 km/h
Sensor: Nr:Datum:Temp:Abs-Feuchte:Windchill:Wind:
Aussen-T/F 201 19-12-2006 16:09:02 5.2 C 3.24 g/m*3 5.2 C 0 km/h
202 19-12-2006 16:21:01 5.1 C 3.15 g/m*3 5.1 C 0 km/h
203 19-12-2006 16:33:02 5 C 3.13 g/m*3 5 C 0 km/h
204 19-12-2006 16:45:02 4.9 C 3.17 g/m*3 4.9 C 0 km/h
205 19-12-2006 16:57:02 4.8 C 3.29 g/m*3 4.8 C 0 km/h
206 19-12-2006 17:09:02 4.7 C 3.26 g/m*3 4.7 C 0 km/h
207 19-12-2006 17:21:01 4.7 C 3.26 g/m*3 4.7 C 0 km/h
208 19-12-2006 17:33:01 4.6 C 3.31 g/m*3 4.6 C 0 km/h
209 19-12-2006 17:45:02 4.6 C 3.24 g/m*3 4.6 C 0 km/h
210 19-12-2006 17:57:02 4.4 C 3.33 g/m*3 4.4 C 0 km/h
211 19-12-2006 18:09:02 4.3 C 3.44 g/m*3 4.3 C 0 km/h
212 19-12-2006 18:21:02 4.2 C 3.54 g/m*3 4.2 C 0 km/h
213 19-12-2006 18:33:01 4.2 C 3.41 g/m*3 4.2 C 0 km/h
214 19-12-2006 18:45:02 4.2 C 3.48 g/m*3 4.2 C 0 km/h
215 19-12-2006 18:57:02 4.1 C 3.58 g/m*3 4.1 C 0 km/h
216 19-12-2006 19:09:02 4.1 C 3.65 g/m*3 4.1 C 0 km/h
217 19-12-2006 19:21:02 4 C 3.69 g/m*3 4 C 0 km/h
218 19-12-2006 19:33:02 4 C 3.69 g/m*3 4 C 0 km/h
219 19-12-2006 19:45:02 4 C 3.62 g/m*3 4 C 0 km/h
220 19-12-2006 19:57:02 4 C 3.69 g/m*3 4 C 0 km/h
221 19-12-2006 20:09:02 3.9 C 3.73 g/m*3 3.9 C 0 km/h
222 19-12-2006 20:21:02 3.9 C 3.73 g/m*3 3.9 C 0 km/h
223 19-12-2006 20:33:02 4 C 3.62 g/m*3 4 C 0 km/h
224 19-12-2006 20:45:02 3.9 C 3.66 g/m*3 3.9 C 0 km/h
225 19-12-2006 20:57:02 3.8 C 3.7 g/m*3 3.8 C 0 km/h
Sensor: Nr:Datum:Temp:Abs-Feuchte:Windchill:Wind:
Aussen-T/F 226 19-12-2006 21:09:02 3.8 C 3.7 g/m*3 3.8 C 0 km/h
227 19-12-2006 21:21:02 3.8 C 3.76 g/m*3 3.8 C 0 km/h
228 19-12-2006 21:33:03 3.7 C 3.86 g/m*3 3.7 C 0 km/h
229 19-12-2006 21:45:02 3.7 C 3.74 g/m*3 3.7 C 0 km/h
230 19-12-2006 21:57:02 3.7 C 3.68 g/m*3 3.7 C 0 km/h
231 19-12-2006 22:09:02 3.7 C 3.68 g/m*3 3.7 C 0 km/h
232 19-12-2006 22:21:02 3.6 C 3.71 g/m*3 3.6 C 0 km/h
233 19-12-2006 22:33:03 3.4 C 3.73 g/m*3 3.4 C 0 km/h
234 19-12-2006 22:45:02 3.2 C 3.74 g/m*3 3.2 C 0 km/h
235 19-12-2006 22:57:02 3.2 C 3.8 g/m*3 3.2 C 0 km/h
236 19-12-2006 23:09:02 3.1 C 3.77 g/m*3 3.1 C 0 km/h
237 19-12-2006 23:21:01 3 C 3.75 g/m*3 3 C 0 km/h
238 19-12-2006 23:33:01 2.8 C 3.75 g/m*3 2.8 C 0 km/h
239 19-12-2006 23:45:02 2.7 C 3.73 g/m*3 2.7 C 0 km/h
240 19-12-2006 23:57:02 2.7 C 3.67 g/m*3 2.7 C 0 km/h
241 20-12-2006 00:09:03 2.4 C 3.65 g/m*3 2.4 C 0 km/h
242 20-12-2006 00:21:03 2.2 C 3.66 g/m*3 2.2 C 0 km/h
243 20-12-2006 00:33:03 2.3 C 3.69 g/m*3 2.3 C 0 km/h
244 20-12-2006 00:45:02 2.4 C 3.77 g/m*3 2.4 C 0 km/h
245 20-12-2006 00:57:02 2.3 C 3.74 g/m*3 2.3 C 0 km/h
246 20-12-2006 01:09:02 2.2 C 3.72 g/m*3 2.2 C 0 km/h
247 20-12-2006 01:21:02 2 C 3.78 g/m*3 2 C 0 km/h
248 20-12-2006 01:33:02 2 C 3.83 g/m*3 2 C 0 km/h
249 20-12-2006 01:45:02 1.7 C 3.81 g/m*3 1.7 C 0 km/h
250 20-12-2006 01:57:02 1.3 C 3.76 g/m*3 1.3 C 0 km/h
Sensor: Nr:Datum:Temp:Abs-Feuchte:Windchill:Wind:
Aussen-T/F 251 20-12-2006 02:09:02 1 C 3.69 g/m*3 1 C 0 km/h
252 20-12-2006 02:21:03 1 C 3.74 g/m*3 1 C 0 km/h
253 20-12-2006 02:33:03 1 C 3.79 g/m*3 1 C 0 km/h
254 20-12-2006 02:46:03 1.2 C 3.84 g/m*3 1.2 C 0 km/h
255 20-12-2006 02:58:04 1.4 C 3.89 g/m*3 1.4 C 0 km/h
256 20-12-2006 03:10:04 1.4 C 3.89 g/m*3 1.4 C 0 km/h
257 20-12-2006 03:22:04 1.4 C 3.89 g/m*3 1.4 C 0 km/h
258 20-12-2006 03:34:03 1.4 C 3.89 g/m*3 1.4 C 0 km/h
259 20-12-2006 03:46:03 1.4 C 3.89 g/m*3 1.4 C 0 km/h
260 20-12-2006 03:58:03 1.1 C 3.81 g/m*3 1.1 C 0 km/h
261 20-12-2006 04:10:03 1.1 C 3.81 g/m*3 1.1 C 0 km/h
262 20-12-2006 04:22:02 1.4 C 3.95 g/m*3 1.4 C 0 km/h
263 20-12-2006 04:34:02 1.4 C 3.95 g/m*3 1.4 C 0 km/h
264 20-12-2006 04:46:03 1.6 C 4 g/m*3 1.6 C 0 km/h
265 20-12-2006 04:58:03 1.7 C 4.03 g/m*3 1.7 C 0 km/h
266 20-12-2006 05:10:02 1.8 C 4.06 g/m*3 1.8 C 0 km/h
267 20-12-2006 05:22:03 1.7 C 4.03 g/m*3 1.7 C 0 km/h
268 20-12-2006 05:34:02 1.1 C 3.87 g/m*3 1.1 C 0 km/h
269 20-12-2006 05:46:02 0.7 C 3.81 g/m*3 0.7 C 0 km/h
270 20-12-2006 05:58:02 0.4 C 3.84 g/m*3 0.4 C 0 km/h
271 20-12-2006 06:10:02 0.1 C 3.76 g/m*3 0.1 C 0 km/h
272 20-12-2006 06:22:03 -0.1 C 3.75 g/m*3 -0.1 C 0 km/h
273 20-12-2006 06:34:02 -0.1 C 3.75 g/m*3 -0.1 C 0 km/h
274 20-12-2006 06:46:02 -0.3 C 3.7 g/m*3 -0.3 C 0 km/h
275 20-12-2006 06:58:02 -0.4 C 3.72 g/m*3 -0.4 C 0 km/h
Sensor: Nr:Datum:Temp:Abs-Feuchte:Windchill:Wind:
Aussen-T/F 276 20-12-2006 07:10:02 -0.4 C 3.77 g/m*3 -0.4 C 0 km/h
277 20-12-2006 07:22:02 -0.5 C 3.79 g/m*3 -0.5 C 0 km/h
278 20-12-2006 07:34:02 -0.7 C 3.74 g/m*3 -0.7 C 0 km/h
279 20-12-2006 07:46:02 -0.6 C 3.81 g/m*3 -0.6 C 0 km/h
280 20-12-2006 07:58:02 -0.9 C 3.78 g/m*3 -0.9 C 0 km/h
281 20-12-2006 08:10:02 -1 C 3.75 g/m*3 -1 C 0 km/h
282 20-12-2006 08:22:02 -1 C 3.75 g/m*3 -1 C 0 km/h
283 20-12-2006 08:34:02 -1.1 C 3.73 g/m*3 -1.1 C 0 km/h
284 20-12-2006 08:46:02 -1.3 C 3.67 g/m*3 -1.3 C 0 km/h
285 20-12-2006 08:58:02 -1.1 C 3.77 g/m*3 -1.1 C 0 km/h
286 20-12-2006 09:10:02 -1 C 3.8 g/m*3 -1 C 0 km/h
287 20-12-2006 09:22:02 -0.7 C 3.92 g/m*3 -0.7 C 0 km/h
288 20-12-2006 09:34:02 -0.7 C 3.92 g/m*3 -0.7 C 0 km/h
289 20-12-2006 09:46:01 -0.5 C 3.98 g/m*3 -0.5 C 0 km/h
290 20-12-2006 09:58:02 -0.3 C 4.08 g/m*3 -0.3 C 0 km/h
291 20-12-2006 10:10:01 -0.3 C 4.03 g/m*3 -0.3 C 0 km/h
292 20-12-2006 10:22:01 -0.3 C 4.03 g/m*3 -0.3 C 0 km/h
293 20-12-2006 10:34:01 -0.1 C 4.09 g/m*3 -0.1 C 0 km/h
294 20-12-2006 10:46:02 0.4 C 4.23 g/m*3 0.4 C 0 km/h
295 20-12-2006 10:58:02 0.8 C 4.35 g/m*3 0.8 C 0 km/h
296 20-12-2006 11:10:02 1 C 4.36 g/m*3 1 C 0 km/h
297 20-12-2006 11:22:01 1 C 4.31 g/m*3 1 C 0 km/h
298 20-12-2006 11:34:01 1.3 C 4.34 g/m*3 1.3 C 0 km/h
299 20-12-2006 11:46:02 1.4 C 4.32 g/m*3 1.4 C 0 km/h
300 20-12-2006 11:58:02 1.5 C 4.3 g/m*3 1.5 C 0 km/h
Sensor: Nr:Datum:Temp:Abs-Feuchte:Windchill:Wind:
Aussen-T/F 301 20-12-2006 12:10:02 1.9 C 4.42 g/m*3 1.9 C 0 km/h
302 20-12-2006 12:22:02 2.6 C 4.57 g/m*3 2.6 C 0 km/h
303 20-12-2006 12:34:01 3.3 C 4.61 g/m*3 3.3 C 0 km/h
304 20-12-2006 12:46:02 3.6 C 4.52 g/m*3 3.6 C 0 km/h
305 20-12-2006 12:58:02 4 C 4.45 g/m*3 4 C 0 km/h
306 20-12-2006 13:10:02 4.4 C 4.31 g/m*3 4.4 C 0 km/h
307 20-12-2006 13:22:02 4.6 C 4.3 g/m*3 4.6 C 0 km/h
308 20-12-2006 13:34:02 4.8 C 4.22 g/m*3 4.8 C 0 km/h
309 20-12-2006 13:46:02 5 C 4.14 g/m*3 5 C 0 km/h
310 20-12-2006 13:58:02 5 C 3.94 g/m*3 5 C 0 km/h
311 20-12-2006 14:10:02 5.1 C 4.04 g/m*3 5.1 C 0 km/h
312 20-12-2006 14:22:01 5.2 C 4.06 g/m*3 5.2 C 0 km/h
313 20-12-2006 14:34:02 5.2 C 3.99 g/m*3 5.2 C 0 km/h
314 20-12-2006 14:46:02 5.1 C 3.9 g/m*3 5.1 C 0 km/h
315 20-12-2006 14:58:02 5 C 3.94 g/m*3 5 C 0 km/h
316 20-12-2006 15:10:02 4.8 C 3.76 g/m*3 4.8 C 0 km/h
317 20-12-2006 15:22:02 4.6 C 3.71 g/m*3 4.6 C 0 km/h
318 20-12-2006 15:34:02 4.4 C 3.72 g/m*3 4.4 C 0 km/h
319 20-12-2006 15:46:02 4.4 C 3.85 g/m*3 4.4 C 0 km/h
320 20-12-2006 15:58:02 4.4 C 3.92 g/m*3 4.4 C 0 km/h
321 20-12-2006 16:10:02 4.3 C 3.96 g/m*3 4.3 C 0 km/h
322 20-12-2006 16:22:02 4.1 C 3.97 g/m*3 4.1 C 0 km/h
323 20-12-2006 16:34:01 4 C 4.07 g/m*3 4 C 0 km/h
324 20-12-2006 16:46:02 3.9 C 4.23 g/m*3 3.9 C 0 km/h
325 20-12-2006 16:58:02 3.8 C 4.2 g/m*3 3.8 C 0 km/h
Sensor: Nr:Datum:Temp:Abs-Feuchte:Windchill:Wind:
Aussen-T/F 326 20-12-2006 17:10:02 3.7 C 4.18 g/m*3 3.7 C 0 km/h
327 20-12-2006 17:22:02 3.7 C 4.24 g/m*3 3.7 C 0 km/h
328 20-12-2006 17:34:01 3.6 C 4.27 g/m*3 3.6 C 0 km/h
329 20-12-2006 17:46:02 3.7 C 4.3 g/m*3 3.7 C 0 km/h
330 20-12-2006 17:58:02 3.8 C 4.33 g/m*3 3.8 C 0 km/h
331 20-12-2006 18:10:02 3.8 C 4.33 g/m*3 3.8 C 0 km/h
332 20-12-2006 18:22:02 3.8 C 4.39 g/m*3 3.8 C 0 km/h
333 20-12-2006 18:34:03 3.7 C 4.3 g/m*3 3.7 C 0 km/h
334 20-12-2006 18:46:02 3.8 C 4.33 g/m*3 3.8 C 0 km/h
335 20-12-2006 18:58:02 3.8 C 4.33 g/m*3 3.8 C 0 km/h
336 20-12-2006 19:10:02 3.7 C 4.3 g/m*3 3.7 C 0 km/h
337 20-12-2006 19:22:02 3.7 C 4.24 g/m*3 3.7 C 0 km/h
338 20-12-2006 19:34:02 3.7 C 4.24 g/m*3 3.7 C 0 km/h
339 20-12-2006 19:46:02 3.7 C 4.24 g/m*3 3.7 C 0 km/h
340 20-12-2006 19:58:02 3.8 C 4.2 g/m*3 3.8 C 0 km/h
341 20-12-2006 20:10:02 3.9 C 4.23 g/m*3 3.9 C 0 km/h
342 20-12-2006 20:22:02 3.9 C 4.23 g/m*3 3.9 C 0 km/h
343 20-12-2006 20:34:02 4 C 4.26 g/m*3 4 C 0 km/h
344 20-12-2006 20:46:02 4 C 4.32 g/m*3 4 C 0 km/h
345 20-12-2006 20:58:02 4 C 4.39 g/m*3 4 C 0 km/h
346 20-12-2006 21:10:02 4 C 4.45 g/m*3 4 C 0 km/h
347 20-12-2006 21:22:02 3.9 C 4.48 g/m*3 3.9 C 0 km/h
348 20-12-2006 21:34:03 3.9 C 4.55 g/m*3 3.9 C 0 km/h
349 20-12-2006 21:46:05 3.9 C 4.55 g/m*3 3.9 C 0 km/h
350 20-12-2006 21:58:05 3.9 C 4.55 g/m*3 3.9 C 0 km/h
Sensor: Nr:Datum:Temp:Abs-Feuchte:Windchill:Wind:
Aussen-T/F 351 20-12-2006 22:10:03 3.8 C 4.52 g/m*3 3.8 C 0 km/h
352 20-12-2006 22:22:03 3.8 C 4.52 g/m*3 3.8 C 0 km/h
353 20-12-2006 22:34:03 3.8 C 4.58 g/m*3 3.8 C 0 km/h
354 20-12-2006 22:46:02 3.8 C 4.58 g/m*3 3.8 C 0 km/h
355 20-12-2006 22:58:03 3.8 C 4.58 g/m*3 3.8 C 0 km/h
356 20-12-2006 23:10:02 3.8 C 4.64 g/m*3 3.8 C 0 km/h
357 20-12-2006 23:22:03 3.8 C 4.64 g/m*3 3.8 C 0 km/h
358 20-12-2006 23:34:02 3.8 C 4.64 g/m*3 3.8 C 0 km/h
359 20-12-2006 23:46:01 3.8 C 4.64 g/m*3 3.8 C 0 km/h
360 20-12-2006 23:58:01 3.9 C 4.74 g/m*3 3.9 C 0 km/h
361 21-12-2006 00:10:02 3.9 C 4.74 g/m*3 3.9 C 0 km/h
362 21-12-2006 00:22:02 3.9 C 4.74 g/m*3 3.9 C 0 km/h
363 21-12-2006 00:34:02 3.9 C 4.74 g/m*3 3.9 C 0 km/h
364 21-12-2006 00:46:03 3.9 C 4.74 g/m*3 3.9 C 0 km/h
365 21-12-2006 00:58:03 3.9 C 4.74 g/m*3 3.9 C 0 km/h
366 21-12-2006 01:10:03 3.9 C 4.8 g/m*3 3.9 C 0 km/h
367 21-12-2006 01:22:03 3.9 C 4.8 g/m*3 3.9 C 0 km/h
368 21-12-2006 01:34:02 3.8 C 4.77 g/m*3 3.8 C 0 km/h
369 21-12-2006 01:46:03 3.9 C 4.8 g/m*3 3.9 C 0 km/h
370 21-12-2006 01:58:03 3.9 C 4.8 g/m*3 3.9 C 0 km/h
371 21-12-2006 02:10:02 3.9 C 4.86 g/m*3 3.9 C 0 km/h
372 21-12-2006 02:22:02 3.8 C 4.83 g/m*3 3.8 C 0 km/h
373 21-12-2006 02:34:02 3.7 C 4.8 g/m*3 3.7 C 0 km/h
374 21-12-2006 02:46:01 3.7 C 4.86 g/m*3 3.7 C 0 km/h
375 21-12-2006 02:58:02 3.7 C 4.86 g/m*3 3.7 C 0 km/h
Sensor: Nr:Datum:Temp:Abs-Feuchte:Windchill:Wind:
Aussen-T/F 376 21-12-2006 03:10:01 3.7 C 4.92 g/m*3 3.7 C 0 km/h
377 21-12-2006 03:22:01 3.8 C 4.96 g/m*3 3.8 C 0 km/h
378 21-12-2006 03:34:02 3.8 C 4.96 g/m*3 3.8 C 0 km/h
379 21-12-2006 03:46:02 3.7 C 4.92 g/m*3 3.7 C 0 km/h
380 21-12-2006 03:58:02 3.7 C 4.99 g/m*3 3.7 C 0 km/h
381 21-12-2006 04:10:01 3.7 C 4.99 g/m*3 3.7 C 0 km/h
382 21-12-2006 04:22:01 3.7 C 5.05 g/m*3 3.7 C 0 km/h
383 21-12-2006 04:34:02 3.7 C 5.05 g/m*3 3.7 C 0 km/h
384 21-12-2006 04:46:02 3.7 C 5.11 g/m*3 3.7 C 0 km/h
385 21-12-2006 04:58:02 3.7 C 5.11 g/m*3 3.7 C 0 km/h
386 21-12-2006 05:10:02 3.6 C 5.14 g/m*3 3.6 C 0 km/h
387 21-12-2006 05:22:02 3.7 C 5.23 g/m*3 3.7 C 0 km/h
388 21-12-2006 05:34:02 3.7 C 5.23 g/m*3 3.7 C 0 km/h
389 21-12-2006 05:46:01 3.7 C 5.23 g/m*3 3.7 C 0 km/h
390 21-12-2006 05:58:01 3.6 C 5.26 g/m*3 3.6 C 0 km/h
391 21-12-2006 06:10:02 3.7 C 5.3 g/m*3 3.7 C 0 km/h
392 21-12-2006 06:22:02 3.7 C 5.3 g/m*3 3.7 C 0 km/h
393 21-12-2006 06:34:01 3.7 C 5.3 g/m*3 3.7 C 0 km/h
394 21-12-2006 06:46:01 3.7 C 5.3 g/m*3 3.7 C 0 km/h
395 21-12-2006 06:58:01 3.7 C 5.3 g/m*3 3.7 C 0 km/h
396 21-12-2006 07:10:02 3.7 C 5.3 g/m*3 3.7 C 0 km/h
397 21-12-2006 07:22:02 3.7 C 5.3 g/m*3 3.7 C 0 km/h
398 21-12-2006 07:34:02 3.6 C 5.26 g/m*3 3.6 C 0 km/h
399 21-12-2006 07:46:01 3.7 C 5.36 g/m*3 3.7 C 0 km/h
400 21-12-2006 07:58:01 3.7 C 5.36 g/m*3 3.7 C 0 km/h
Sensor: Nr:Datum:Temp:Abs-Feuchte:Windchill:Wind:
Aussen-T/F 401 21-12-2006 08:10:01 3.8 C 5.4 g/m*3 3.8 C 0 km/h
402 21-12-2006 08:22:02 3.8 C 5.4 g/m*3 3.8 C 0 km/h
403 21-12-2006 08:34:02 3.8 C 5.4 g/m*3 3.8 C 0 km/h
404 21-12-2006 08:46:01 3.9 C 5.43 g/m*3 3.9 C 0 km/h
405 21-12-2006 08:58:01 3.9 C 5.43 g/m*3 3.9 C 0 km/h
406 21-12-2006 09:10:01 4 C 5.4 g/m*3 4 C 0 km/h
407 21-12-2006 09:22:02 4 C 5.4 g/m*3 4 C 0 km/h
408 21-12-2006 09:34:02 4.1 C 5.44 g/m*3 4.1 C 0 km/h
409 21-12-2006 09:46:01 4.3 C 5.51 g/m*3 4.3 C 0 km/h
410 21-12-2006 09:58:01 4.5 C 5.59 g/m*3 4.5 C 0 km/h
411 21-12-2006 10:10:01 4.6 C 5.62 g/m*3 4.6 C 0 km/h
412 21-12-2006 10:22:02 4.8 C 5.7 g/m*3 4.8 C 0 km/h
413 21-12-2006 10:34:02 5 C 5.64 g/m*3 5 C 0 km/h
414 21-12-2006 10:46:01 5.1 C 5.68 g/m*3 5.1 C 0 km/h
415 21-12-2006 10:58:01 5.3 C 5.68 g/m*3 5.3 C 0 km/h
416 21-12-2006 11:10:01 5.4 C 5.65 g/m*3 5.4 C 0 km/h
417 21-12-2006 11:22:02 5.5 C 5.62 g/m*3 5.5 C 0 km/h
418 21-12-2006 11:34:02 5.7 C 5.69 g/m*3 5.7 C 0 km/h
419 21-12-2006 11:46:01 5.8 C 5.66 g/m*3 5.8 C 0 km/h
420 21-12-2006 11:58:01 5.8 C 5.59 g/m*3 5.8 C 0 km/h
421 21-12-2006 12:10:01 5.9 C 5.55 g/m*3 5.9 C 0 km/h
422 21-12-2006 12:22:02 6.1 C 5.55 g/m*3 6.1 C 0 km/h
423 21-12-2006 12:34:02 6.1 C 5.48 g/m*3 6.1 C 0 km/h
424 21-12-2006 12:46:01 6.2 C 5.44 g/m*3 6.2 C 0 km/h
425 21-12-2006 12:58:01 6.3 C 5.48 g/m*3 6.3 C 0 km/h
Sensor: Nr:Datum:Temp:Abs-Feuchte:Windchill:Wind:
Aussen-T/F 426 21-12-2006 13:10:01 6.3 C 5.48 g/m*3 6.3 C 0 km/h
427 21-12-2006 13:22:02 6.4 C 5.44 g/m*3 6.4 C 0 km/h
428 21-12-2006 13:34:02 6.4 C 5.36 g/m*3 6.4 C 0 km/h
429 21-12-2006 13:46:01 6.4 C 5.44 g/m*3 6.4 C 0 km/h
430 21-12-2006 13:58:01 6.5 C 5.4 g/m*3 6.5 C 0 km/h
431 21-12-2006 14:10:01 6.4 C 5.36 g/m*3 6.4 C 0 km/h
432 21-12-2006 14:22:01 6.5 C 5.4 g/m*3 6.5 C 0 km/h
433 21-12-2006 14:34:02 6.5 C 5.4 g/m*3 6.5 C 0 km/h
434 21-12-2006 14:46:01 6.5 C 5.4 g/m*3 6.5 C 0 km/h
435 21-12-2006 14:58:01 6.5 C 5.4 g/m*3 6.5 C 0 km/h
436 21-12-2006 15:10:01 6.4 C 5.36 g/m*3 6.4 C 0 km/h
437 21-12-2006 15:22:01 6.4 C 5.44 g/m*3 6.4 C 0 km/h
438 21-12-2006 15:34:02 6.3 C 5.4 g/m*3 6.3 C 0 km/h
439 21-12-2006 15:46:01 6.3 C 5.4 g/m*3 6.3 C 0 km/h
440 21-12-2006 15:58:01 6.2 C 5.44 g/m*3 6.2 C 0 km/h
441 21-12-2006 16:10:01 6.1 C 5.41 g/m*3 6.1 C 0 km/h
442 21-12-2006 16:22:01 5.9 C 5.41 g/m*3 5.9 C 0 km/h
443 21-12-2006 16:34:02 5.8 C 5.44 g/m*3 5.8 C 0 km/h
444 21-12-2006 16:46:02 5.7 C 5.41 g/m*3 5.7 C 0 km/h
445 21-12-2006 16:58:02 5.6 C 5.44 g/m*3 5.6 C 0 km/h
446 21-12-2006 17:10:01 5.6 C 5.51 g/m*3 5.6 C 0 km/h
447 21-12-2006 17:22:01 5.6 C 5.51 g/m*3 5.6 C 0 km/h
448 21-12-2006 17:34:01 5.6 C 5.59 g/m*3 5.6 C 0 km/h
449 21-12-2006 17:46:01 5.5 C 5.55 g/m*3 5.5 C 0 km/h
450 21-12-2006 17:58:01 5.5 C 5.55 g/m*3 5.5 C 0 km/h
Sensor: Nr:Datum:Temp:Abs-Feuchte:Windchill:Wind:
Aussen-T/F 451 21-12-2006 18:10:02 5.4 C 5.51 g/m*3 5.4 C 0 km/h
452 21-12-2006 18:22:02 5.4 C 5.51 g/m*3 5.4 C 0 km/h
453 21-12-2006 18:34:02 5.4 C 5.51 g/m*3 5.4 C 0 km/h
454 21-12-2006 18:46:02 5.3 C 5.48 g/m*3 5.3 C 0 km/h
455 21-12-2006 18:58:02 5.3 C 5.54 g/m*3 5.3 C 0 km/h
456 21-12-2006 19:10:02 5.3 C 5.54 g/m*3 5.3 C 0 km/h
457 21-12-2006 19:22:01 5.3 C 5.54 g/m*3 5.3 C 0 km/h
458 21-12-2006 19:34:01 5.3 C 5.61 g/m*3 5.3 C 0 km/h
459 21-12-2006 19:46:01 5.3 C 5.54 g/m*3 5.3 C 0 km/h
460 21-12-2006 19:58:01 5.2 C 5.58 g/m*3 5.2 C 0 km/h
461 21-12-2006 20:10:02 5.1 C 5.47 g/m*3 5.1 C 0 km/h
462 21-12-2006 20:22:01 5.1 C 5.47 g/m*3 5.1 C 0 km/h
463 21-12-2006 20:34:01 5 C 5.37 g/m*3 5 C 0 km/h
464 21-12-2006 20:46:02 4.8 C 5.36 g/m*3 4.8 C 0 km/h
465 21-12-2006 20:58:02 4.8 C 5.36 g/m*3 4.8 C 0 km/h
466 21-12-2006 21:10:02 4.9 C 5.33 g/m*3 4.9 C 0 km/h
467 21-12-2006 21:22:01 4.9 C 5.33 g/m*3 4.9 C 0 km/h
468 21-12-2006 21:34:01 4.8 C 5.3 g/m*3 4.8 C 0 km/h
469 21-12-2006 21:46:02 4.6 C 5.16 g/m*3 4.6 C 0 km/h
470 21-12-2006 21:58:02 4.3 C 4.99 g/m*3 4.3 C 0 km/h
471 21-12-2006 22:10:02 4.2 C 4.96 g/m*3 4.2 C 0 km/h
472 21-12-2006 22:22:01 4.2 C 4.9 g/m*3 4.2 C 0 km/h
473 21-12-2006 22:34:01 4.2 C 4.83 g/m*3 4.2 C 0 km/h
474 21-12-2006 22:46:02 4.2 C 4.83 g/m*3 4.2 C 0 km/h
475 21-12-2006 22:58:02 4 C 4.77 g/m*3 4 C 0 km/h
Sensor: Nr:Datum:Temp:Abs-Feuchte:Windchill:Wind:
Aussen-T/F 476 21-12-2006 23:10:02 3.9 C 4.86 g/m*3 3.9 C 0 km/h
477 21-12-2006 23:22:02 3.9 C 4.86 g/m*3 3.9 C 0 km/h
478 21-12-2006 23:34:01 4 C 4.9 g/m*3 4 C 0 km/h
479 21-12-2006 23:46:02 4 C 4.9 g/m*3 4 C 0 km/h
480 21-12-2006 23:58:02 3.7 C 4.86 g/m*3 3.7 C 0 km/h
481 22-12-2006 00:10:02 3.6 C 4.89 g/m*3 3.6 C 0 km/h
482 22-12-2006 00:22:02 3.4 C 4.89 g/m*3 3.4 C 0 km/h
483 22-12-2006 00:34:02 3.5 C 4.92 g/m*3 3.5 C 0 km/h
484 22-12-2006 00:46:01 3.5 C 4.98 g/m*3 3.5 C 0 km/h
485 22-12-2006 00:58:01 3.4 C 4.95 g/m*3 3.4 C 0 km/h
486 22-12-2006 01:10:01 3.4 C 4.95 g/m*3 3.4 C 0 km/h
487 22-12-2006 01:22:02 3.2 C 4.82 g/m*3 3.2 C 0 km/h
488 22-12-2006 01:34:01 2.6 C 4.63 g/m*3 2.6 C 0 km/h
489 22-12-2006 01:46:02 2.3 C 4.54 g/m*3 2.3 C 0 km/h
490 22-12-2006 01:58:02 2.1 C 4.53 g/m*3 2.1 C 0 km/h
491 22-12-2006 02:10:02 2 C 4.56 g/m*3 2 C 0 km/h
492 22-12-2006 02:22:01 1.7 C 4.52 g/m*3 1.7 C 0 km/h
493 22-12-2006 02:34:02 1.5 C 4.51 g/m*3 1.5 C 0 km/h
494 22-12-2006 02:47:05 1.3 C 4.45 g/m*3 1.3 C 0 km/h
495 22-12-2006 02:59:06 1.1 C 4.39 g/m*3 1.1 C 0 km/h
496 22-12-2006 03:11:05 1 C 4.41 g/m*3 1 C 0 km/h
497 22-12-2006 03:23:05 0.8 C 4.4 g/m*3 0.8 C 0 km/h
498 22-12-2006 03:35:03 0.6 C 4.34 g/m*3 0.6 C 0 km/h
499 22-12-2006 03:47:03 0.8 C 4.4 g/m*3 0.8 C 0 km/h
500 22-12-2006 03:59:03 0.8 C 4.4 g/m*3 0.8 C 0 km/h
Sensor: Nr:Datum:Temp:Abs-Feuchte:Windchill:Wind:
Aussen-T/F 501 22-12-2006 04:11:03 0.6 C 4.39 g/m*3 0.6 C 0 km/h
502 22-12-2006 04:23:03 0.4 C 4.33 g/m*3 0.4 C 0 km/h
503 22-12-2006 04:35:03 0.3 C 4.3 g/m*3 0.3 C 0 km/h
504 22-12-2006 04:47:03 0 C 4.22 g/m*3 0 C 0 km/h
505 22-12-2006 04:59:03 0.1 C 4.24 g/m*3 0.1 C 0 km/h
506 22-12-2006 05:11:02 -0.2 C 4.16 g/m*3 -0.2 C 0 km/h
507 22-12-2006 05:23:02 -0.2 C 4.16 g/m*3 -0.2 C 0 km/h
508 22-12-2006 05:35:03 -0.3 C 4.13 g/m*3 -0.3 C 0 km/h
509 22-12-2006 05:47:02 -0.3 C 4.13 g/m*3 -0.3 C 0 km/h
510 22-12-2006 05:59:02 -0.3 C 4.13 g/m*3 -0.3 C 0 km/h
511 22-12-2006 06:11:02 -0.5 C 4.07 g/m*3 -0.5 C 0 km/h
512 22-12-2006 06:23:02 -0.7 C 4.02 g/m*3 -0.7 C 0 km/h
513 22-12-2006 06:35:02 -0.7 C 4.02 g/m*3 -0.7 C 0 km/h
514 22-12-2006 06:47:02 -0.9 C 4.01 g/m*3 -0.9 C 0 km/h
515 22-12-2006 06:59:02 -1 C 3.98 g/m*3 -1 C 0 km/h
516 22-12-2006 07:11:04 -1.1 C 3.95 g/m*3 -1.1 C 0 km/h
517 22-12-2006 07:23:02 -1 C 4.02 g/m*3 -1 C 0 km/h
518 22-12-2006 07:35:04 -1 C 4.02 g/m*3 -1 C 0 km/h
519 22-12-2006 07:47:02 -1 C 4.02 g/m*3 -1 C 0 km/h
520 22-12-2006 07:59:02 -1.1 C 4 g/m*3 -1.1 C 0 km/h
521 22-12-2006 08:11:02 -1.1 C 4.04 g/m*3 -1.1 C 0 km/h
522 22-12-2006 08:23:01 -1.1 C 4.04 g/m*3 -1.1 C 0 km/h
523 22-12-2006 08:35:03 -1.3 C 3.98 g/m*3 -1.3 C 0 km/h
524 22-12-2006 08:47:02 -1.3 C 3.98 g/m*3 -1.3 C 0 km/h
525 22-12-2006 08:59:03 -1.3 C 3.98 g/m*3 -1.3 C 0 km/h
Sensor: Nr:Datum:Temp:Abs-Feuchte:Windchill:Wind:
Aussen-T/F 526 22-12-2006 09:11:02 -1.1 C 4.09 g/m*3 -1.1 C 0 km/h
527 22-12-2006 09:23:02 -0.9 C 4.14 g/m*3 -0.9 C 0 km/h
528 22-12-2006 09:35:02 -0.9 C 4.14 g/m*3 -0.9 C 0 km/h
529 22-12-2006 09:47:02 -0.8 C 4.22 g/m*3 -0.8 C 0 km/h
530 22-12-2006 09:59:02 -0.8 C 4.22 g/m*3 -0.8 C 0 km/h
531 22-12-2006 10:11:02 -0.7 C 4.25 g/m*3 -0.7 C 0 km/h
532 22-12-2006 10:23:02 -0.6 C 4.28 g/m*3 -0.6 C 0 km/h
533 22-12-2006 10:35:02 -0.6 C 4.28 g/m*3 -0.6 C 0 km/h
534 22-12-2006 10:47:02 -0.5 C 4.31 g/m*3 -0.5 C 0 km/h
535 22-12-2006 10:59:02 -0.4 C 4.34 g/m*3 -0.4 C 0 km/h
536 22-12-2006 11:11:02 -0.4 C 4.38 g/m*3 -0.4 C 0 km/h
537 22-12-2006 11:23:02 -0.3 C 4.41 g/m*3 -0.3 C 0 km/h
538 22-12-2006 11:35:03 -0.4 C 4.38 g/m*3 -0.4 C 0 km/h
539 22-12-2006 11:47:02 -0.3 C 4.41 g/m*3 -0.3 C 0 km/h
540 22-12-2006 11:59:02 -0.1 C 4.47 g/m*3 -0.1 C 0 km/h
541 22-12-2006 12:11:02 0 C 4.51 g/m*3 0 C 0 km/h
542 22-12-2006 12:23:02 0.3 C 4.6 g/m*3 0.3 C 0 km/h
543 22-12-2006 12:35:03 0.5 C 4.66 g/m*3 0.5 C 0 km/h
544 22-12-2006 12:47:03 0.6 C 4.7 g/m*3 0.6 C 0 km/h
545 22-12-2006 12:59:03 1.1 C 4.86 g/m*3 1.1 C 0 km/h
546 22-12-2006 13:11:02 1.3 C 4.98 g/m*3 1.3 C 0 km/h
547 22-12-2006 13:23:02 1.4 C 5.01 g/m*3 1.4 C 0 km/h
548 22-12-2006 13:35:03 1.7 C 5.12 g/m*3 1.7 C 0 km/h
549 22-12-2006 13:47:02 1.9 C 5.19 g/m*3 1.9 C 0 km/h
550 22-12-2006 13:59:02 2.1 C 5.26 g/m*3 2.1 C 0 km/h
Sensor: Nr:Datum:Temp:Abs-Feuchte:Windchill:Wind:
Aussen-T/F 551 22-12-2006 14:11:02 2.2 C 5.29 g/m*3 2.2 C 0 km/h
552 22-12-2006 14:23:02 2.4 C 5.37 g/m*3 2.4 C 0 km/h
553 22-12-2006 14:35:03 2.6 C 5.44 g/m*3 2.6 C 0 km/h
554 22-12-2006 14:47:02 2.6 C 5.38 g/m*3 2.6 C 0 km/h
555 22-12-2006 14:59:02 2.8 C 5.46 g/m*3 2.8 C 0 km/h
556 22-12-2006 15:11:02 2.9 C 5.49 g/m*3 2.9 C 0 km/h
557 22-12-2006 15:23:02 3.1 C 5.45 g/m*3 3.1 C 0 km/h
558 22-12-2006 15:35:02 3.2 C 5.48 g/m*3 3.2 C 0 km/h
559 22-12-2006 15:47:02 3.4 C 5.5 g/m*3 3.4 C 0 km/h
560 22-12-2006 15:59:02 3.6 C 5.57 g/m*3 3.6 C 0 km/h
561 22-12-2006 16:11:02 3.8 C 5.58 g/m*3 3.8 C 0 km/h
562 22-12-2006 16:23:02 3.8 C 5.52 g/m*3 3.8 C 0 km/h
563 22-12-2006 16:35:03 3.7 C 5.42 g/m*3 3.7 C 0 km/h
564 22-12-2006 16:47:02 3.7 C 5.3 g/m*3 3.7 C 0 km/h
565 22-12-2006 16:59:03 3.5 C 5.16 g/m*3 3.5 C 0 km/h
566 22-12-2006 17:11:01 3.4 C 4.95 g/m*3 3.4 C 0 km/h
567 22-12-2006 17:23:01 3 C 4.76 g/m*3 3 C 0 km/h
568 22-12-2006 17:35:02 3 C 4.7 g/m*3 3 C 0 km/h
569 22-12-2006 17:47:02 2.8 C 4.69 g/m*3 2.8 C 0 km/h
570 22-12-2006 17:59:02 2.5 C 4.6 g/m*3 2.5 C 0 km/h
571 22-12-2006 18:11:02 2.5 C 4.71 g/m*3 2.5 C 0 km/h
572 22-12-2006 18:23:02 2.4 C 4.68 g/m*3 2.4 C 0 km/h
573 22-12-2006 18:35:02 2.6 C 4.86 g/m*3 2.6 C 0 km/h
574 22-12-2006 18:47:02 2.8 C 4.99 g/m*3 2.8 C 0 km/h
575 22-12-2006 18:59:02 3 C 5.05 g/m*3 3 C 0 km/h
Sensor: Nr:Datum:Temp:Abs-Feuchte:Windchill:Wind:
Aussen-T/F 576 22-12-2006 19:11:02 3.1 C 5.09 g/m*3 3.1 C 0 km/h
577 22-12-2006 19:23:01 3.2 C 5.12 g/m*3 3.2 C 0 km/h
578 22-12-2006 19:35:01 3.3 C 5.16 g/m*3 3.3 C 0 km/h
579 22-12-2006 19:47:01 3.7 C 5.23 g/m*3 3.7 C 0 km/h
580 22-12-2006 19:59:01 3.5 C 5.1 g/m*3 3.5 C 0 km/h
581 22-12-2006 20:11:01 3.6 C 5.08 g/m*3 3.6 C 0 km/h
582 22-12-2006 20:23:00 3.6 C 4.95 g/m*3 3.6 C 0 km/h
583 22-12-2006 20:35:01 3.6 C 4.89 g/m*3 3.6 C 0 km/h
584 22-12-2006 20:47:00 3.8 C 4.83 g/m*3 3.8 C 0 km/h
585 22-12-2006 20:59:00 3.9 C 4.74 g/m*3 3.9 C 0 km/h
586 22-12-2006 21:11:00 3.9 C 4.61 g/m*3 3.9 C 0 km/h
587 22-12-2006 21:23:00 3.8 C 4.64 g/m*3 3.8 C 0 km/h
588 22-12-2006 21:35:01 3.8 C 4.64 g/m*3 3.8 C 0 km/h
589 22-12-2006 21:47:00 3.9 C 4.61 g/m*3 3.9 C 0 km/h
590 22-12-2006 21:59:00 3.9 C 4.61 g/m*3 3.9 C 0 km/h
591 22-12-2006 22:11:01 3.9 C 4.61 g/m*3 3.9 C 0 km/h
592 22-12-2006 22:23:01 3.9 C 4.55 g/m*3 3.9 C 0 km/h
593 22-12-2006 22:35:01 3.9 C 4.55 g/m*3 3.9 C 0 km/h
594 22-12-2006 22:47:01 3.9 C 4.55 g/m*3 3.9 C 0 km/h
595 22-12-2006 22:59:01 3.8 C 4.52 g/m*3 3.8 C 0 km/h
596 22-12-2006 23:11:01 3.9 C 4.55 g/m*3 3.9 C 0 km/h
597 22-12-2006 23:23:01 3.8 C 4.52 g/m*3 3.8 C 0 km/h
598 22-12-2006 23:35:01 3.8 C 4.52 g/m*3 3.8 C 0 km/h
599 22-12-2006 23:47:01 3.7 C 4.55 g/m*3 3.7 C 0 km/h
600 22-12-2006 23:59:01 3.8 C 4.52 g/m*3 3.8 C 0 km/h
Sensor: Nr:Datum:Temp:Abs-Feuchte:Windchill:Wind:
Aussen-T/F 601 23-12-2006 00:11:01 3.8 C 4.52 g/m*3 3.8 C 0 km/h
602 23-12-2006 00:23:02 3.9 C 4.48 g/m*3 3.9 C 0 km/h
603 23-12-2006 00:35:01 4 C 4.45 g/m*3 4 C 0 km/h
604 23-12-2006 00:47:01 4 C 4.45 g/m*3 4 C 0 km/h
605 23-12-2006 00:59:01 4 C 4.51 g/m*3 4 C 0 km/h
606 23-12-2006 01:11:02 4.1 C 4.48 g/m*3 4.1 C 0 km/h
607 23-12-2006 01:23:01 4.1 C 4.48 g/m*3 4.1 C 0 km/h
608 23-12-2006 01:35:01 4.1 C 4.48 g/m*3 4.1 C 0 km/h
609 23-12-2006 01:47:02 4.1 C 4.48 g/m*3 4.1 C 0 km/h
610 23-12-2006 01:59:02 4.1 C 4.48 g/m*3 4.1 C 0 km/h
611 23-12-2006 02:11:02 4.1 C 4.54 g/m*3 4.1 C 0 km/h
612 23-12-2006 02:23:02 4.1 C 4.54 g/m*3 4.1 C 0 km/h
613 23-12-2006 02:35:02 4.1 C 4.54 g/m*3 4.1 C 0 km/h
614 23-12-2006 02:48:04 4.1 C 4.54 g/m*3 4.1 C 0 km/h
615 23-12-2006 03:00:04 4.1 C 4.54 g/m*3 4.1 C 0 km/h
616 23-12-2006 03:12:04 4.1 C 4.61 g/m*3 4.1 C 0 km/h
617 23-12-2006 03:24:04 4.1 C 4.61 g/m*3 4.1 C 0 km/h
618 23-12-2006 03:36:04 4.1 C 4.61 g/m*3 4.1 C 0 km/h
619 23-12-2006 03:48:04 4.1 C 4.67 g/m*3 4.1 C 0 km/h
620 23-12-2006 04:00:04 4.1 C 4.61 g/m*3 4.1 C 0 km/h
621 23-12-2006 04:12:04 4.2 C 4.64 g/m*3 4.2 C 0 km/h
622 23-12-2006 04:24:03 4.2 C 4.64 g/m*3 4.2 C 0 km/h
623 23-12-2006 04:36:04 4.1 C 4.67 g/m*3 4.1 C 0 km/h
624 23-12-2006 04:48:04 4.1 C 4.67 g/m*3 4.1 C 0 km/h
625 23-12-2006 05:00:05 4.1 C 4.67 g/m*3 4.1 C 0 km/h
Sensor: Nr:Datum:Temp:Abs-Feuchte:Windchill:Wind:
Aussen-T/F 626 23-12-2006 05:12:04 4.1 C 4.67 g/m*3 4.1 C 0 km/h
627 23-12-2006 05:24:04 4.1 C 4.67 g/m*3 4.1 C 0 km/h
628 23-12-2006 05:36:04 4 C 4.64 g/m*3 4 C 0 km/h
629 23-12-2006 05:48:04 4 C 4.64 g/m*3 4 C 0 km/h
630 23-12-2006 06:00:04 4 C 4.64 g/m*3 4 C 0 km/h
631 23-12-2006 06:12:04 4 C 4.58 g/m*3 4 C 0 km/h
632 23-12-2006 06:24:05 4 C 4.58 g/m*3 4 C 0 km/h
633 23-12-2006 06:36:04 4 C 4.58 g/m*3 4 C 0 km/h
634 23-12-2006 06:48:04 4 C 4.58 g/m*3 4 C 0 km/h
635 23-12-2006 07:00:04 3.9 C 4.61 g/m*3 3.9 C 0 km/h
636 23-12-2006 07:12:04 3.9 C 4.61 g/m*3 3.9 C 0 km/h
637 23-12-2006 07:24:05 3.9 C 4.61 g/m*3 3.9 C 0 km/h
638 23-12-2006 07:36:04 3.9 C 4.61 g/m*3 3.9 C 0 km/h
639 23-12-2006 07:48:04 3.9 C 4.67 g/m*3 3.9 C 0 km/h
640 23-12-2006 08:00:04 3.9 C 4.67 g/m*3 3.9 C 0 km/h
641 23-12-2006 08:12:05 3.9 C 4.67 g/m*3 3.9 C 0 km/h
642 23-12-2006 08:24:05 3.9 C 4.74 g/m*3 3.9 C 0 km/h
643 23-12-2006 08:36:04 3.9 C 4.74 g/m*3 3.9 C 0 km/h
644 23-12-2006 08:48:05 3.9 C 4.74 g/m*3 3.9 C 0 km/h
645 23-12-2006 09:00:05 3.9 C 4.8 g/m*3 3.9 C 0 km/h
646 23-12-2006 09:12:05 3.9 C 4.8 g/m*3 3.9 C 0 km/h
647 23-12-2006 09:24:05 4 C 4.77 g/m*3 4 C 0 km/h
648 23-12-2006 09:36:05 4 C 4.77 g/m*3 4 C 0 km/h
649 23-12-2006 09:48:05 4.1 C 4.74 g/m*3 4.1 C 0 km/h
650 23-12-2006 10:00:05 4.1 C 4.74 g/m*3 4.1 C 0 km/h
Sensor: Nr:Datum:Temp:Abs-Feuchte:Windchill:Wind:
Aussen-T/F 651 23-12-2006 10:12:05 4.1 C 4.74 g/m*3 4.1 C 0 km/h
652 23-12-2006 10:24:05 4.2 C 4.77 g/m*3 4.2 C 0 km/h
653 23-12-2006 10:36:04 4.2 C 4.7 g/m*3 4.2 C 0 km/h
654 23-12-2006 10:48:05 4.3 C 4.74 g/m*3 4.3 C 0 km/h
655 23-12-2006 11:00:05 4.3 C 4.74 g/m*3 4.3 C 0 km/h
656 23-12-2006 11:12:05 4.5 C 4.73 g/m*3 4.5 C 0 km/h
657 23-12-2006 11:24:05 4.5 C 4.73 g/m*3 4.5 C 0 km/h
658 23-12-2006 11:36:05 4.5 C 4.73 g/m*3 4.5 C 0 km/h
659 23-12-2006 11:48:05 4.6 C 4.76 g/m*3 4.6 C 0 km/h
660 23-12-2006 12:00:05 4.6 C 4.7 g/m*3 4.6 C 0 km/h
661 23-12-2006 12:12:05 4.7 C 4.73 g/m*3 4.7 C 0 km/h
662 23-12-2006 12:24:05 4.8 C 4.69 g/m*3 4.8 C 0 km/h
663 23-12-2006 12:36:05 4.8 C 4.69 g/m*3 4.8 C 0 km/h
664 23-12-2006 12:48:05 4.8 C 4.63 g/m*3 4.8 C 0 km/h
665 23-12-2006 13:00:05 4.8 C 4.69 g/m*3 4.8 C 0 km/h
666 23-12-2006 13:12:05 4.9 C 4.66 g/m*3 4.9 C 0 km/h
667 23-12-2006 13:24:06 4.9 C 4.59 g/m*3 4.9 C 0 km/h
668 23-12-2006 13:36:05 4.8 C 4.63 g/m*3 4.8 C 0 km/h
669 23-12-2006 13:48:07 4.8 C 4.56 g/m*3 4.8 C 0 km/h
670 23-12-2006 14:00:07 4.7 C 4.53 g/m*3 4.7 C 0 km/h
671 23-12-2006 14:12:06 4.6 C 4.5 g/m*3 4.6 C 0 km/h
672 23-12-2006 14:24:05 4.7 C 4.53 g/m*3 4.7 C 0 km/h
673 23-12-2006 14:36:05 4.8 C 4.56 g/m*3 4.8 C 0 km/h
674 23-12-2006 14:48:05 4.9 C 4.59 g/m*3 4.9 C 0 km/h
675 23-12-2006 15:00:05 4.8 C 4.49 g/m*3 4.8 C 0 km/h
Sensor: Nr:Datum:Temp:Abs-Feuchte:Windchill:Wind:
Aussen-T/F 676 23-12-2006 15:12:05 4.7 C 4.4 g/m*3 4.7 C 0 km/h
677 23-12-2006 15:24:05 4.7 C 4.4 g/m*3 4.7 C 0 km/h
678 23-12-2006 15:36:05 4.7 C 4.46 g/m*3 4.7 C 0 km/h
679 23-12-2006 15:48:05 4.7 C 4.46 g/m*3 4.7 C 0 km/h
680 23-12-2006 16:00:05 4.5 C 4.47 g/m*3 4.5 C 0 km/h
681 23-12-2006 16:12:05 4.4 C 4.44 g/m*3 4.4 C 0 km/h
682 23-12-2006 16:24:06 4.3 C 4.41 g/m*3 4.3 C 0 km/h
683 23-12-2006 16:36:06 4.1 C 4.42 g/m*3 4.1 C 0 km/h
684 23-12-2006 16:48:05 4 C 4.39 g/m*3 4 C 0 km/h
685 23-12-2006 17:00:05 3.6 C 4.33 g/m*3 3.6 C 0 km/h
686 23-12-2006 17:12:06 3.3 C 4.37 g/m*3 3.3 C 0 km/h
687 23-12-2006 17:24:05 3.1 C 4.31 g/m*3 3.1 C 0 km/h
688 23-12-2006 17:36:05 2.7 C 4.31 g/m*3 2.7 C 0 km/h
689 23-12-2006 17:48:05 2.6 C 4.34 g/m*3 2.6 C 0 km/h
690 23-12-2006 18:00:05 2.4 C 4.28 g/m*3 2.4 C 0 km/h
691 23-12-2006 18:12:02 2.2 C 4.28 g/m*3 2.2 C 0 km/h
692 23-12-2006 18:24:01 1.8 C 4.22 g/m*3 1.8 C 0 km/h
693 23-12-2006 18:36:02 1.6 C 4.27 g/m*3 1.6 C 0 km/h
694 23-12-2006 18:48:03 1.4 C 4.21 g/m*3 1.4 C 0 km/h
695 23-12-2006 19:00:03 1.3 C 4.24 g/m*3 1.3 C 0 km/h
696 23-12-2006 19:12:03 1 C 4.15 g/m*3 1 C 0 km/h
697 23-12-2006 19:24:03 0.8 C 4.15 g/m*3 0.8 C 0 km/h
698 23-12-2006 19:36:03 0.7 C 4.17 g/m*3 0.7 C 0 km/h
699 23-12-2006 19:48:02 0.5 C 4.11 g/m*3 0.5 C 0 km/h
700 23-12-2006 20:00:02 0.5 C 4.11 g/m*3 0.5 C 0 km/h
Sensor: Nr:Datum:Temp:Abs-Feuchte:Windchill:Wind:
Aussen-T/F 701 23-12-2006 20:12:03 0.4 C 4.08 g/m*3 0.4 C 0 km/h
702 23-12-2006 20:24:02 0.3 C 4.11 g/m*3 0.3 C 0 km/h
703 23-12-2006 20:36:02 0.1 C 4.05 g/m*3 0.1 C 0 km/h
704 23-12-2006 20:48:02 0.1 C 4.05 g/m*3 0.1 C 0 km/h
705 23-12-2006 21:00:02 0 C 4.07 g/m*3 0 C 0 km/h
706 23-12-2006 21:12:03 -0.1 C 4.04 g/m*3 -0.1 C 0 km/h
707 23-12-2006 21:24:02 -0.3 C 3.99 g/m*3 -0.3 C 0 km/h
708 23-12-2006 21:36:03 -0.3 C 3.99 g/m*3 -0.3 C 0 km/h
709 23-12-2006 21:48:02 -0.4 C 3.96 g/m*3 -0.4 C 0 km/h
710 23-12-2006 22:00:02 -0.5 C 3.93 g/m*3 -0.5 C 0 km/h
711 23-12-2006 22:12:03 -0.5 C 3.98 g/m*3 -0.5 C 0 km/h
712 23-12-2006 22:24:02 -0.6 C 3.95 g/m*3 -0.6 C 0 km/h
713 23-12-2006 22:36:02 -0.7 C 3.92 g/m*3 -0.7 C 0 km/h
714 23-12-2006 22:48:02 -0.7 C 3.97 g/m*3 -0.7 C 0 km/h
715 23-12-2006 23:00:02 -0.8 C 3.94 g/m*3 -0.8 C 0 km/h
716 23-12-2006 23:12:02 -0.8 C 3.94 g/m*3 -0.8 C 0 km/h
717 23-12-2006 23:24:02 -0.6 C 4.04 g/m*3 -0.6 C 0 km/h
718 23-12-2006 23:36:03 -0.6 C 4.04 g/m*3 -0.6 C 0 km/h
719 23-12-2006 23:48:02 -0.4 C 4.1 g/m*3 -0.4 C 0 km/h
720 24-12-2006 00:00:02 -0.1 C 4.23 g/m*3 -0.1 C 0 km/h
721 24-12-2006 00:12:02 0.1 C 4.34 g/m*3 0.1 C 0 km/h
722 24-12-2006 00:24:02 0.2 C 4.37 g/m*3 0.2 C 0 km/h
723 24-12-2006 00:36:02 0.3 C 4.4 g/m*3 0.3 C 0 km/h
724 24-12-2006 00:48:02 0.4 C 4.43 g/m*3 0.4 C 0 km/h
725 24-12-2006 01:00:02 0.4 C 4.43 g/m*3 0.4 C 0 km/h
Sensor: Nr:Datum:Temp:Abs-Feuchte:Windchill:Wind:
Aussen-T/F 726 24-12-2006 01:12:01 0.5 C 4.46 g/m*3 0.5 C 0 km/h
727 24-12-2006 01:24:01 0.3 C 4.4 g/m*3 0.3 C 0 km/h
728 24-12-2006 01:36:02 0.2 C 4.37 g/m*3 0.2 C 0 km/h
729 24-12-2006 01:48:02 0.3 C 4.4 g/m*3 0.3 C 0 km/h
730 24-12-2006 02:00:02 0.2 C 4.37 g/m*3 0.2 C 0 km/h
731 24-12-2006 02:12:02 0.1 C 4.34 g/m*3 0.1 C 0 km/h
732 24-12-2006 02:24:02 0.1 C 4.34 g/m*3 0.1 C 0 km/h
733 24-12-2006 02:36:02 -0.2 C 4.25 g/m*3 -0.2 C 0 km/h
734 24-12-2006 02:48:01 -0.3 C 4.22 g/m*3 -0.3 C 0 km/h
735 24-12-2006 03:00:01 -0.2 C 4.25 g/m*3 -0.2 C 0 km/h
736 24-12-2006 03:12:02 -0.2 C 4.25 g/m*3 -0.2 C 0 km/h
737 24-12-2006 03:24:02 -0.2 C 4.25 g/m*3 -0.2 C 0 km/h
738 24-12-2006 03:36:01 -0.3 C 4.22 g/m*3 -0.3 C 0 km/h
739 24-12-2006 03:48:01 -0.2 C 4.25 g/m*3 -0.2 C 0 km/h
740 24-12-2006 04:00:01 -0.2 C 4.25 g/m*3 -0.2 C 0 km/h
741 24-12-2006 04:12:01 -0.1 C 4.28 g/m*3 -0.1 C 0 km/h
742 24-12-2006 04:24:02 -0.2 C 4.25 g/m*3 -0.2 C 0 km/h
743 24-12-2006 04:36:01 -0.2 C 4.25 g/m*3 -0.2 C 0 km/h
744 24-12-2006 04:48:01 -0.2 C 4.25 g/m*3 -0.2 C 0 km/h
745 24-12-2006 05:00:01 -0.2 C 4.25 g/m*3 -0.2 C 0 km/h
746 24-12-2006 05:12:01 -0.2 C 4.25 g/m*3 -0.2 C 0 km/h
747 24-12-2006 05:24:02 -0.3 C 4.22 g/m*3 -0.3 C 0 km/h
748 24-12-2006 05:36:01 -0.3 C 4.22 g/m*3 -0.3 C 0 km/h
749 24-12-2006 05:48:02 -0.3 C 4.22 g/m*3 -0.3 C 0 km/h
750 24-12-2006 06:00:02 -0.4 C 4.19 g/m*3 -0.4 C 0 km/h
Sensor: Nr:Datum:Temp:Abs-Feuchte:Windchill:Wind:
Aussen-T/F 751 24-12-2006 06:12:02 -0.3 C 4.22 g/m*3 -0.3 C 0 km/h
752 24-12-2006 06:24:01 -0.3 C 4.27 g/m*3 -0.3 C 0 km/h
753 24-12-2006 06:36:02 -0.3 C 4.27 g/m*3 -0.3 C 0 km/h
754 24-12-2006 06:48:01 -0.3 C 4.27 g/m*3 -0.3 C 0 km/h
755 24-12-2006 07:00:01 -0.3 C 4.27 g/m*3 -0.3 C 0 km/h
756 24-12-2006 07:12:02 -0.2 C 4.3 g/m*3 -0.2 C 0 km/h
757 24-12-2006 07:24:01 -0.2 C 4.3 g/m*3 -0.2 C 0 km/h
758 24-12-2006 07:36:02 -0.1 C 4.33 g/m*3 -0.1 C 0 km/h
759 24-12-2006 07:48:01 -0.2 C 4.3 g/m*3 -0.2 C 0 km/h
760 24-12-2006 08:00:01 -0.3 C 4.27 g/m*3 -0.3 C 0 km/h
761 24-12-2006 08:12:02 -0.3 C 4.27 g/m*3 -0.3 C 0 km/h
762 24-12-2006 08:24:01 -0.3 C 4.27 g/m*3 -0.3 C 0 km/h
763 24-12-2006 08:36:02 -0.3 C 4.27 g/m*3 -0.3 C 0 km/h
764 24-12-2006 08:48:01 -0.2 C 4.3 g/m*3 -0.2 C 0 km/h
765 24-12-2006 09:00:01 -0.1 C 4.33 g/m*3 -0.1 C 0 km/h
766 24-12-2006 09:12:02 -0.1 C 4.33 g/m*3 -0.1 C 0 km/h
767 24-12-2006 09:24:01 0 C 4.36 g/m*3 0 C 0 km/h
768 24-12-2006 09:36:02 0 C 4.31 g/m*3 0 C 0 km/h
769 24-12-2006 09:48:01 0 C 4.31 g/m*3 0 C 0 km/h
770 24-12-2006 10:00:01 0.1 C 4.34 g/m*3 0.1 C 0 km/h
771 24-12-2006 10:12:02 0.2 C 4.37 g/m*3 0.2 C 0 km/h
772 24-12-2006 10:24:01 0.3 C 4.4 g/m*3 0.3 C 0 km/h
773 24-12-2006 10:36:01 0.4 C 4.43 g/m*3 0.4 C 0 km/h
774 24-12-2006 10:48:01 0.5 C 4.46 g/m*3 0.5 C 0 km/h
775 24-12-2006 11:00:01 0.5 C 4.41 g/m*3 0.5 C 0 km/h
Sensor: Nr:Datum:Temp:Abs-Feuchte:Windchill:Wind:
Aussen-T/F 776 24-12-2006 11:12:02 0.6 C 4.44 g/m*3 0.6 C 0 km/h
777 24-12-2006 11:24:01 0.6 C 4.44 g/m*3 0.6 C 0 km/h
778 24-12-2006 11:36:01 0.6 C 4.39 g/m*3 0.6 C 0 km/h
779 24-12-2006 11:48:01 0.7 C 4.42 g/m*3 0.7 C 0 km/h
780 24-12-2006 12:00:01 0.4 C 4.28 g/m*3 0.4 C 0 km/h
781 24-12-2006 12:12:02 0.6 C 4.34 g/m*3 0.6 C 0 km/h
782 24-12-2006 12:24:02 0.8 C 4.4 g/m*3 0.8 C 0 km/h
783 24-12-2006 12:36:01 0.9 C 4.43 g/m*3 0.9 C 0 km/h
784 24-12-2006 12:48:01 0.9 C 4.38 g/m*3 0.9 C 0 km/h
785 24-12-2006 13:00:01 0.9 C 4.33 g/m*3 0.9 C 0 km/h
786 24-12-2006 13:12:01 1.3 C 4.45 g/m*3 1.3 C 0 km/h
787 24-12-2006 13:24:02 1.1 C 4.34 g/m*3 1.1 C 0 km/h
788 24-12-2006 13:36:01 1.2 C 4.37 g/m*3 1.2 C 0 km/h
789 24-12-2006 13:48:01 1.3 C 4.34 g/m*3 1.3 C 0 km/h
790 24-12-2006 14:00:01 1.4 C 4.37 g/m*3 1.4 C 0 km/h
791 24-12-2006 14:12:01 1.2 C 4.26 g/m*3 1.2 C 0 km/h
792 24-12-2006 14:24:02 1.2 C 4.26 g/m*3 1.2 C 0 km/h
793 24-12-2006 14:36:01 1.2 C 4.26 g/m*3 1.2 C 0 km/h
794 24-12-2006 14:48:01 1 C 4.2 g/m*3 1 C 0 km/h
795 24-12-2006 15:00:02 0.8 C 4.2 g/m*3 0.8 C 0 km/h
796 24-12-2006 15:12:01 0.8 C 4.2 g/m*3 0.8 C 0 km/h
797 24-12-2006 15:24:02 0.9 C 4.28 g/m*3 0.9 C 0 km/h
798 24-12-2006 15:36:01 0.8 C 4.2 g/m*3 0.8 C 0 km/h
799 24-12-2006 15:48:02 0.7 C 4.17 g/m*3 0.7 C 0 km/h
800 24-12-2006 16:00:02 0.5 C 4.11 g/m*3 0.5 C 0 km/h
Sensor: Nr:Datum:Temp:Abs-Feuchte:Windchill:Wind:
Aussen-T/F 801 24-12-2006 16:12:01 0.3 C 4.06 g/m*3 0.3 C 0 km/h
802 24-12-2006 16:24:02 0.2 C 4.08 g/m*3 0.2 C 0 km/h
803 24-12-2006 16:36:01 0.1 C 4.05 g/m*3 0.1 C 0 km/h
804 24-12-2006 16:48:02 0.1 C 4.1 g/m*3 0.1 C 0 km/h
805 24-12-2006 17:00:02 -0.1 C 4.04 g/m*3 -0.1 C 0 km/h
806 24-12-2006 17:12:01 -0.1 C 4.09 g/m*3 -0.1 C 0 km/h
807 24-12-2006 17:24:02 -0.2 C 4.06 g/m*3 -0.2 C 0 km/h
808 24-12-2006 17:36:01 -0.3 C 4.08 g/m*3 -0.3 C 0 km/h
809 24-12-2006 17:48:01 -0.2 C 4.11 g/m*3 -0.2 C 0 km/h
810 24-12-2006 18:00:02 -0.2 C 4.11 g/m*3 -0.2 C 0 km/h
811 24-12-2006 18:12:01 -0.1 C 4.19 g/m*3 -0.1 C 0 km/h
812 24-12-2006 18:24:02 -0.1 C 4.19 g/m*3 -0.1 C 0 km/h
813 24-12-2006 18:36:01 -0.2 C 4.16 g/m*3 -0.2 C 0 km/h
814 24-12-2006 18:48:02 -0.1 C 4.19 g/m*3 -0.1 C 0 km/h
815 24-12-2006 19:00:02 -0.1 C 4.19 g/m*3 -0.1 C 0 km/h
816 24-12-2006 19:12:01 0 C 4.22 g/m*3 0 C 0 km/h
817 24-12-2006 19:24:02 -0.1 C 4.23 g/m*3 -0.1 C 0 km/h
818 24-12-2006 19:36:01 0 C 4.26 g/m*3 0 C 0 km/h
819 24-12-2006 19:48:01 0.1 C 4.34 g/m*3 0.1 C 0 km/h
820 24-12-2006 20:00:02 0.2 C 4.37 g/m*3 0.2 C 0 km/h
821 24-12-2006 20:12:01 0.3 C 4.4 g/m*3 0.3 C 0 km/h
822 24-12-2006 20:24:02 0.1 C 4.34 g/m*3 0.1 C 0 km/h
823 24-12-2006 20:36:01 0.1 C 4.34 g/m*3 0.1 C 0 km/h
824 24-12-2006 20:48:01 0.1 C 4.34 g/m*3 0.1 C 0 km/h
825 24-12-2006 21:00:02 0.2 C 4.37 g/m*3 0.2 C 0 km/h
Sensor: Nr:Datum:Temp:Abs-Feuchte:Windchill:Wind:
Aussen-T/F 826 24-12-2006 21:12:01 0.3 C 4.45 g/m*3 0.3 C 0 km/h
827 24-12-2006 21:24:02 0.2 C 4.42 g/m*3 0.2 C 0 km/h
828 24-12-2006 21:36:01 0.2 C 4.42 g/m*3 0.2 C 0 km/h
829 24-12-2006 21:48:01 0.2 C 4.42 g/m*3 0.2 C 0 km/h
830 24-12-2006 22:00:02 0.1 C 4.39 g/m*3 0.1 C 0 km/h
831 24-12-2006 22:12:01 0.1 C 4.39 g/m*3 0.1 C 0 km/h
832 24-12-2006 22:24:02 0.1 C 4.39 g/m*3 0.1 C 0 km/h
833 24-12-2006 22:36:01 0.1 C 4.39 g/m*3 0.1 C 0 km/h
834 24-12-2006 22:48:01 0.1 C 4.39 g/m*3 0.1 C 0 km/h
835 24-12-2006 23:00:02 -0.1 C 4.33 g/m*3 -0.1 C 0 km/h
836 24-12-2006 23:12:01 0 C 4.36 g/m*3 0 C 0 km/h
837 24-12-2006 23:24:02 0 C 4.36 g/m*3 0 C 0 km/h
838 24-12-2006 23:36:01 0.1 C 4.39 g/m*3 0.1 C 0 km/h
839 24-12-2006 23:48:02 -0.1 C 4.33 g/m*3 -0.1 C 0 km/h
840 25-12-2006 00:00:02 -0.1 C 4.33 g/m*3 -0.1 C 0 km/h
841 25-12-2006 00:12:01 -0.2 C 4.3 g/m*3 -0.2 C 0 km/h
842 25-12-2006 00:24:02 -0.2 C 4.3 g/m*3 -0.2 C 0 km/h
843 25-12-2006 00:36:02 -0.1 C 4.38 g/m*3 -0.1 C 0 km/h
844 25-12-2006 00:48:01 -0.2 C 4.35 g/m*3 -0.2 C 0 km/h
845 25-12-2006 01:00:01 -0.1 C 4.38 g/m*3 -0.1 C 0 km/h
846 25-12-2006 01:12:02 -0.2 C 4.3 g/m*3 -0.2 C 0 km/h
847 25-12-2006 01:24:01 -0.4 C 4.24 g/m*3 -0.4 C 0 km/h
848 25-12-2006 01:36:02 -0.3 C 4.27 g/m*3 -0.3 C 0 km/h
849 25-12-2006 01:48:01 -0.3 C 4.27 g/m*3 -0.3 C 0 km/h
850 25-12-2006 02:00:01 -0.4 C 4.24 g/m*3 -0.4 C 0 km/h
Sensor: Nr:Datum:Temp:Abs-Feuchte:Windchill:Wind:
Aussen-T/F 851 25-12-2006 02:12:02 -0.5 C 4.17 g/m*3 -0.5 C 0 km/h
852 25-12-2006 02:24:01 -0.5 C 4.17 g/m*3 -0.5 C 0 km/h
853 25-12-2006 02:36:01 -0.6 C 4.14 g/m*3 -0.6 C 0 km/h
854 25-12-2006 02:49:03 -0.7 C 4.06 g/m*3 -0.7 C 0 km/h
855 25-12-2006 03:01:03 -0.7 C 4.06 g/m*3 -0.7 C 0 km/h
856 25-12-2006 03:13:03 -0.8 C 3.99 g/m*3 -0.8 C 0 km/h
857 25-12-2006 03:25:03 -1 C 3.93 g/m*3 -1 C 0 km/h
858 25-12-2006 03:37:01 -0.9 C 3.96 g/m*3 -0.9 C 0 km/h
859 25-12-2006 03:49:01 -0.9 C 3.96 g/m*3 -0.9 C 0 km/h
860 25-12-2006 04:01:02 -0.9 C 3.96 g/m*3 -0.9 C 0 km/h
861 25-12-2006 04:13:02 -0.7 C 3.97 g/m*3 -0.7 C 0 km/h
862 25-12-2006 04:25:01 -0.8 C 3.94 g/m*3 -0.8 C 0 km/h
863 25-12-2006 04:37:01 -0.7 C 3.97 g/m*3 -0.7 C 0 km/h
864 25-12-2006 04:49:02 -0.7 C 3.97 g/m*3 -0.7 C 0 km/h
865 25-12-2006 05:01:02 -0.6 C 4 g/m*3 -0.6 C 0 km/h
866 25-12-2006 05:13:02 -0.8 C 3.9 g/m*3 -0.8 C 0 km/h
867 25-12-2006 05:25:02 -0.9 C 3.87 g/m*3 -0.9 C 0 km/h
868 25-12-2006 05:37:03 -1 C 3.8 g/m*3 -1 C 0 km/h
869 25-12-2006 05:49:02 -1 C 3.75 g/m*3 -1 C 0 km/h
870 25-12-2006 06:01:02 -0.9 C 3.78 g/m*3 -0.9 C 0 km/h
871 25-12-2006 06:13:02 -0.9 C 3.73 g/m*3 -0.9 C 0 km/h
872 25-12-2006 06:25:02 -0.8 C 3.76 g/m*3 -0.8 C 0 km/h
873 25-12-2006 06:37:02 -0.7 C 3.78 g/m*3 -0.7 C 0 km/h
874 25-12-2006 06:49:02 -0.7 C 3.78 g/m*3 -0.7 C 0 km/h
875 25-12-2006 07:01:02 -0.7 C 3.74 g/m*3 -0.7 C 0 km/h
Sensor: Nr:Datum:Temp:Abs-Feuchte:Windchill:Wind:
Aussen-T/F 876 25-12-2006 07:13:02 -0.6 C 3.76 g/m*3 -0.6 C 0 km/h
877 25-12-2006 07:25:03 -0.6 C 3.76 g/m*3 -0.6 C 0 km/h
878 25-12-2006 07:37:02 -0.6 C 3.76 g/m*3 -0.6 C 0 km/h
879 25-12-2006 07:49:02 -0.6 C 3.76 g/m*3 -0.6 C 0 km/h
880 25-12-2006 08:01:01 -0.5 C 3.79 g/m*3 -0.5 C 0 km/h
881 25-12-2006 08:13:01 -0.5 C 3.79 g/m*3 -0.5 C 0 km/h
882 25-12-2006 08:25:01 -0.5 C 3.79 g/m*3 -0.5 C 0 km/h
883 25-12-2006 08:37:02 -0.4 C 3.82 g/m*3 -0.4 C 0 km/h
884 25-12-2006 08:49:02 -0.4 C 3.82 g/m*3 -0.4 C 0 km/h
885 25-12-2006 09:01:02 -0.5 C 3.79 g/m*3 -0.5 C 0 km/h
886 25-12-2006 09:13:02 -0.3 C 3.84 g/m*3 -0.3 C 0 km/h
887 25-12-2006 09:25:01 -0.2 C 3.87 g/m*3 -0.2 C 0 km/h
888 25-12-2006 09:37:02 -0.3 C 3.84 g/m*3 -0.3 C 0 km/h
889 25-12-2006 09:49:02 -0.3 C 3.84 g/m*3 -0.3 C 0 km/h
890 25-12-2006 10:01:01 -0.3 C 3.8 g/m*3 -0.3 C 0 km/h
891 25-12-2006 10:13:01 -0.1 C 3.9 g/m*3 -0.1 C 0 km/h
892 25-12-2006 10:25:01 0.1 C 3.95 g/m*3 0.1 C 0 km/h
893 25-12-2006 10:37:02 0.2 C 3.98 g/m*3 0.2 C 0 km/h
894 25-12-2006 10:49:02 0.2 C 3.93 g/m*3 0.2 C 0 km/h
895 25-12-2006 11:01:02 0.3 C 3.96 g/m*3 0.3 C 0 km/h
896 25-12-2006 11:13:02 0.4 C 3.98 g/m*3 0.4 C 0 km/h
897 25-12-2006 11:25:01 0.5 C 3.96 g/m*3 0.5 C 0 km/h
898 25-12-2006 11:37:02 0.6 C 3.99 g/m*3 0.6 C 0 km/h
899 25-12-2006 11:49:02 0.7 C 4.02 g/m*3 0.7 C 0 km/h
900 25-12-2006 12:01:01 0.7 C 3.97 g/m*3 0.7 C 0 km/h
Sensor: Nr:Datum:Temp:Abs-Feuchte:Windchill:Wind:
Aussen-T/F 901 25-12-2006 12:13:01 0.7 C 4.02 g/m*3 0.7 C 0 km/h
902 25-12-2006 12:25:01 0.8 C 4.04 g/m*3 0.8 C 0 km/h
903 25-12-2006 12:37:02 0.9 C 4.07 g/m*3 0.9 C 0 km/h
904 25-12-2006 12:49:01 1 C 4.05 g/m*3 1 C 0 km/h
905 25-12-2006 13:01:02 1.1 C 4.08 g/m*3 1.1 C 0 km/h
906 25-12-2006 13:13:02 1.2 C 4.1 g/m*3 1.2 C 0 km/h
907 25-12-2006 13:25:02 1.2 C 4.1 g/m*3 1.2 C 0 km/h
908 25-12-2006 13:37:01 1.2 C 4.05 g/m*3 1.2 C 0 km/h
909 25-12-2006 13:49:02 1.3 C 4.13 g/m*3 1.3 C 0 km/h
910 25-12-2006 14:01:02 1.3 C 4.13 g/m*3 1.3 C 0 km/h
911 25-12-2006 14:13:02 1.3 C 4.13 g/m*3 1.3 C 0 km/h
912 25-12-2006 14:25:02 1.2 C 4.1 g/m*3 1.2 C 0 km/h
913 25-12-2006 14:37:02 1.2 C 4.16 g/m*3 1.2 C 0 km/h
914 25-12-2006 14:49:02 1.2 C 4.16 g/m*3 1.2 C 0 km/h
915 25-12-2006 15:01:02 1.2 C 4.16 g/m*3 1.2 C 0 km/h
916 25-12-2006 15:13:02 1.3 C 4.24 g/m*3 1.3 C 0 km/h
917 25-12-2006 15:25:01 1.3 C 4.24 g/m*3 1.3 C 0 km/h
918 25-12-2006 15:37:01 1.3 C 4.24 g/m*3 1.3 C 0 km/h
919 25-12-2006 15:49:02 1.3 C 4.24 g/m*3 1.3 C 0 km/h
920 25-12-2006 16:01:01 1.2 C 4.26 g/m*3 1.2 C 0 km/h
921 25-12-2006 16:13:01 1.2 C 4.26 g/m*3 1.2 C 0 km/h
922 25-12-2006 16:25:04 1.2 C 4.31 g/m*3 1.2 C 0 km/h
923 25-12-2006 16:37:02 1.2 C 4.31 g/m*3 1.2 C 0 km/h
924 25-12-2006 16:49:01 1.3 C 4.34 g/m*3 1.3 C 0 km/h
925 25-12-2006 17:01:02 1.3 C 4.34 g/m*3 1.3 C 0 km/h
Sensor: Nr:Datum:Temp:Abs-Feuchte:Windchill:Wind:
Aussen-T/F 926 25-12-2006 17:13:02 1.3 C 4.34 g/m*3 1.3 C 0 km/h
927 25-12-2006 17:25:02 1.3 C 4.34 g/m*3 1.3 C 0 km/h
928 25-12-2006 17:37:01 1.3 C 4.34 g/m*3 1.3 C 0 km/h
929 25-12-2006 17:49:01 1.2 C 4.31 g/m*3 1.2 C 0 km/h
930 25-12-2006 18:01:02 1.2 C 4.31 g/m*3 1.2 C 0 km/h
931 25-12-2006 18:13:02 1.3 C 4.4 g/m*3 1.3 C 0 km/h
932 25-12-2006 18:25:02 1.2 C 4.37 g/m*3 1.2 C 0 km/h
933 25-12-2006 18:37:01 1.3 C 4.4 g/m*3 1.3 C 0 km/h
934 25-12-2006 18:49:01 1.3 C 4.4 g/m*3 1.3 C 0 km/h
935 25-12-2006 19:01:02 1.4 C 4.43 g/m*3 1.4 C 0 km/h
936 25-12-2006 19:13:02 1.5 C 4.46 g/m*3 1.5 C 0 km/h
937 25-12-2006 19:25:02 1.7 C 4.57 g/m*3 1.7 C 0 km/h
938 25-12-2006 19:37:01 1.8 C 4.6 g/m*3 1.8 C 0 km/h
939 25-12-2006 19:49:01 1.7 C 4.52 g/m*3 1.7 C 0 km/h
940 25-12-2006 20:01:02 1.8 C 4.55 g/m*3 1.8 C 0 km/h
941 25-12-2006 20:13:02 1.8 C 4.55 g/m*3 1.8 C 0 km/h
942 25-12-2006 20:25:02 1.9 C 4.58 g/m*3 1.9 C 0 km/h
943 25-12-2006 20:37:01 1.9 C 4.58 g/m*3 1.9 C 0 km/h
944 25-12-2006 20:49:01 1.8 C 4.55 g/m*3 1.8 C 0 km/h
945 25-12-2006 21:01:02 1.8 C 4.55 g/m*3 1.8 C 0 km/h
946 25-12-2006 21:13:02 1.8 C 4.55 g/m*3 1.8 C 0 km/h
947 25-12-2006 21:25:02 1.8 C 4.55 g/m*3 1.8 C 0 km/h
948 25-12-2006 21:37:01 1.9 C 4.58 g/m*3 1.9 C 0 km/h
949 25-12-2006 21:49:01 1.9 C 4.58 g/m*3 1.9 C 0 km/h
950 25-12-2006 22:01:02 2 C 4.5 g/m*3 2 C 0 km/h
Sensor: Nr:Datum:Temp:Abs-Feuchte:Windchill:Wind:
Aussen-T/F 951 25-12-2006 22:13:02 2 C 4.5 g/m*3 2 C 0 km/h
952 25-12-2006 22:25:02 2 C 4.45 g/m*3 2 C 0 km/h
953 25-12-2006 22:37:01 2 C 4.45 g/m*3 2 C 0 km/h
954 25-12-2006 22:49:01 2 C 4.45 g/m*3 2 C 0 km/h
955 25-12-2006 23:01:02 2 C 4.39 g/m*3 2 C 0 km/h
956 25-12-2006 23:13:02 1.9 C 4.42 g/m*3 1.9 C 0 km/h
957 25-12-2006 23:25:02 2 C 4.39 g/m*3 2 C 0 km/h
958 25-12-2006 23:37:01 1.8 C 4.39 g/m*3 1.8 C 0 km/h
959 25-12-2006 23:49:01 1.8 C 4.39 g/m*3 1.8 C 0 km/h
960 26-12-2006 00:01:02 1.8 C 4.39 g/m*3 1.8 C 0 km/h
961 26-12-2006 00:13:02 1.8 C 4.39 g/m*3 1.8 C 0 km/h
962 26-12-2006 00:25:01 1.8 C 4.39 g/m*3 1.8 C 0 km/h
963 26-12-2006 00:37:01 1.9 C 4.47 g/m*3 1.9 C 0 km/h
964 26-12-2006 00:49:02 1.9 C 4.42 g/m*3 1.9 C 0 km/h
965 26-12-2006 01:01:01 1.9 C 4.42 g/m*3 1.9 C 0 km/h
966 26-12-2006 01:13:01 1.8 C 4.39 g/m*3 1.8 C 0 km/h
967 26-12-2006 01:25:02 1.8 C 4.39 g/m*3 1.8 C 0 km/h
968 26-12-2006 01:37:02 1.8 C 4.39 g/m*3 1.8 C 0 km/h
969 26-12-2006 01:49:02 1.9 C 4.42 g/m*3 1.9 C 0 km/h
970 26-12-2006 02:01:02 1.9 C 4.42 g/m*3 1.9 C 0 km/h
971 26-12-2006 02:13:02 2 C 4.33 g/m*3 2 C 0 km/h
972 26-12-2006 02:25:02 2 C 4.33 g/m*3 2 C 0 km/h
973 26-12-2006 02:37:02 2 C 4.33 g/m*3 2 C 0 km/h
974 26-12-2006 02:50:03 2 C 4.33 g/m*3 2 C 0 km/h
975 26-12-2006 03:02:03 2 C 4.33 g/m*3 2 C 0 km/h
Sensor: Nr:Datum:Temp:Abs-Feuchte:Windchill:Wind:
Aussen-T/F 976 26-12-2006 03:14:03 2 C 4.33 g/m*3 2 C 0 km/h
977 26-12-2006 03:26:03 2 C 4.33 g/m*3 2 C 0 km/h
978 26-12-2006 03:38:01 2 C 4.33 g/m*3 2 C 0 km/h
979 26-12-2006 03:50:01 2 C 4.33 g/m*3 2 C 0 km/h
980 26-12-2006 04:02:02 2 C 4.33 g/m*3 2 C 0 km/h
981 26-12-2006 04:14:02 2 C 4.28 g/m*3 2 C 0 km/h
982 26-12-2006 04:26:02 2 C 4.28 g/m*3 2 C 0 km/h
983 26-12-2006 04:38:01 2 C 4.28 g/m*3 2 C 0 km/h
984 26-12-2006 04:50:02 1.9 C 4.25 g/m*3 1.9 C 0 km/h
985 26-12-2006 05:02:01 2 C 4.22 g/m*3 2 C 0 km/h
986 26-12-2006 05:14:01 2 C 4.22 g/m*3 2 C 0 km/h
987 26-12-2006 05:26:02 1.9 C 4.25 g/m*3 1.9 C 0 km/h
988 26-12-2006 05:38:02 1.8 C 4.17 g/m*3 1.8 C 0 km/h
989 26-12-2006 05:50:02 1.8 C 4.17 g/m*3 1.8 C 0 km/h
990 26-12-2006 06:02:01 1.8 C 4.17 g/m*3 1.8 C 0 km/h
991 26-12-2006 06:14:01 1.8 C 4.11 g/m*3 1.8 C 0 km/h
992 26-12-2006 06:26:02 1.7 C 4.08 g/m*3 1.7 C 0 km/h
993 26-12-2006 06:38:01 1.7 C 4.08 g/m*3 1.7 C 0 km/h
994 26-12-2006 06:50:02 1.7 C 4.08 g/m*3 1.7 C 0 km/h
995 26-12-2006 07:02:01 1.6 C 4.06 g/m*3 1.6 C 0 km/h
996 26-12-2006 07:14:01 1.6 C 4 g/m*3 1.6 C 0 km/h
997 26-12-2006 07:26:02 1.6 C 4 g/m*3 1.6 C 0 km/h
998 26-12-2006 07:38:01 1.5 C 3.97 g/m*3 1.5 C 0 km/h
999 26-12-2006 07:50:02 1.4 C 3.95 g/m*3 1.4 C 0 km/h
1000 26-12-2006 08:02:01 1.4 C 3.95 g/m*3 1.4 C 0 km/h
Sensor: Nr:Datum:Temp:Abs-Feuchte:Windchill:Wind:
Aussen-T/F 1001 26-12-2006 08:14:01 1.4 C 3.95 g/m*3 1.4 C 0 km/h
1002 26-12-2006 08:26:02 1.4 C 3.95 g/m*3 1.4 C 0 km/h
1003 26-12-2006 08:38:01 1.4 C 3.95 g/m*3 1.4 C 0 km/h
1004 26-12-2006 08:50:02 1.4 C 3.95 g/m*3 1.4 C 0 km/h
1005 26-12-2006 09:02:01 1.4 C 3.95 g/m*3 1.4 C 0 km/h
1006 26-12-2006 09:14:01 1.4 C 3.89 g/m*3 1.4 C 0 km/h
1007 26-12-2006 09:26:02 1.4 C 3.89 g/m*3 1.4 C 0 km/h
1008 26-12-2006 09:38:02 1.5 C 3.87 g/m*3 1.5 C 0 km/h
1009 26-12-2006 09:50:02 1.5 C 3.87 g/m*3 1.5 C 0 km/h
1010 26-12-2006 10:02:02 1.5 C 3.87 g/m*3 1.5 C 0 km/h
1011 26-12-2006 10:14:02 1.6 C 3.89 g/m*3 1.6 C 0 km/h
1012 26-12-2006 10:26:02 1.7 C 3.87 g/m*3 1.7 C 0 km/h
1013 26-12-2006 10:38:02 1.8 C 3.84 g/m*3 1.8 C 0 km/h
1014 26-12-2006 10:50:02 1.8 C 3.84 g/m*3 1.8 C 0 km/h
1015 26-12-2006 11:02:02 1.9 C 3.86 g/m*3 1.9 C 0 km/h
1016 26-12-2006 11:14:02 2 C 3.78 g/m*3 2 C 0 km/h
1017 26-12-2006 11:26:02 2.2 C 3.83 g/m*3 2.2 C 0 km/h
1018 26-12-2006 11:38:02 2.2 C 3.77 g/m*3 2.2 C 0 km/h
1019 26-12-2006 11:50:02 2.4 C 3.83 g/m*3 2.4 C 0 km/h
1020 26-12-2006 12:02:02 2.5 C 3.79 g/m*3 2.5 C 0 km/h
1021 26-12-2006 12:14:02 2.7 C 3.79 g/m*3 2.7 C 0 km/h
1022 26-12-2006 12:26:01 2.8 C 3.81 g/m*3 2.8 C 0 km/h
1023 26-12-2006 12:38:02 2.8 C 3.75 g/m*3 2.8 C 0 km/h
1024 26-12-2006 12:50:02 2.9 C 3.78 g/m*3 2.9 C 0 km/h
1025 26-12-2006 13:02:02 2.9 C 3.78 g/m*3 2.9 C 0 km/h
Sensor: Nr:Datum:Temp:Abs-Feuchte:Windchill:Wind:
Aussen-T/F 1026 26-12-2006 13:14:03 3.1 C 3.71 g/m*3 3.1 C 0 km/h
1027 26-12-2006 13:26:02 3.2 C 3.68 g/m*3 3.2 C 0 km/h
1028 26-12-2006 13:38:03 3.3 C 3.7 g/m*3 3.3 C 0 km/h
1029 26-12-2006 13:50:01 3.3 C 3.64 g/m*3 3.3 C 0 km/h
1030 26-12-2006 14:02:02 3 C 3.63 g/m*3 3 C 0 km/h
1031 26-12-2006 14:14:02 2.7 C 3.67 g/m*3 2.7 C 0 km/h
1032 26-12-2006 14:26:02 2.5 C 3.68 g/m*3 2.5 C 0 km/h
1033 26-12-2006 14:38:02 2.3 C 3.8 g/m*3 2.3 C 0 km/h
1034 26-12-2006 14:50:02 2 C 3.83 g/m*3 2 C 0 km/h
1035 26-12-2006 15:02:02 1.8 C 3.95 g/m*3 1.8 C 0 km/h
1036 26-12-2006 15:14:03 1.6 C 4 g/m*3 1.6 C 0 km/h
1037 26-12-2006 15:26:01 1.5 C 4.03 g/m*3 1.5 C 0 km/h
1038 26-12-2006 15:38:02 1.4 C 4.05 g/m*3 1.4 C 0 km/h
1039 26-12-2006 15:50:03 1.3 C 4.08 g/m*3 1.3 C 0 km/h
1040 26-12-2006 16:02:02 1.2 C 4.1 g/m*3 1.2 C 0 km/h
1041 26-12-2006 16:14:03 1 C 4.05 g/m*3 1 C 0 km/h
1042 26-12-2006 16:26:02 0.9 C 4.12 g/m*3 0.9 C 0 km/h
1043 26-12-2006 16:38:03 0.6 C 4.04 g/m*3 0.6 C 0 km/h
1044 26-12-2006 16:50:02 0.5 C 4.06 g/m*3 0.5 C 0 km/h
1045 26-12-2006 17:02:02 0.3 C 4.01 g/m*3 0.3 C 0 km/h
1046 26-12-2006 17:14:02 0.1 C 4 g/m*3 0.1 C 0 km/h
1047 26-12-2006 17:26:02 0 C 3.97 g/m*3 0 C 0 km/h
1048 26-12-2006 17:38:02 -0.3 C 3.89 g/m*3 -0.3 C 0 km/h
1049 26-12-2006 17:50:02 -0.5 C 3.84 g/m*3 -0.5 C 0 km/h
1050 26-12-2006 18:02:02 -0.5 C 3.84 g/m*3 -0.5 C 0 km/h
Sensor: Nr:Datum:Temp:Abs-Feuchte:Windchill:Wind:
Aussen-T/F 1051 26-12-2006 18:14:02 -0.7 C 3.78 g/m*3 -0.7 C 0 km/h
1052 26-12-2006 18:26:02 -0.8 C 3.8 g/m*3 -0.8 C 0 km/h
1053 26-12-2006 18:38:01 -1.1 C 3.68 g/m*3 -1.1 C 0 km/h
1054 26-12-2006 18:50:02 -1.2 C 3.7 g/m*3 -1.2 C 0 km/h
1055 26-12-2006 19:02:02 -1.1 C 3.73 g/m*3 -1.1 C 0 km/h
1056 26-12-2006 19:14:02 -1.3 C 3.67 g/m*3 -1.3 C 0 km/h
1057 26-12-2006 19:26:02 -1.4 C 3.65 g/m*3 -1.4 C 0 km/h
1058 26-12-2006 19:38:02 -1.5 C 3.67 g/m*3 -1.5 C 0 km/h
1059 26-12-2006 19:50:02 -1.7 C 3.62 g/m*3 -1.7 C 0 km/h
1060 26-12-2006 20:02:02 -1.9 C 3.57 g/m*3 -1.9 C 0 km/h
1061 26-12-2006 20:14:02 -2 C 3.54 g/m*3 -2 C 0 km/h
1062 26-12-2006 20:26:02 -2.2 C 3.49 g/m*3 -2.2 C 0 km/h
1063 26-12-2006 20:38:02 -2.1 C 3.52 g/m*3 -2.1 C 0 km/h
1064 26-12-2006 20:50:02 -2.2 C 3.49 g/m*3 -2.2 C 0 km/h
1065 26-12-2006 21:02:02 -2.2 C 3.49 g/m*3 -2.2 C 0 km/h
1066 26-12-2006 21:14:02 -2 C 3.58 g/m*3 -2 C 0 km/h
1067 26-12-2006 21:26:02 -2 C 3.58 g/m*3 -2 C 0 km/h
1068 26-12-2006 21:38:02 -2.1 C 3.56 g/m*3 -2.1 C 0 km/h
1069 26-12-2006 21:50:02 -2.3 C 3.51 g/m*3 -2.3 C 0 km/h
1070 26-12-2006 22:02:02 -2.4 C 3.48 g/m*3 -2.4 C 0 km/h
1071 26-12-2006 22:14:02 -2.5 C 3.46 g/m*3 -2.5 C 0 km/h
1072 26-12-2006 22:26:02 -2.8 C 3.39 g/m*3 -2.8 C 0 km/h
1073 26-12-2006 22:38:02 -2.8 C 3.39 g/m*3 -2.8 C 0 km/h
1074 26-12-2006 22:50:02 -2.7 C 3.41 g/m*3 -2.7 C 0 km/h
1075 26-12-2006 23:02:02 -2.6 C 3.48 g/m*3 -2.6 C 0 km/h
Sensor: Nr:Datum:Temp:Abs-Feuchte:Windchill:Wind:
Aussen-T/F 1076 26-12-2006 23:14:02 -2.7 C 3.45 g/m*3 -2.7 C 0 km/h
1077 26-12-2006 23:26:03 -2.9 C 3.4 g/m*3 -2.9 C 0 km/h
1078 26-12-2006 23:38:02 -3.1 C 3.35 g/m*3 -3.1 C 0 km/h
1079 26-12-2006 23:50:01 -2.9 C 3.4 g/m*3 -2.9 C 0 km/h
1080 27-12-2006 00:02:01 -2.7 C 3.49 g/m*3 -2.7 C 0 km/h
1081 27-12-2006 00:14:01 -2.5 C 3.54 g/m*3 -2.5 C 0 km/h
1082 27-12-2006 00:26:02 -2.5 C 3.58 g/m*3 -2.5 C 0 km/h
1083 27-12-2006 00:38:01 -2.5 C 3.58 g/m*3 -2.5 C 0 km/h
1084 27-12-2006 00:50:02 -2.5 C 3.58 g/m*3 -2.5 C 0 km/h
1085 27-12-2006 01:02:02 -2.5 C 3.62 g/m*3 -2.5 C 0 km/h
1086 27-12-2006 01:14:02 -2.6 C 3.6 g/m*3 -2.6 C 0 km/h
1087 27-12-2006 01:26:03 -2.6 C 3.6 g/m*3 -2.6 C 0 km/h
1088 27-12-2006 01:38:02 -2.6 C 3.6 g/m*3 -2.6 C 0 km/h
1089 27-12-2006 01:50:02 -2.8 C 3.55 g/m*3 -2.8 C 0 km/h
1090 27-12-2006 02:02:01 -2.8 C 3.55 g/m*3 -2.8 C 0 km/h
1091 27-12-2006 02:14:01 -2.8 C 3.55 g/m*3 -2.8 C 0 km/h
1092 27-12-2006 02:26:02 -2.9 C 3.52 g/m*3 -2.9 C 0 km/h
1093 27-12-2006 02:38:01 -2.8 C 3.55 g/m*3 -2.8 C 0 km/h
1094 27-12-2006 02:51:03 -2.8 C 3.55 g/m*3 -2.8 C 0 km/h
1095 27-12-2006 03:03:03 -2.9 C 3.52 g/m*3 -2.9 C 0 km/h
1096 27-12-2006 03:15:03 -3 C 3.5 g/m*3 -3 C 0 km/h
1097 27-12-2006 03:27:03 -3.1 C 3.47 g/m*3 -3.1 C 0 km/h
1098 27-12-2006 03:39:02 -3.1 C 3.43 g/m*3 -3.1 C 0 km/h
1099 27-12-2006 03:51:02 -3.1 C 3.43 g/m*3 -3.1 C 0 km/h
1100 27-12-2006 04:03:02 -3.2 C 3.41 g/m*3 -3.2 C 0 km/h
Sensor: Nr:Datum:Temp:Abs-Feuchte:Windchill:Wind:
Aussen-T/F 1101 27-12-2006 04:15:02 -3.3 C 3.38 g/m*3 -3.3 C 0 km/h
1102 27-12-2006 04:27:02 -3.4 C 3.36 g/m*3 -3.4 C 0 km/h
1103 27-12-2006 04:39:02 -3.4 C 3.36 g/m*3 -3.4 C 0 km/h
1104 27-12-2006 04:51:01 -3.3 C 3.38 g/m*3 -3.3 C 0 km/h
1105 27-12-2006 05:03:02 -3.3 C 3.38 g/m*3 -3.3 C 0 km/h
1106 27-12-2006 05:15:01 -3.3 C 3.38 g/m*3 -3.3 C 0 km/h
1107 27-12-2006 05:27:01 -3.2 C 3.41 g/m*3 -3.2 C 0 km/h
1108 27-12-2006 05:39:01 -3.1 C 3.43 g/m*3 -3.1 C 0 km/h
1109 27-12-2006 05:51:01 -3 C 3.46 g/m*3 -3 C 0 km/h
1110 27-12-2006 06:03:02 -3 C 3.46 g/m*3 -3 C 0 km/h
1111 27-12-2006 06:15:01 -3 C 3.42 g/m*3 -3 C 0 km/h
1112 27-12-2006 06:27:01 -2.8 C 3.47 g/m*3 -2.8 C 0 km/h
1113 27-12-2006 06:39:02 -2.6 C 3.52 g/m*3 -2.6 C 0 km/h
1114 27-12-2006 06:51:02 -2.5 C 3.54 g/m*3 -2.5 C 0 km/h
1115 27-12-2006 07:03:02 -2.4 C 3.57 g/m*3 -2.4 C 0 km/h
1116 27-12-2006 07:15:02 -2.3 C 3.59 g/m*3 -2.3 C 0 km/h
1117 27-12-2006 07:27:02 -2.2 C 3.62 g/m*3 -2.2 C 0 km/h
1118 27-12-2006 07:39:02 -2.2 C 3.57 g/m*3 -2.2 C 0 km/h
1119 27-12-2006 07:51:01 -2 C 3.63 g/m*3 -2 C 0 km/h
1120 27-12-2006 08:03:02 -2 C 3.63 g/m*3 -2 C 0 km/h
1121 27-12-2006 08:15:02 -1.9 C 3.61 g/m*3 -1.9 C 0 km/h
1122 27-12-2006 08:27:02 -1.9 C 3.61 g/m*3 -1.9 C 0 km/h
1123 27-12-2006 08:39:02 -1.9 C 3.57 g/m*3 -1.9 C 0 km/h
1124 27-12-2006 08:51:01 -1.8 C 3.59 g/m*3 -1.8 C 0 km/h
1125 27-12-2006 09:03:02 -1.6 C 3.64 g/m*3 -1.6 C 0 km/h
Sensor: Nr:Datum:Temp:Abs-Feuchte:Windchill:Wind:
Aussen-T/F 1126 27-12-2006 09:15:01 -1.4 C 3.69 g/m*3 -1.4 C 0 km/h
1127 27-12-2006 09:27:01 -1.3 C 3.72 g/m*3 -1.3 C 0 km/h
1128 27-12-2006 09:39:01 -1.1 C 3.77 g/m*3 -1.1 C 0 km/h
1129 27-12-2006 09:51:02 -1 C 3.75 g/m*3 -1 C 0 km/h
1130 27-12-2006 10:03:02 -0.9 C 3.73 g/m*3 -0.9 C 0 km/h
1131 27-12-2006 10:15:03 -0.8 C 3.76 g/m*3 -0.8 C 0 km/h
1132 27-12-2006 10:27:03 -0.7 C 3.74 g/m*3 -0.7 C 0 km/h
1133 27-12-2006 10:39:02 -0.6 C 3.67 g/m*3 -0.6 C 0 km/h
1134 27-12-2006 10:51:02 -0.5 C 3.7 g/m*3 -0.5 C 0 km/h
1135 27-12-2006 11:03:01 -0.4 C 3.68 g/m*3 -0.4 C 0 km/h
1136 27-12-2006 11:15:02 -0.4 C 3.63 g/m*3 -0.4 C 0 km/h
1137 27-12-2006 11:27:02 -0.3 C 3.61 g/m*3 -0.3 C 0 km/h
1138 27-12-2006 11:39:01 -0.3 C 3.61 g/m*3 -0.3 C 0 km/h
1139 27-12-2006 11:51:02 -0.2 C 3.63 g/m*3 -0.2 C 0 km/h
1140 27-12-2006 12:03:02 -0.4 C 3.53 g/m*3 -0.4 C 0 km/h
1141 27-12-2006 12:15:02 -0.3 C 3.61 g/m*3 -0.3 C 0 km/h
1142 27-12-2006 12:27:02 -0.3 C 3.61 g/m*3 -0.3 C 0 km/h
1143 27-12-2006 12:39:02 -0.3 C 3.56 g/m*3 -0.3 C 0 km/h
1144 27-12-2006 12:51:02 -0.3 C 3.56 g/m*3 -0.3 C 0 km/h
1145 27-12-2006 13:03:02 -0.3 C 3.51 g/m*3 -0.3 C 0 km/h
1146 27-12-2006 13:15:02 -0.2 C 3.54 g/m*3 -0.2 C 0 km/h
1147 27-12-2006 13:27:02 -0.1 C 3.51 g/m*3 -0.1 C 0 km/h
1148 27-12-2006 13:39:02 -0.1 C 3.51 g/m*3 -0.1 C 0 km/h
1149 27-12-2006 13:51:02 -0.1 C 3.51 g/m*3 -0.1 C 0 km/h
1150 27-12-2006 14:03:02 -0.1 C 3.51 g/m*3 -0.1 C 0 km/h
Sensor: Nr:Datum:Temp:Abs-Feuchte:Windchill:Wind:
Aussen-T/F 1151 27-12-2006 14:15:01 0 C 3.49 g/m*3 0 C 0 km/h
1152 27-12-2006 14:27:01 0 C 3.49 g/m*3 0 C 0 km/h
1153 27-12-2006 14:39:02 -0.1 C 3.46 g/m*3 -0.1 C 0 km/h
1154 27-12-2006 14:51:02 -0.1 C 3.46 g/m*3 -0.1 C 0 km/h
1155 27-12-2006 15:03:02 -0.1 C 3.51 g/m*3 -0.1 C 0 km/h
1156 27-12-2006 15:15:02 -0.1 C 3.51 g/m*3 -0.1 C 0 km/h
1157 27-12-2006 15:27:02 -0.1 C 3.51 g/m*3 -0.1 C 0 km/h
1158 27-12-2006 15:39:03 -0.1 C 3.51 g/m*3 -0.1 C 0 km/h
1159 27-12-2006 15:51:02 -0.1 C 3.51 g/m*3 -0.1 C 0 km/h
1160 27-12-2006 16:03:02 -0.1 C 3.51 g/m*3 -0.1 C 0 km/h
1161 27-12-2006 16:15:01 -0.1 C 3.51 g/m*3 -0.1 C 0 km/h
1162 27-12-2006 16:27:01 -0.2 C 3.49 g/m*3 -0.2 C 0 km/h
1163 27-12-2006 16:39:02 -0.2 C 3.49 g/m*3 -0.2 C 0 km/h
1164 27-12-2006 16:51:02 -0.3 C 3.46 g/m*3 -0.3 C 0 km/h
1165 27-12-2006 17:03:01 -0.3 C 3.46 g/m*3 -0.3 C 0 km/h
1166 27-12-2006 17:15:01 -0.3 C 3.46 g/m*3 -0.3 C 0 km/h
1167 27-12-2006 17:27:01 -0.4 C 3.39 g/m*3 -0.4 C 0 km/h
1168 27-12-2006 17:39:02 -0.4 C 3.39 g/m*3 -0.4 C 0 km/h
1169 27-12-2006 17:51:02 -0.4 C 3.35 g/m*3 -0.4 C 0 km/h
1170 27-12-2006 18:03:02 -0.4 C 3.35 g/m*3 -0.4 C 0 km/h
1171 27-12-2006 18:15:02 -0.4 C 3.35 g/m*3 -0.4 C 0 km/h
1172 27-12-2006 18:27:02 -0.4 C 3.35 g/m*3 -0.4 C 0 km/h
1173 27-12-2006 18:39:02 -0.4 C 3.35 g/m*3 -0.4 C 0 km/h
1174 27-12-2006 18:51:02 -0.4 C 3.35 g/m*3 -0.4 C 0 km/h
1175 27-12-2006 19:03:02 -0.4 C 3.35 g/m*3 -0.4 C 0 km/h
Sensor: Nr:Datum:Temp:Abs-Feuchte:Windchill:Wind:
Aussen-T/F 1176 27-12-2006 19:15:01 -0.5 C 3.28 g/m*3 -0.5 C 0 km/h
1177 27-12-2006 19:27:01 -0.5 C 3.23 g/m*3 -0.5 C 0 km/h
1178 27-12-2006 19:39:02 -0.5 C 3.23 g/m*3 -0.5 C 0 km/h
1179 27-12-2006 19:51:01 -0.5 C 3.18 g/m*3 -0.5 C 0 km/h
1180 27-12-2006 20:03:02 -0.6 C 3.16 g/m*3 -0.6 C 0 km/h
1181 27-12-2006 20:15:02 -0.6 C 3.16 g/m*3 -0.6 C 0 km/h
1182 27-12-2006 20:27:02 -0.6 C 3.21 g/m*3 -0.6 C 0 km/h
1183 27-12-2006 20:39:01 -0.6 C 3.21 g/m*3 -0.6 C 0 km/h
1184 27-12-2006 20:51:02 -0.6 C 3.25 g/m*3 -0.6 C 0 km/h
1185 27-12-2006 21:03:01 -0.6 C 3.25 g/m*3 -0.6 C 0 km/h
1186 27-12-2006 21:15:02 -0.6 C 3.25 g/m*3 -0.6 C 0 km/h
1187 27-12-2006 21:27:02 -0.6 C 3.21 g/m*3 -0.6 C 0 km/h
1188 27-12-2006 21:39:02 -0.6 C 3.21 g/m*3 -0.6 C 0 km/h
1189 27-12-2006 21:51:02 -0.6 C 3.16 g/m*3 -0.6 C 0 km/h
1190 27-12-2006 22:03:02 -0.5 C 3.18 g/m*3 -0.5 C 0 km/h
1191 27-12-2006 22:15:02 -0.5 C 3.18 g/m*3 -0.5 C 0 km/h
1192 27-12-2006 22:27:02 -0.5 C 3.18 g/m*3 -0.5 C 0 km/h
1193 27-12-2006 22:39:02 -0.4 C 3.2 g/m*3 -0.4 C 0 km/h
1194 27-12-2006 22:51:02 -0.4 C 3.25 g/m*3 -0.4 C 0 km/h
1195 27-12-2006 23:03:01 -0.4 C 3.3 g/m*3 -0.4 C 0 km/h
1196 27-12-2006 23:15:02 -0.4 C 3.35 g/m*3 -0.4 C 0 km/h
1197 27-12-2006 23:27:02 -0.4 C 3.35 g/m*3 -0.4 C 0 km/h
1198 27-12-2006 23:39:01 -0.5 C 3.37 g/m*3 -0.5 C 0 km/h
1199 27-12-2006 23:51:02 -0.5 C 3.37 g/m*3 -0.5 C 0 km/h
1200 28-12-2006 00:03:02 -0.5 C 3.28 g/m*3 -0.5 C 0 km/h
Sensor: Nr:Datum:Temp:Abs-Feuchte:Windchill:Wind:
Aussen-T/F 1201 28-12-2006 00:15:02 -0.4 C 3.25 g/m*3 -0.4 C 0 km/h
1202 28-12-2006 00:27:02 -0.4 C 3.2 g/m*3 -0.4 C 0 km/h
1203 28-12-2006 00:39:02 -0.4 C 3.2 g/m*3 -0.4 C 0 km/h
1204 28-12-2006 00:51:01 -0.4 C 3.2 g/m*3 -0.4 C 0 km/h
1205 28-12-2006 01:03:02 -0.4 C 3.2 g/m*3 -0.4 C 0 km/h
1206 28-12-2006 01:15:01 -0.4 C 3.16 g/m*3 -0.4 C 0 km/h
1207 28-12-2006 01:27:01 -0.3 C 3.18 g/m*3 -0.3 C 0 km/h
1208 28-12-2006 01:39:01 -0.3 C 3.18 g/m*3 -0.3 C 0 km/h
1209 28-12-2006 01:51:02 -0.3 C 3.18 g/m*3 -0.3 C 0 km/h
1210 28-12-2006 02:03:03 -0.3 C 3.23 g/m*3 -0.3 C 0 km/h
1211 28-12-2006 02:15:02 -0.3 C 3.23 g/m*3 -0.3 C 0 km/h
1212 28-12-2006 02:27:02 -0.3 C 3.18 g/m*3 -0.3 C 0 km/h
1213 28-12-2006 02:39:02 -0.1 C 3.22 g/m*3 -0.1 C 0 km/h
1214 28-12-2006 02:51:01 -0.1 C 3.22 g/m*3 -0.1 C 0 km/h
1215 28-12-2006 03:03:01 0 C 3.29 g/m*3 0 C 0 km/h
1216 28-12-2006 03:15:01 0 C 3.29 g/m*3 0 C 0 km/h
1217 28-12-2006 03:27:01 0 C 3.29 g/m*3 0 C 0 km/h
1218 28-12-2006 03:39:02 0 C 3.29 g/m*3 0 C 0 km/h
1219 28-12-2006 03:51:02 -0.1 C 3.32 g/m*3 -0.1 C 0 km/h
1220 28-12-2006 04:03:01 -0.1 C 3.32 g/m*3 -0.1 C 0 km/h
1221 28-12-2006 04:15:01 0 C 3.39 g/m*3 0 C 0 km/h
1222 28-12-2006 04:27:01 0 C 3.39 g/m*3 0 C 0 km/h
1223 28-12-2006 04:39:02 0 C 3.39 g/m*3 0 C 0 km/h
1224 28-12-2006 04:51:01 0 C 3.39 g/m*3 0 C 0 km/h
1225 28-12-2006 05:03:01 0 C 3.39 g/m*3 0 C 0 km/h
Sensor: Nr:Datum:Temp:Abs-Feuchte:Windchill:Wind:
Aussen-T/F 1226 28-12-2006 05:15:02 0.1 C 3.42 g/m*3 0.1 C 0 km/h
1227 28-12-2006 05:27:02 0.1 C 3.42 g/m*3 0.1 C 0 km/h
1228 28-12-2006 05:39:01 0.1 C 3.46 g/m*3 0.1 C 0 km/h
1229 28-12-2006 05:51:01 0.2 C 3.44 g/m*3 0.2 C 0 km/h
1230 28-12-2006 06:03:02 0.2 C 3.44 g/m*3 0.2 C 0 km/h
1231 28-12-2006 06:15:01 0.2 C 3.44 g/m*3 0.2 C 0 km/h
1232 28-12-2006 06:27:01 0.2 C 3.44 g/m*3 0.2 C 0 km/h
1233 28-12-2006 06:39:02 0.2 C 3.44 g/m*3 0.2 C 0 km/h
1234 28-12-2006 06:51:01 0.3 C 3.46 g/m*3 0.3 C 0 km/h
1235 28-12-2006 07:03:02 0.3 C 3.46 g/m*3 0.3 C 0 km/h
1236 28-12-2006 07:15:01 0.3 C 3.46 g/m*3 0.3 C 0 km/h
1237 28-12-2006 07:27:01 0.3 C 3.46 g/m*3 0.3 C 0 km/h
1238 28-12-2006 07:39:01 0.3 C 3.46 g/m*3 0.3 C 0 km/h
1239 28-12-2006 07:51:01 0.3 C 3.46 g/m*3 0.3 C 0 km/h
1240 28-12-2006 08:03:02 0.3 C 3.46 g/m*3 0.3 C 0 km/h
1241 28-12-2006 08:15:01 0.2 C 3.44 g/m*3 0.2 C 0 km/h
1242 28-12-2006 08:27:01 0.1 C 3.42 g/m*3 0.1 C 0 km/h
1243 28-12-2006 08:39:01 0.1 C 3.46 g/m*3 0.1 C 0 km/h
1244 28-12-2006 08:51:01 0.2 C 3.44 g/m*3 0.2 C 0 km/h
1245 28-12-2006 09:03:02 0.2 C 3.49 g/m*3 0.2 C 0 km/h
1246 28-12-2006 09:15:01 0.3 C 3.51 g/m*3 0.3 C 0 km/h
1247 28-12-2006 09:27:01 0.4 C 3.54 g/m*3 0.4 C 0 km/h
1248 28-12-2006 09:39:02 0.5 C 3.51 g/m*3 0.5 C 0 km/h
1249 28-12-2006 09:51:01 0.5 C 3.51 g/m*3 0.5 C 0 km/h
1250 28-12-2006 10:03:02 0.6 C 3.53 g/m*3 0.6 C 0 km/h
Sensor: Nr:Datum:Temp:Abs-Feuchte:Windchill:Wind:
Aussen-T/F 1251 28-12-2006 10:15:01 0.6 C 3.53 g/m*3 0.6 C 0 km/h
1252 28-12-2006 10:27:01 0.7 C 3.56 g/m*3 0.7 C 0 km/h
1253 28-12-2006 10:39:01 0.7 C 3.56 g/m*3 0.7 C 0 km/h
1254 28-12-2006 10:51:02 0.5 C 3.66 g/m*3 0.5 C 0 km/h
1255 28-12-2006 11:03:02 0.2 C 3.83 g/m*3 0.2 C 0 km/h
1256 28-12-2006 11:15:01 0.1 C 3.95 g/m*3 0.1 C 0 km/h
1257 28-12-2006 11:27:01 0.1 C 4.05 g/m*3 0.1 C 0 km/h
1258 28-12-2006 11:39:02 0.1 C 4.1 g/m*3 0.1 C 0 km/h
1259 28-12-2006 11:51:01 0.2 C 4.18 g/m*3 0.2 C 0 km/h
1260 28-12-2006 12:03:02 0.2 C 4.18 g/m*3 0.2 C 0 km/h
1261 28-12-2006 12:15:01 0.2 C 4.18 g/m*3 0.2 C 0 km/h
1262 28-12-2006 12:27:01 0.2 C 4.22 g/m*3 0.2 C 0 km/h
1263 28-12-2006 12:39:01 0.1 C 4.2 g/m*3 0.1 C 0 km/h
1264 28-12-2006 12:51:01 0.2 C 4.22 g/m*3 0.2 C 0 km/h
1265 28-12-2006 13:03:02 0 C 4.17 g/m*3 0 C 0 km/h
1266 28-12-2006 13:15:01 0.1 C 4.15 g/m*3 0.1 C 0 km/h
1267 28-12-2006 13:27:01 0.1 C 4.15 g/m*3 0.1 C 0 km/h
1268 28-12-2006 13:39:01 0.1 C 4.15 g/m*3 0.1 C 0 km/h
1269 28-12-2006 13:51:01 0.2 C 4.18 g/m*3 0.2 C 0 km/h
1270 28-12-2006 14:03:02 0.2 C 4.13 g/m*3 0.2 C 0 km/h
1271 28-12-2006 14:15:01 0.1 C 4.1 g/m*3 0.1 C 0 km/h
1272 28-12-2006 14:27:01 0.1 C 4.1 g/m*3 0.1 C 0 km/h
1273 28-12-2006 14:39:01 0.1 C 4.15 g/m*3 0.1 C 0 km/h
1274 28-12-2006 14:51:01 0.2 C 4.18 g/m*3 0.2 C 0 km/h
1275 28-12-2006 15:03:02 0.2 C 4.22 g/m*3 0.2 C 0 km/h
Sensor: Nr:Datum:Temp:Abs-Feuchte:Windchill:Wind:
Aussen-T/F 1276 28-12-2006 15:15:01 0.2 C 4.22 g/m*3 0.2 C 0 km/h
1277 28-12-2006 15:27:01 0.3 C 4.3 g/m*3 0.3 C 0 km/h
1278 28-12-2006 15:39:01 0.4 C 4.33 g/m*3 0.4 C 0 km/h
1279 28-12-2006 15:51:01 0.5 C 4.36 g/m*3 0.5 C 0 km/h
1280 28-12-2006 16:03:01 0.5 C 4.36 g/m*3 0.5 C 0 km/h
1281 28-12-2006 16:15:02 0.5 C 4.41 g/m*3 0.5 C 0 km/h
1282 28-12-2006 16:27:02 0.5 C 4.41 g/m*3 0.5 C 0 km/h
1283 28-12-2006 16:39:01 0.6 C 4.44 g/m*3 0.6 C 0 km/h
1284 28-12-2006 16:51:02 0.6 C 4.44 g/m*3 0.6 C 0 km/h
1285 28-12-2006 17:03:01 0.6 C 4.44 g/m*3 0.6 C 0 km/h
1286 28-12-2006 17:15:02 0.6 C 4.49 g/m*3 0.6 C 0 km/h
1287 28-12-2006 17:27:02 0.7 C 4.53 g/m*3 0.7 C 0 km/h
1288 28-12-2006 17:39:01 0.7 C 4.53 g/m*3 0.7 C 0 km/h
1289 28-12-2006 17:51:01 0.8 C 4.56 g/m*3 0.8 C 0 km/h
1290 28-12-2006 18:03:02 0.9 C 4.54 g/m*3 0.9 C 0 km/h
1291 28-12-2006 18:15:02 0.9 C 4.54 g/m*3 0.9 C 0 km/h
1292 28-12-2006 18:27:02 1 C 4.46 g/m*3 1 C 0 km/h
1293 28-12-2006 18:39:01 0.9 C 4.43 g/m*3 0.9 C 0 km/h
1294 28-12-2006 18:51:01 0.9 C 4.43 g/m*3 0.9 C 0 km/h
1295 28-12-2006 19:03:02 1 C 4.41 g/m*3 1 C 0 km/h
1296 28-12-2006 19:15:02 1 C 4.41 g/m*3 1 C 0 km/h
1297 28-12-2006 19:27:02 1 C 4.41 g/m*3 1 C 0 km/h
1298 28-12-2006 19:39:01 1 C 4.36 g/m*3 1 C 0 km/h
1299 28-12-2006 19:51:01 1 C 4.36 g/m*3 1 C 0 km/h
1300 28-12-2006 20:03:01 1 C 4.36 g/m*3 1 C 0 km/h
Sensor: Nr:Datum:Temp:Abs-Feuchte:Windchill:Wind:
Aussen-T/F 1301 28-12-2006 20:15:02 1 C 4.36 g/m*3 1 C 0 km/h
1302 28-12-2006 20:27:02 1.1 C 4.39 g/m*3 1.1 C 0 km/h
1303 28-12-2006 20:39:01 1.1 C 4.39 g/m*3 1.1 C 0 km/h
1304 28-12-2006 20:51:01 1.1 C 4.39 g/m*3 1.1 C 0 km/h
1305 28-12-2006 21:03:01 1.2 C 4.42 g/m*3 1.2 C 0 km/h
1306 28-12-2006 21:15:02 1.2 C 4.42 g/m*3 1.2 C 0 km/h
1307 28-12-2006 21:27:02 1.2 C 4.42 g/m*3 1.2 C 0 km/h
1308 28-12-2006 21:39:01 1.2 C 4.42 g/m*3 1.2 C 0 km/h
1309 28-12-2006 21:51:02 1.2 C 4.42 g/m*3 1.2 C 0 km/h
1310 28-12-2006 22:03:01 1.2 C 4.42 g/m*3 1.2 C 0 km/h
1311 28-12-2006 22:15:02 1.2 C 4.42 g/m*3 1.2 C 0 km/h
1312 28-12-2006 22:27:02 1.3 C 4.45 g/m*3 1.3 C 0 km/h
1313 28-12-2006 22:39:01 1.3 C 4.4 g/m*3 1.3 C 0 km/h
1314 28-12-2006 22:51:02 1.3 C 4.4 g/m*3 1.3 C 0 km/h
1315 28-12-2006 23:03:01 1.4 C 4.43 g/m*3 1.4 C 0 km/h
1316 28-12-2006 23:15:02 1.4 C 4.43 g/m*3 1.4 C 0 km/h
1317 28-12-2006 23:27:02 1.4 C 4.37 g/m*3 1.4 C 0 km/h
1318 28-12-2006 23:39:01 1.4 C 4.37 g/m*3 1.4 C 0 km/h
1319 28-12-2006 23:51:02 1.4 C 4.37 g/m*3 1.4 C 0 km/h
1320 29-12-2006 00:03:01 1.4 C 4.43 g/m*3 1.4 C 0 km/h
1321 29-12-2006 00:15:01 1.4 C 4.43 g/m*3 1.4 C 0 km/h
1322 29-12-2006 00:27:01 1.4 C 4.43 g/m*3 1.4 C 0 km/h
1323 29-12-2006 00:39:01 1.4 C 4.43 g/m*3 1.4 C 0 km/h
1324 29-12-2006 00:51:01 1.4 C 4.43 g/m*3 1.4 C 0 km/h
1325 29-12-2006 01:03:01 1.4 C 4.43 g/m*3 1.4 C 0 km/h
Sensor: Nr:Datum:Temp:Abs-Feuchte:Windchill:Wind:
Aussen-T/F 1326 29-12-2006 01:15:01 1.4 C 4.43 g/m*3 1.4 C 0 km/h
1327 29-12-2006 01:27:01 1.4 C 4.48 g/m*3 1.4 C 0 km/h
1328 29-12-2006 01:39:02 1.4 C 4.53 g/m*3 1.4 C 0 km/h
1329 29-12-2006 01:51:02 1.4 C 4.53 g/m*3 1.4 C 0 km/h
1330 29-12-2006 02:03:01 1.5 C 4.62 g/m*3 1.5 C 0 km/h
1331 29-12-2006 02:15:01 1.6 C 4.65 g/m*3 1.6 C 0 km/h
1332 29-12-2006 02:27:01 1.6 C 4.65 g/m*3 1.6 C 0 km/h
1333 29-12-2006 02:39:02 1.5 C 4.67 g/m*3 1.5 C 0 km/h
1334 29-12-2006 02:51:01 1.5 C 4.73 g/m*3 1.5 C 0 km/h
1335 29-12-2006 03:03:01 1.5 C 4.73 g/m*3 1.5 C 0 km/h
1336 29-12-2006 03:15:02 1.4 C 4.69 g/m*3 1.4 C 0 km/h
1337 29-12-2006 03:27:02 1.5 C 4.73 g/m*3 1.5 C 0 km/h
1338 29-12-2006 03:39:02 1.5 C 4.73 g/m*3 1.5 C 0 km/h
1339 29-12-2006 03:51:02 1.5 C 4.73 g/m*3 1.5 C 0 km/h
1340 29-12-2006 04:03:01 1.5 C 4.73 g/m*3 1.5 C 0 km/h
1341 29-12-2006 04:15:01 1.6 C 4.76 g/m*3 1.6 C 0 km/h
1342 29-12-2006 04:27:01 1.6 C 4.76 g/m*3 1.6 C 0 km/h
1343 29-12-2006 04:39:02 1.6 C 4.76 g/m*3 1.6 C 0 km/h
1344 29-12-2006 04:51:02 1.7 C 4.79 g/m*3 1.7 C 0 km/h
1345 29-12-2006 05:03:01 1.7 C 4.79 g/m*3 1.7 C 0 km/h
1346 29-12-2006 05:15:01 1.7 C 4.79 g/m*3 1.7 C 0 km/h
1347 29-12-2006 05:27:01 1.8 C 4.82 g/m*3 1.8 C 0 km/h
1348 29-12-2006 05:39:02 1.7 C 4.79 g/m*3 1.7 C 0 km/h
1349 29-12-2006 05:51:01 1.7 C 4.79 g/m*3 1.7 C 0 km/h
1350 29-12-2006 06:03:01 1.7 C 4.79 g/m*3 1.7 C 0 km/h
Sensor: Nr:Datum:Temp:Abs-Feuchte:Windchill:Wind:
Aussen-T/F 1351 29-12-2006 06:15:02 1.7 C 4.79 g/m*3 1.7 C 0 km/h
1352 29-12-2006 06:27:02 1.8 C 4.82 g/m*3 1.8 C 0 km/h
1353 29-12-2006 06:39:01 1.8 C 4.82 g/m*3 1.8 C 0 km/h
1354 29-12-2006 06:51:01 1.8 C 4.82 g/m*3 1.8 C 0 km/h
1355 29-12-2006 07:03:01 1.8 C 4.82 g/m*3 1.8 C 0 km/h
1356 29-12-2006 07:15:02 1.9 C 4.86 g/m*3 1.9 C 0 km/h
1357 29-12-2006 07:27:02 2 C 4.83 g/m*3 2 C 0 km/h
1358 29-12-2006 07:39:01 2 C 4.83 g/m*3 2 C 0 km/h
1359 29-12-2006 07:51:01 2 C 4.83 g/m*3 2 C 0 km/h
1360 29-12-2006 08:03:01 2.1 C 4.92 g/m*3 2.1 C 0 km/h
1361 29-12-2006 08:15:02 2.1 C 4.87 g/m*3 2.1 C 0 km/h
1362 29-12-2006 08:27:02 2.1 C 4.87 g/m*3 2.1 C 0 km/h
1363 29-12-2006 08:39:01 2.1 C 4.87 g/m*3 2.1 C 0 km/h
1364 29-12-2006 08:51:01 2.1 C 4.87 g/m*3 2.1 C 0 km/h
1365 29-12-2006 09:03:01 2.2 C 4.9 g/m*3 2.2 C 0 km/h
1366 29-12-2006 09:15:02 2.2 C 4.9 g/m*3 2.2 C 0 km/h
1367 29-12-2006 09:27:02 2 C 4.83 g/m*3 2 C 0 km/h
1368 29-12-2006 09:39:01 1.8 C 4.77 g/m*3 1.8 C 0 km/h
1369 29-12-2006 09:51:01 1.6 C 4.7 g/m*3 1.6 C 0 km/h
1370 29-12-2006 10:03:01 1.3 C 4.61 g/m*3 1.3 C 0 km/h
1371 29-12-2006 10:15:02 1.2 C 4.58 g/m*3 1.2 C 0 km/h
1372 29-12-2006 10:27:02 1.2 C 4.63 g/m*3 1.2 C 0 km/h
1373 29-12-2006 10:39:01 1.2 C 4.63 g/m*3 1.2 C 0 km/h
1374 29-12-2006 10:51:01 1.4 C 4.75 g/m*3 1.4 C 0 km/h
1375 29-12-2006 11:03:01 1.5 C 4.78 g/m*3 1.5 C 0 km/h
Sensor: Nr:Datum:Temp:Abs-Feuchte:Windchill:Wind:
Aussen-T/F 1376 29-12-2006 11:15:02 1.4 C 4.8 g/m*3 1.4 C 0 km/h
1377 29-12-2006 11:27:02 1.4 C 4.8 g/m*3 1.4 C 0 km/h
1378 29-12-2006 11:39:01 1.3 C 4.72 g/m*3 1.3 C 0 km/h
1379 29-12-2006 11:51:01 1.3 C 4.72 g/m*3 1.3 C 0 km/h
1380 29-12-2006 12:03:01 1.3 C 4.72 g/m*3 1.3 C 0 km/h
1381 29-12-2006 12:15:02 1.3 C 4.72 g/m*3 1.3 C 0 km/h
1382 29-12-2006 12:27:02 1.4 C 4.75 g/m*3 1.4 C 0 km/h
1383 29-12-2006 12:39:01 1.4 C 4.69 g/m*3 1.4 C 0 km/h
1384 29-12-2006 12:51:01 1.4 C 4.69 g/m*3 1.4 C 0 km/h
1385 29-12-2006 13:03:01 1.5 C 4.73 g/m*3 1.5 C 0 km/h
1386 29-12-2006 13:15:02 1.7 C 4.79 g/m*3 1.7 C 0 km/h
1387 29-12-2006 13:27:02 1.9 C 4.91 g/m*3 1.9 C 0 km/h
1388 29-12-2006 13:39:01 2.2 C 4.96 g/m*3 2.2 C 0 km/h
1389 29-12-2006 13:51:01 2.5 C 5.06 g/m*3 2.5 C 0 km/h
1390 29-12-2006 14:03:01 2.4 C 5.02 g/m*3 2.4 C 0 km/h
1391 29-12-2006 14:15:02 2.5 C 5 g/m*3 2.5 C 0 km/h
1392 29-12-2006 14:27:02 2.7 C 5.07 g/m*3 2.7 C 0 km/h
1393 29-12-2006 14:39:01 2.7 C 4.95 g/m*3 2.7 C 0 km/h
1394 29-12-2006 14:51:02 2.8 C 4.93 g/m*3 2.8 C 0 km/h
1395 29-12-2006 15:03:01 2.8 C 4.87 g/m*3 2.8 C 0 km/h
1396 29-12-2006 15:15:02 2.8 C 4.81 g/m*3 2.8 C 0 km/h
1397 29-12-2006 15:27:02 2.7 C 4.78 g/m*3 2.7 C 0 km/h
1398 29-12-2006 15:39:01 2.7 C 4.78 g/m*3 2.7 C 0 km/h
1399 29-12-2006 15:51:02 2.5 C 4.71 g/m*3 2.5 C 0 km/h
1400 29-12-2006 16:03:01 2.2 C 4.62 g/m*3 2.2 C 0 km/h
Sensor: Nr:Datum:Temp:Abs-Feuchte:Windchill:Wind:
Aussen-T/F 1401 29-12-2006 16:15:02 1.9 C 4.64 g/m*3 1.9 C 0 km/h
1402 29-12-2006 16:27:02 1.8 C 4.6 g/m*3 1.8 C 0 km/h
1403 29-12-2006 16:39:01 1.6 C 4.6 g/m*3 1.6 C 0 km/h
1404 29-12-2006 16:51:02 1.3 C 4.5 g/m*3 1.3 C 0 km/h
1405 29-12-2006 17:03:01 1.1 C 4.44 g/m*3 1.1 C 0 km/h
1406 29-12-2006 17:15:02 1 C 4.46 g/m*3 1 C 0 km/h
1407 29-12-2006 17:27:02 0.9 C 4.48 g/m*3 0.9 C 0 km/h
1408 29-12-2006 17:39:01 0.7 C 4.42 g/m*3 0.7 C 0 km/h
1409 29-12-2006 17:51:01 0.6 C 4.39 g/m*3 0.6 C 0 km/h
1410 29-12-2006 18:03:01 0.6 C 4.39 g/m*3 0.6 C 0 km/h
1411 29-12-2006 18:15:02 0.5 C 4.36 g/m*3 0.5 C 0 km/h
1412 29-12-2006 18:27:02 0.4 C 4.33 g/m*3 0.4 C 0 km/h
1413 29-12-2006 18:39:01 0.3 C 4.3 g/m*3 0.3 C 0 km/h
1414 29-12-2006 18:51:01 0.2 C 4.32 g/m*3 0.2 C 0 km/h
1415 29-12-2006 19:03:01 0.2 C 4.32 g/m*3 0.2 C 0 km/h
1416 29-12-2006 19:15:02 0.2 C 4.32 g/m*3 0.2 C 0 km/h
1417 29-12-2006 19:27:02 0.2 C 4.32 g/m*3 0.2 C 0 km/h
1418 29-12-2006 19:39:01 0.1 C 4.29 g/m*3 0.1 C 0 km/h
1419 29-12-2006 19:51:02 0.1 C 4.29 g/m*3 0.1 C 0 km/h
1420 29-12-2006 20:03:01 -0.1 C 4.23 g/m*3 -0.1 C 0 km/h
1421 29-12-2006 20:15:02 -0.2 C 4.21 g/m*3 -0.2 C 0 km/h
1422 29-12-2006 20:27:02 -0.2 C 4.21 g/m*3 -0.2 C 0 km/h
1423 29-12-2006 20:39:01 -0.2 C 4.21 g/m*3 -0.2 C 0 km/h
1424 29-12-2006 20:51:01 -0.5 C 4.12 g/m*3 -0.5 C 0 km/h
1425 29-12-2006 21:03:01 -0.3 C 4.22 g/m*3 -0.3 C 0 km/h
Sensor: Nr:Datum:Temp:Abs-Feuchte:Windchill:Wind:
Aussen-T/F 1426 29-12-2006 21:15:02 -0.5 C 4.17 g/m*3 -0.5 C 0 km/h
1427 29-12-2006 21:27:02 -0.6 C 4.14 g/m*3 -0.6 C 0 km/h
1428 29-12-2006 21:39:01 -0.6 C 4.14 g/m*3 -0.6 C 0 km/h
1429 29-12-2006 21:51:02 -0.5 C 4.17 g/m*3 -0.5 C 0 km/h
1430 29-12-2006 22:03:01 -0.5 C 4.17 g/m*3 -0.5 C 0 km/h
1431 29-12-2006 22:15:02 -0.5 C 4.21 g/m*3 -0.5 C 0 km/h
1432 29-12-2006 22:27:02 -0.4 C 4.24 g/m*3 -0.4 C 0 km/h
1433 29-12-2006 22:39:01 -0.5 C 4.21 g/m*3 -0.5 C 0 km/h
1434 29-12-2006 22:51:02 -0.6 C 4.18 g/m*3 -0.6 C 0 km/h
1435 29-12-2006 23:03:02 -0.6 C 4.18 g/m*3 -0.6 C 0 km/h
1436 29-12-2006 23:15:01 -0.7 C 4.15 g/m*3 -0.7 C 0 km/h
1437 29-12-2006 23:27:01 -0.7 C 4.2 g/m*3 -0.7 C 0 km/h
1438 29-12-2006 23:39:02 -0.8 C 4.17 g/m*3 -0.8 C 0 km/h
1439 29-12-2006 23:51:01 -1 C 4.07 g/m*3 -1 C 0 km/h
1440 30-12-2006 00:03:02 -1.1 C 4.04 g/m*3 -1.1 C 0 km/h
1441 30-12-2006 00:15:02 -1.1 C 4.04 g/m*3 -1.1 C 0 km/h
1442 30-12-2006 00:27:02 -1.2 C 4.01 g/m*3 -1.2 C 0 km/h
1443 30-12-2006 00:39:01 -1.4 C 3.96 g/m*3 -1.4 C 0 km/h
1444 30-12-2006 00:51:01 -1.4 C 3.96 g/m*3 -1.4 C 0 km/h
1445 30-12-2006 01:03:01 -1.4 C 3.96 g/m*3 -1.4 C 0 km/h
1446 30-12-2006 01:15:02 -1.4 C 3.96 g/m*3 -1.4 C 0 km/h
1447 30-12-2006 01:27:02 -1.3 C 4.03 g/m*3 -1.3 C 0 km/h
1448 30-12-2006 01:39:01 -1.2 C 4.06 g/m*3 -1.2 C 0 km/h
1449 30-12-2006 01:51:01 -1.1 C 4.09 g/m*3 -1.1 C 0 km/h
1450 30-12-2006 02:03:01 -1.1 C 4.09 g/m*3 -1.1 C 0 km/h
Sensor: Nr:Datum:Temp:Abs-Feuchte:Windchill:Wind:
Aussen-T/F 1451 30-12-2006 02:15:02 -1.1 C 4.13 g/m*3 -1.1 C 0 km/h
1452 30-12-2006 02:27:02 -1.2 C 4.1 g/m*3 -1.2 C 0 km/h
1453 30-12-2006 02:39:01 -1.3 C 4.07 g/m*3 -1.3 C 0 km/h
1454 30-12-2006 02:52:07 -1.3 C 4.07 g/m*3 -1.3 C 0 km/h
1455 30-12-2006 03:04:07 -1.3 C 4.07 g/m*3 -1.3 C 0 km/h
1456 30-12-2006 03:16:06 -1.4 C 4.04 g/m*3 -1.4 C 0 km/h
1457 30-12-2006 03:28:06 -1.4 C 4.04 g/m*3 -1.4 C 0 km/h
1458 30-12-2006 03:40:02 -1.5 C 4.02 g/m*3 -1.5 C 0 km/h
1459 30-12-2006 03:52:02 -1.7 C 3.96 g/m*3 -1.7 C 0 km/h
1460 30-12-2006 04:04:02 -1.8 C 3.93 g/m*3 -1.8 C 0 km/h
1461 30-12-2006 04:16:02 -2 C 3.88 g/m*3 -2 C 0 km/h
1462 30-12-2006 04:28:02 -2.1 C 3.85 g/m*3 -2.1 C 0 km/h
1463 30-12-2006 04:40:02 -2.1 C 3.85 g/m*3 -2.1 C 0 km/h
1464 30-12-2006 04:52:02 -2.1 C 3.85 g/m*3 -2.1 C 0 km/h
1465 30-12-2006 05:04:02 -2 C 3.88 g/m*3 -2 C 0 km/h
1466 30-12-2006 05:16:02 -1.8 C 3.93 g/m*3 -1.8 C 0 km/h
1467 30-12-2006 05:28:03 -1.8 C 3.93 g/m*3 -1.8 C 0 km/h
1468 30-12-2006 05:40:01 -1.8 C 3.93 g/m*3 -1.8 C 0 km/h
1469 30-12-2006 05:52:02 -1.7 C 3.96 g/m*3 -1.7 C 0 km/h
1470 30-12-2006 06:04:02 -1.2 C 4.1 g/m*3 -1.2 C 0 km/h
1471 30-12-2006 06:16:02 -1.4 C 4.04 g/m*3 -1.4 C 0 km/h
1472 30-12-2006 06:28:02 -1.7 C 3.96 g/m*3 -1.7 C 0 km/h
1473 30-12-2006 06:40:01 -1.7 C 3.96 g/m*3 -1.7 C 0 km/h
1474 30-12-2006 06:52:01 -1.7 C 3.96 g/m*3 -1.7 C 0 km/h
1475 30-12-2006 07:04:02 -1.6 C 3.99 g/m*3 -1.6 C 0 km/h
Sensor: Nr:Datum:Temp:Abs-Feuchte:Windchill:Wind:
Aussen-T/F 1476 30-12-2006 07:16:02 -1.6 C 3.99 g/m*3 -1.6 C 0 km/h
1477 30-12-2006 07:28:02 -1.3 C 4.12 g/m*3 -1.3 C 0 km/h
1478 30-12-2006 07:40:01 -1.1 C 4.17 g/m*3 -1.1 C 0 km/h
1479 30-12-2006 07:52:01 -1 C 4.2 g/m*3 -1 C 0 km/h
1480 30-12-2006 08:04:02 -0.9 C 4.23 g/m*3 -0.9 C 0 km/h
1481 30-12-2006 08:16:01 -0.7 C 4.34 g/m*3 -0.7 C 0 km/h
1482 30-12-2006 08:28:01 -0.6 C 4.37 g/m*3 -0.6 C 0 km/h
1483 30-12-2006 08:40:01 -0.5 C 4.4 g/m*3 -0.5 C 0 km/h
1484 30-12-2006 08:52:02 -0.4 C 4.43 g/m*3 -0.4 C 0 km/h
1485 30-12-2006 09:04:02 -0.3 C 4.46 g/m*3 -0.3 C 0 km/h
1486 30-12-2006 09:16:02 -0.2 C 4.49 g/m*3 -0.2 C 0 km/h
1487 30-12-2006 09:28:02 0 C 4.6 g/m*3 0 C 0 km/h
1488 30-12-2006 09:40:02 0.1 C 4.63 g/m*3 0.1 C 0 km/h
1489 30-12-2006 09:52:02 0.2 C 4.67 g/m*3 0.2 C 0 km/h
1490 30-12-2006 10:04:02 0.4 C 4.73 g/m*3 0.4 C 0 km/h
1491 30-12-2006 10:16:02 0.7 C 4.83 g/m*3 0.7 C 0 km/h
1492 30-12-2006 10:28:02 1 C 4.93 g/m*3 1 C 0 km/h
1493 30-12-2006 10:40:03 1.3 C 5.03 g/m*3 1.3 C 0 km/h
1494 30-12-2006 10:52:02 1.6 C 5.14 g/m*3 1.6 C 0 km/h
1495 30-12-2006 11:04:02 1.8 C 5.21 g/m*3 1.8 C 0 km/h
1496 30-12-2006 11:16:02 2 C 5.28 g/m*3 2 C 0 km/h
1497 30-12-2006 11:28:02 2.2 C 5.35 g/m*3 2.2 C 0 km/h
1498 30-12-2006 11:40:03 2.4 C 5.42 g/m*3 2.4 C 0 km/h
1499 30-12-2006 11:52:01 2.7 C 5.54 g/m*3 2.7 C 0 km/h
1500 30-12-2006 12:04:02 3.1 C 5.69 g/m*3 3.1 C 0 km/h
Sensor: Nr:Datum:Temp:Abs-Feuchte:Windchill:Wind:
Aussen-T/F 1501 30-12-2006 12:16:02 3.3 C 5.76 g/m*3 3.3 C 0 km/h
1502 30-12-2006 12:28:02 3.3 C 5.76 g/m*3 3.3 C 0 km/h
1503 30-12-2006 12:40:02 3.5 C 5.84 g/m*3 3.5 C 0 km/h
1504 30-12-2006 12:52:02 5.1 C 6.09 g/m*3 5.1 C 0 km/h
1505 30-12-2006 13:04:02 5.7 C 4.91 g/m*3 5.7 C 0 km/h
1506 30-12-2006 13:16:01 5.8 C 4.51 g/m*3 5.8 C 0 km/h
1507 30-12-2006 13:28:01 6.2 C 4.41 g/m*3 6.2 C 0 km/h
1508 30-12-2006 13:40:02 6.3 C 4.37 g/m*3 6.3 C 0 km/h
1509 30-12-2006 13:52:02 6.5 C 4.5 g/m*3 6.5 C 0 km/h
1510 30-12-2006 14:04:02 6.6 C 4.6 g/m*3 6.6 C 0 km/h
1511 30-12-2006 14:16:02 7.1 C 4.52 g/m*3 7.1 C 0 km/h
1512 30-12-2006 14:28:02 7.4 C 4.69 g/m*3 7.4 C 0 km/h
1513 30-12-2006 14:40:02 7.3 C 4.82 g/m*3 7.3 C 0 km/h
1514 30-12-2006 14:52:02 7.3 C 4.9 g/m*3 7.3 C 0 km/h
1515 30-12-2006 15:04:01 7.2 C 4.95 g/m*3 7.2 C 0 km/h
1516 30-12-2006 15:16:01 6.9 C 5.08 g/m*3 6.9 C 0 km/h
1517 30-12-2006 15:28:01 6.8 C 5.28 g/m*3 6.8 C 0 km/h
1518 30-12-2006 15:40:02 6.8 C 5.35 g/m*3 6.8 C 0 km/h
1519 30-12-2006 15:52:02 7.1 C 5.46 g/m*3 7.1 C 0 km/h
1520 30-12-2006 16:04:02 7.5 C 5.52 g/m*3 7.5 C 0 km/h
1521 30-12-2006 16:16:01 7.7 C 5.59 g/m*3 7.7 C 0 km/h
1522 30-12-2006 16:28:01 7.8 C 5.63 g/m*3 7.8 C 0 km/h
1523 30-12-2006 16:40:02 7.6 C 5.64 g/m*3 7.6 C 0 km/h
1524 30-12-2006 16:52:02 7.9 C 5.67 g/m*3 7.9 C 0 km/h
1525 30-12-2006 17:04:02 7.8 C 5.71 g/m*3 7.8 C 0 km/h
Sensor: Nr:Datum:Temp:Abs-Feuchte:Windchill:Wind:
Aussen-T/F 1526 30-12-2006 17:16:01 7.8 C 5.71 g/m*3 7.8 C 0 km/h
1527 30-12-2006 17:28:01 8.3 C 5.73 g/m*3 8.3 C 0 km/h
1528 30-12-2006 17:40:02 8.4 C 5.68 g/m*3 8.4 C 0 km/h
1529 30-12-2006 17:52:03 8 C 5.62 g/m*3 8 C 0 km/h
1530 30-12-2006 18:04:02 7.9 C 5.83 g/m*3 7.9 C 0 km/h
1531 30-12-2006 18:16:02 8.2 C 5.86 g/m*3 8.2 C 0 km/h
1532 30-12-2006 18:28:02 7.9 C 5.83 g/m*3 7.9 C 0 km/h
1533 30-12-2006 18:40:02 7.8 C 5.88 g/m*3 7.8 C 0 km/h
1534 30-12-2006 18:52:01 7.8 C 5.96 g/m*3 7.8 C 0 km/h
1535 30-12-2006 19:04:02 7.7 C 6.08 g/m*3 7.7 C 0 km/h
1536 30-12-2006 19:16:02 8 C 6.2 g/m*3 8 C 0 km/h
1537 30-12-2006 19:28:02 8.2 C 6.45 g/m*3 8.2 C 0 km/h
1538 30-12-2006 19:40:02 8 C 6.53 g/m*3 8 C 0 km/h
1539 30-12-2006 19:52:01 8 C 6.78 g/m*3 8 C 0 km/h
1540 30-12-2006 20:04:02 8 C 6.86 g/m*3 8 C 0 km/h
1541 30-12-2006 20:16:01 8.4 C 7.04 g/m*3 8.4 C 0 km/h
1542 30-12-2006 20:28:01 8.5 C 7.09 g/m*3 8.5 C 0 km/h
1543 30-12-2006 20:40:02 8.7 C 7.18 g/m*3 8.7 C 0 km/h
1544 30-12-2006 20:52:02 9.1 C 7.19 g/m*3 9.1 C 0 km/h
1545 30-12-2006 21:04:02 9.3 C 7.01 g/m*3 9.3 C 0 km/h
1546 30-12-2006 21:16:02 9.4 C 7.05 g/m*3 9.4 C 0 km/h
1547 30-12-2006 21:28:02 9.6 C 7.15 g/m*3 9.6 C 0 km/h
1548 30-12-2006 21:40:03 9.7 C 7.28 g/m*3 9.7 C 0 km/h
1549 30-12-2006 21:52:02 9.8 C 7.33 g/m*3 9.8 C 0 km/h
1550 30-12-2006 22:04:02 10 C 7.33 g/m*3 10 C 0 km/h
Sensor: Nr:Datum:Temp:Abs-Feuchte:Windchill:Wind:
Aussen-T/F 1551 30-12-2006 22:16:02 10.2 C 7.33 g/m*3 10.2 C 0 km/h
1552 30-12-2006 22:28:02 10.3 C 7.18 g/m*3 10.3 C 0 km/h
1553 30-12-2006 22:40:02 10.7 C 7.17 g/m*3 10.7 C 0 km/h
1554 30-12-2006 22:52:01 10.7 C 7.07 g/m*3 10.7 C 0 km/h
1555 30-12-2006 23:04:02 10.8 C 7.12 g/m*3 10.8 C 0 km/h
1556 30-12-2006 23:16:01 10.7 C 6.97 g/m*3 10.7 C 0 km/h
1557 30-12-2006 23:28:01 10.6 C 7.03 g/m*3 10.6 C 0 km/h
1558 30-12-2006 23:40:02 10.7 C 6.97 g/m*3 10.7 C 0 km/h
1559 30-12-2006 23:52:01 10.7 C 6.88 g/m*3 10.7 C 0 km/h
1560 31-12-2006 00:04:02 10.4 C 6.75 g/m*3 10.4 C 0 km/h
1561 31-12-2006 00:16:02 10.7 C 6.78 g/m*3 10.7 C 0 km/h
1562 31-12-2006 00:28:02 10.5 C 6.5 g/m*3 10.5 C 0 km/h
1563 31-12-2006 00:40:02 10.4 C 5.49 g/m*3 10.4 C 0 km/h
1564 31-12-2006 00:52:02 10.3 C 5.27 g/m*3 10.3 C 0 km/h
1565 31-12-2006 01:04:02 10.2 C 5.33 g/m*3 10.2 C 0 km/h
1566 31-12-2006 01:16:03 9.9 C 5.32 g/m*3 9.9 C 0 km/h
1567 31-12-2006 01:28:03 9.8 C 5.29 g/m*3 9.8 C 0 km/h
1568 31-12-2006 01:40:02 10.2 C 4.95 g/m*3 10.2 C 0 km/h
1569 31-12-2006 01:52:02 10.2 C 4.66 g/m*3 10.2 C 0 km/h
1570 31-12-2006 02:04:01 10.2 C 4.38 g/m*3 10.2 C 0 km/h
1571 31-12-2006 02:16:02 10.3 C 4.21 g/m*3 10.3 C 0 km/h
1572 31-12-2006 02:28:02 10.1 C 4.16 g/m*3 10.1 C 0 km/h
1573 31-12-2006 02:40:02 10.1 C 4.16 g/m*3 10.1 C 0 km/h
1574 31-12-2006 02:53:04 10 C 4.23 g/m*3 10 C 0 km/h
1575 31-12-2006 03:05:04 9.9 C 4.48 g/m*3 9.9 C 0 km/h
Sensor: Nr:Datum:Temp:Abs-Feuchte:Windchill:Wind:
Aussen-T/F 1576 31-12-2006 03:17:03 10 C 4.51 g/m*3 10 C 0 km/h
1577 31-12-2006 03:29:03 10 C 4.51 g/m*3 10 C 0 km/h
1578 31-12-2006 03:41:02 10 C 4.6 g/m*3 10 C 0 km/h
1579 31-12-2006 03:53:02 9.6 C 4.67 g/m*3 9.6 C 0 km/h
1580 31-12-2006 04:05:01 9.6 C 4.67 g/m*3 9.6 C 0 km/h
1581 31-12-2006 04:17:02 9.6 C 4.67 g/m*3 9.6 C 0 km/h
1582 31-12-2006 04:29:02 9.7 C 4.89 g/m*3 9.7 C 0 km/h
1583 31-12-2006 04:41:02 10 C 4.79 g/m*3 10 C 0 km/h
1584 31-12-2006 04:53:02 9.9 C 4.86 g/m*3 9.9 C 0 km/h
1585 31-12-2006 05:05:02 9.8 C 4.73 g/m*3 9.8 C 0 km/h
1586 31-12-2006 05:17:02 9.4 C 4.79 g/m*3 9.4 C 0 km/h
1587 31-12-2006 05:29:02 9.5 C 4.82 g/m*3 9.5 C 0 km/h
1588 31-12-2006 05:41:02 9.5 C 4.82 g/m*3 9.5 C 0 km/h
1589 31-12-2006 05:53:02 9.2 C 4.82 g/m*3 9.2 C 0 km/h
1590 31-12-2006 06:05:02 9.4 C 4.88 g/m*3 9.4 C 0 km/h
1591 31-12-2006 06:17:01 9.5 C 4.92 g/m*3 9.5 C 0 km/h
1592 31-12-2006 06:29:01 9.4 C 4.88 g/m*3 9.4 C 0 km/h
1593 31-12-2006 06:41:02 9.5 C 4.92 g/m*3 9.5 C 0 km/h
1594 31-12-2006 06:53:03 9.4 C 4.88 g/m*3 9.4 C 0 km/h
1595 31-12-2006 07:05:02 9.3 C 4.94 g/m*3 9.3 C 0 km/h
1596 31-12-2006 07:17:02 9.1 C 4.97 g/m*3 9.1 C 0 km/h
1597 31-12-2006 07:29:02 9.1 C 4.97 g/m*3 9.1 C 0 km/h
1598 31-12-2006 07:41:02 9 C 5.03 g/m*3 9 C 0 km/h
1599 31-12-2006 07:53:02 8.9 C 5.08 g/m*3 8.9 C 0 km/h
1600 31-12-2006 08:05:02 8.9 C 5.08 g/m*3 8.9 C 0 km/h
Sensor: Nr:Datum:Temp:Abs-Feuchte:Windchill:Wind:
Aussen-T/F 1601 31-12-2006 08:17:01 9 C 5.03 g/m*3 9 C 0 km/h
1602 31-12-2006 08:29:01 9.1 C 4.97 g/m*3 9.1 C 0 km/h
1603 31-12-2006 08:41:02 9.1 C 4.97 g/m*3 9.1 C 0 km/h
1604 31-12-2006 08:53:01 9.2 C 5 g/m*3 9.2 C 0 km/h
1605 31-12-2006 09:05:01 9.3 C 5.03 g/m*3 9.3 C 0 km/h
1606 31-12-2006 09:17:01 9.4 C 5.06 g/m*3 9.4 C 0 km/h
1607 31-12-2006 09:29:01 9.4 C 5.06 g/m*3 9.4 C 0 km/h
1608 31-12-2006 09:41:02 9.7 C 5.07 g/m*3 9.7 C 0 km/h
1609 31-12-2006 09:53:02 9.7 C 5.07 g/m*3 9.7 C 0 km/h
1610 31-12-2006 10:05:02 9.6 C 5.04 g/m*3 9.6 C 0 km/h
1611 31-12-2006 10:17:02 9.9 C 5.14 g/m*3 9.9 C 0 km/h
1612 31-12-2006 10:29:02 10 C 5.07 g/m*3 10 C 0 km/h
1613 31-12-2006 10:41:02 10 C 5.07 g/m*3 10 C 0 km/h
1614 31-12-2006 10:53:01 10 C 4.98 g/m*3 10 C 0 km/h
1615 31-12-2006 11:05:02 10.2 C 5.04 g/m*3 10.2 C 0 km/h
1616 31-12-2006 11:17:01 10.4 C 5.01 g/m*3 10.4 C 0 km/h
1617 31-12-2006 11:29:01 10.5 C 5.04 g/m*3 10.5 C 0 km/h
1618 31-12-2006 11:41:02 10.6 C 5.08 g/m*3 10.6 C 0 km/h
1619 31-12-2006 11:53:02 10.7 C 5.01 g/m*3 10.7 C 0 km/h
1620 31-12-2006 12:05:02 10.7 C 4.91 g/m*3 10.7 C 0 km/h
1621 31-12-2006 12:17:02 10.9 C 4.97 g/m*3 10.9 C 0 km/h
1622 31-12-2006 12:29:02 10.9 C 4.87 g/m*3 10.9 C 0 km/h
1623 31-12-2006 12:41:02 10.8 C 4.84 g/m*3 10.8 C 0 km/h
1624 31-12-2006 12:53:02 10.8 C 4.65 g/m*3 10.8 C 0 km/h
1625 31-12-2006 13:05:03 10.8 C 4.65 g/m*3 10.8 C 0 km/h
Sensor: Nr:Datum:Temp:Abs-Feuchte:Windchill:Wind:
Aussen-T/F 1626 31-12-2006 13:17:02 10.9 C 4.67 g/m*3 10.9 C 0 km/h
1627 31-12-2006 13:29:02 10.9 C 4.67 g/m*3 10.9 C 0 km/h
1628 31-12-2006 13:41:02 10.7 C 4.52 g/m*3 10.7 C 0 km/h
1629 31-12-2006 13:53:02 10.6 C 4.39 g/m*3 10.6 C 0 km/h
1630 31-12-2006 14:05:02 10.5 C 4.46 g/m*3 10.5 C 0 km/h
1631 31-12-2006 14:17:02 10.5 C 4.46 g/m*3 10.5 C 0 km/h
1632 31-12-2006 14:29:02 10.5 C 4.46 g/m*3 10.5 C 0 km/h
1633 31-12-2006 14:41:02 10.6 C 4.49 g/m*3 10.6 C 0 km/h
1634 31-12-2006 14:53:02 10.6 C 4.59 g/m*3 10.6 C 0 km/h
1635 31-12-2006 15:05:02 10.6 C 4.59 g/m*3 10.6 C 0 km/h
1636 31-12-2006 15:17:02 10.5 C 4.56 g/m*3 10.5 C 0 km/h
1637 31-12-2006 15:29:02 10.4 C 4.53 g/m*3 10.4 C 0 km/h
1638 31-12-2006 15:41:02 10.2 C 4.57 g/m*3 10.2 C 0 km/h
1639 31-12-2006 15:53:01 10.2 C 4.57 g/m*3 10.2 C 0 km/h
1640 31-12-2006 16:05:01 10.1 C 4.73 g/m*3 10.1 C 0 km/h
1641 31-12-2006 16:17:02 10 C 4.7 g/m*3 10 C 0 km/h
1642 31-12-2006 16:29:02 10 C 4.79 g/m*3 10 C 0 km/h
1643 31-12-2006 16:41:01 10.2 C 4.76 g/m*3 10.2 C 0 km/h
1644 31-12-2006 16:53:02 10.3 C 4.79 g/m*3 10.3 C 0 km/h
1645 31-12-2006 17:05:01 10.4 C 4.92 g/m*3 10.4 C 0 km/h
1646 31-12-2006 17:17:02 10.4 C 4.92 g/m*3 10.4 C 0 km/h
1647 31-12-2006 17:29:02 10.5 C 5.04 g/m*3 10.5 C 0 km/h
1648 31-12-2006 17:41:01 10.6 C 5.08 g/m*3 10.6 C 0 km/h
1649 31-12-2006 17:53:02 10.7 C 5.11 g/m*3 10.7 C 0 km/h
1650 31-12-2006 18:05:01 10.6 C 5.17 g/m*3 10.6 C 0 km/h
Sensor: Nr:Datum:Temp:Abs-Feuchte:Windchill:Wind:
Aussen-T/F 1651 31-12-2006 18:17:02 10.6 C 5.27 g/m*3 10.6 C 0 km/h
1652 31-12-2006 18:29:02 10.4 C 5.3 g/m*3 10.4 C 0 km/h
1653 31-12-2006 18:41:02 10.6 C 5.27 g/m*3 10.6 C 0 km/h
1654 31-12-2006 18:53:02 10.7 C 5.3 g/m*3 10.7 C 0 km/h
1655 31-12-2006 19:05:02 10.8 C 5.24 g/m*3 10.8 C 0 km/h
1656 31-12-2006 19:17:02 10.8 C 5.24 g/m*3 10.8 C 0 km/h
1657 31-12-2006 19:29:02 11 C 5.2 g/m*3 11 C 0 km/h
1658 31-12-2006 19:41:02 11.1 C 5.24 g/m*3 11.1 C 0 km/h
1659 31-12-2006 19:53:02 11.2 C 5.27 g/m*3 11.2 C 0 km/h
1660 31-12-2006 20:05:03 11.4 C 5.34 g/m*3 11.4 C 0 km/h
1661 31-12-2006 20:17:02 11.4 C 5.44 g/m*3 11.4 C 0 km/h
1662 31-12-2006 20:29:02 11.5 C 5.47 g/m*3 11.5 C 0 km/h
1663 31-12-2006 20:41:03 11.7 C 5.65 g/m*3 11.7 C 0 km/h
1664 31-12-2006 20:53:01 12 C 5.65 g/m*3 12 C 0 km/h
1665 31-12-2006 21:05:03 12 C 5.65 g/m*3 12 C 0 km/h
1666 31-12-2006 21:17:04 12.1 C 5.79 g/m*3 12.1 C 0 km/h
1667 31-12-2006 21:29:04 12.2 C 5.83 g/m*3 12.2 C 0 km/h
1668 31-12-2006 21:41:03 12.2 C 5.94 g/m*3 12.2 C 0 km/h
1669 31-12-2006 21:53:03 12.1 C 6.11 g/m*3 12.1 C 0 km/h
1670 31-12-2006 22:05:04 11.5 C 6.61 g/m*3 11.5 C 0 km/h
1671 31-12-2006 22:17:03 11.1 C 6.85 g/m*3 11.1 C 0 km/h
1672 31-12-2006 22:29:03 11.1 C 6.95 g/m*3 11.1 C 0 km/h
1673 31-12-2006 22:41:03 11.3 C 7.04 g/m*3 11.3 C 0 km/h
1674 31-12-2006 22:53:01 11.5 C 7.13 g/m*3 11.5 C 0 km/h
1675 31-12-2006 23:05:02 11.6 C 7.07 g/m*3 11.6 C 0 km/h
Sensor: Nr:Datum:Temp:Abs-Feuchte:Windchill:Wind:
Aussen-T/F 1676 31-12-2006 23:17:02 11.8 C 7.05 g/m*3 11.8 C 0 km/h
1677 31-12-2006 23:29:02 11.8 C 7.16 g/m*3 11.8 C 0 km/h
1678 31-12-2006 23:41:01 11.6 C 7.48 g/m*3 11.6 C 0 km/h
1679 31-12-2006 23:41:03 11.6 C 7.38 g/m*3 11.6 C 0 km/h
1680 31-12-2006 23:53:01 11.5 C 7.54 g/m*3 11.5 C 0 km/h
1681 01-01-2007 00:05:01 11.7 C 7.64 g/m*3 11.7 C 0 km/h
1682 01-01-2007 00:17:01 11.7 C 7.64 g/m*3 11.7 C 0 km/h
1683 01-01-2007 00:29:01 11.7 C 7.74 g/m*3 11.7 C 0 km/h
1684 01-01-2007 00:41:01 11.5 C 7.75 g/m*3 11.5 C 0 km/h
1685 01-01-2007 00:53:01 11.3 C 7.96 g/m*3 11.3 C 0 km/h
1686 01-01-2007 01:05:02 11.1 C 8.06 g/m*3 11.1 C 0 km/h
1687 01-01-2007 01:17:02 10.9 C 8.26 g/m*3 10.9 C 0 km/h
1688 01-01-2007 01:29:02 10.9 C 8.45 g/m*3 10.9 C 0 km/h
1689 01-01-2007 01:41:02 11.1 C 8.56 g/m*3 11.1 C 0 km/h
1690 01-01-2007 01:53:02 11.1 C 8.46 g/m*3 11.1 C 0 km/h
1691 01-01-2007 02:05:02 11.1 C 8.06 g/m*3 11.1 C 0 km/h
1692 01-01-2007 02:17:02 11.1 C 8.06 g/m*3 11.1 C 0 km/h
1693 01-01-2007 02:29:02 11 C 7.91 g/m*3 11 C 0 km/h
1694 01-01-2007 02:41:02 11.1 C 7.96 g/m*3 11.1 C 0 km/h
1695 01-01-2007 02:53:02 11.4 C 7.7 g/m*3 11.4 C 0 km/h
1696 01-01-2007 03:05:02 11.4 C 7.8 g/m*3 11.4 C 0 km/h
1697 01-01-2007 03:15:02 11.4 C 8.01 g/m*3 11.4 C 0 km/h
1698 01-01-2007 03:27:02 11.6 C 8 g/m*3 11.6 C 0 km/h
1699 01-01-2007 03:37:01 11.7 C 8.05 g/m*3 11.7 C 0 km/h
1700 01-01-2007 03:49:01 11.8 C 8.1 g/m*3 11.8 C 0 km/h
Sensor: Nr:Datum:Temp:Abs-Feuchte:Windchill:Wind:
Aussen-T/F 1701 01-01-2007 03:59:01 12.4 C 8.09 g/m*3 12.4 C 0 km/h
1702 01-01-2007 04:11:01 12.6 C 8.08 g/m*3 12.6 C 0 km/h
1703 01-01-2007 04:22:02 12.3 C 8.25 g/m*3 12.3 C 0 km/h
1704 01-01-2007 04:54:57 11.3 C 7.45 g/m*3 11.3 C 0 km/h
1705 01-01-2007 05:06:24 11.1 C 5.94 g/m*3 11.1 C 0 km/h
1706 01-01-2007 05:18:24 10.8 C 5.83 g/m*3 10.8 C 0 km/h
1707 01-01-2007 05:30:41 10.6 C 5.76 g/m*3 10.6 C 0 km/h
1708 01-01-2007 05:42:08 10.2 C 5.42 g/m*3 10.2 C 0 km/h
1709 01-01-2007 05:54:08 10.2 C 5.04 g/m*3 10.2 C 0 km/h
1710 01-01-2007 06:06:25 9.8 C 5.1 g/m*3 9.8 C 0 km/h
1711 01-01-2007 06:18:52 9.5 C 5.19 g/m*3 9.5 C 0 km/h
1712 01-01-2007 06:30:47 9.5 C 5.19 g/m*3 9.5 C 0 km/h
1713 01-01-2007 06:42:34 9.7 C 5.25 g/m*3 9.7 C 0 km/h
1714 01-01-2007 06:54:34 9.6 C 5.31 g/m*3 9.6 C 0 km/h
1715 01-01-2007 07:06:29 9.5 C 5.28 g/m*3 9.5 C 0 km/h
1716 01-01-2007 07:18:15 9.6 C 5.22 g/m*3 9.6 C 0 km/h
1717 01-01-2007 07:30:10 9.5 C 5.19 g/m*3 9.5 C 0 km/h
1718 01-01-2007 07:42:56 9.3 C 5.12 g/m*3 9.3 C 0 km/h
1719 01-01-2007 07:54:52 9.4 C 5.16 g/m*3 9.4 C 0 km/h
1720 01-01-2007 08:06:38 9.6 C 5.04 g/m*3 9.6 C 0 km/h
1721 01-01-2007 08:18:33 9.6 C 5.04 g/m*3 9.6 C 0 km/h
1722 01-01-2007 08:30:33 9.6 C 5.04 g/m*3 9.6 C 0 km/h
1723 01-01-2007 08:42:19 9.4 C 5.06 g/m*3 9.4 C 0 km/h
1724 01-01-2007 08:54:15 9.5 C 5.19 g/m*3 9.5 C 0 km/h
1725 01-01-2007 09:06:01 9.5 C 5.19 g/m*3 9.5 C 0 km/h
Sensor: Nr:Datum:Temp:Abs-Feuchte:Windchill:Wind:
Aussen-T/F 1726 01-01-2007 09:18:57 9.7 C 5.16 g/m*3 9.7 C 0 km/h
1727 01-01-2007 09:30:42 9.8 C 5.1 g/m*3 9.8 C 0 km/h
1728 01-01-2007 09:42:37 9.8 C 5.1 g/m*3 9.8 C 0 km/h
1729 01-01-2007 09:54:24 9.9 C 5.14 g/m*3 9.9 C 0 km/h
1730 01-01-2007 10:06:24 9.7 C 5.07 g/m*3 9.7 C 0 km/h
1731 01-01-2007 10:18:20 9.3 C 5.12 g/m*3 9.3 C 0 km/h
1732 01-01-2007 10:30:06 6.4 C 5.14 g/m*3 6.4 C 0 km/h
1733 01-01-2007 10:42:01 5.7 C 5.34 g/m*3 5.7 C 0 km/h
1734 01-01-2007 10:54:47 5.6 C 5.59 g/m*3 5.6 C 0 km/h
1735 01-01-2007 11:06:43 5.6 C 5.51 g/m*3 5.6 C 0 km/h
1736 01-01-2007 11:18:29 5.7 C 5.41 g/m*3 5.7 C 0 km/h
1737 01-01-2007 11:30:29 6 C 5.44 g/m*3 6 C 0 km/h
1738 01-01-2007 11:42:24 6.1 C 5.48 g/m*3 6.1 C 0 km/h
1739 01-01-2007 11:54:02 6.7 C 5.55 g/m*3 6.7 C 0 km/h
1740 01-01-2007 12:06:02 7.1 C 5.3 g/m*3 7.1 C 0 km/h
1741 01-01-2007 12:18:02 7.3 C 5.29 g/m*3 7.3 C 0 km/h
1742 01-01-2007 12:30:02 7.6 C 5.16 g/m*3 7.6 C 0 km/h
1743 01-01-2007 12:42:02 7.9 C 5.01 g/m*3 7.9 C 0 km/h
1744 01-01-2007 12:54:02 8 C 4.96 g/m*3 8 C 0 km/h
1745 01-01-2007 13:06:02 8.4 C 5.09 g/m*3 8.4 C 0 km/h
1746 01-01-2007 13:18:02 8.8 C 5.05 g/m*3 8.8 C 0 km/h
1747 01-01-2007 13:30:02 9.1 C 4.88 g/m*3 9.1 C 0 km/h
1748 01-01-2007 13:42:02 8.9 C 5.08 g/m*3 8.9 C 0 km/h
1749 01-01-2007 13:54:02 7.8 C 5.47 g/m*3 7.8 C 0 km/h
1750 01-01-2007 14:06:02 7 C 5.27 g/m*3 7 C 0 km/h
Sensor: Nr:Datum:Temp:Abs-Feuchte:Windchill:Wind:
Aussen-T/F 1751 01-01-2007 14:18:03 6.9 C 5 g/m*3 6.9 C 0 km/h
1752 01-01-2007 14:30:03 6.8 C 5.12 g/m*3 6.8 C 0 km/h
1753 01-01-2007 14:42:02 6.9 C 5.08 g/m*3 6.9 C 0 km/h
1754 01-01-2007 14:54:02 6.9 C 5.08 g/m*3 6.9 C 0 km/h
1755 01-01-2007 15:06:01 6.9 C 5 g/m*3 6.9 C 0 km/h
1756 01-01-2007 15:18:02 7.3 C 4.98 g/m*3 7.3 C 0 km/h
1757 01-01-2007 15:30:02 7.4 C 4.85 g/m*3 7.4 C 0 km/h
1758 01-01-2007 15:42:01 7.2 C 5.02 g/m*3 7.2 C 0 km/h
1759 01-01-2007 15:54:02 6.1 C 5.11 g/m*3 6.1 C 0 km/h
1760 01-01-2007 16:06:02 5.9 C 5.48 g/m*3 5.9 C 0 km/h
1761 01-01-2007 16:18:02 5.7 C 5.55 g/m*3 5.7 C 0 km/h
1762 01-01-2007 16:30:02 6.5 C 5.02 g/m*3 6.5 C 0 km/h
1763 01-01-2007 16:42:02 6.5 C 4.72 g/m*3 6.5 C 0 km/h
1764 01-01-2007 16:54:02 6.3 C 4.52 g/m*3 6.3 C 0 km/h
1765 01-01-2007 17:06:02 6.3 C 4.37 g/m*3 6.3 C 0 km/h
1766 01-01-2007 17:18:02 6.2 C 4.27 g/m*3 6.2 C 0 km/h
1767 01-01-2007 17:30:02 6.1 C 4.24 g/m*3 6.1 C 0 km/h
1768 01-01-2007 17:42:02 6.1 C 4.16 g/m*3 6.1 C 0 km/h
1769 01-01-2007 17:54:02 5.9 C 4.18 g/m*3 5.9 C 0 km/h
1770 01-01-2007 18:06:02 5.8 C 4.23 g/m*3 5.8 C 0 km/h
1771 01-01-2007 18:18:03 6 C 4.14 g/m*3 6 C 0 km/h
1772 01-01-2007 18:30:03 5.9 C 4.11 g/m*3 5.9 C 0 km/h
1773 01-01-2007 18:42:02 6 C 4.14 g/m*3 6 C 0 km/h
1774 01-01-2007 18:54:02 5.7 C 4.13 g/m*3 5.7 C 0 km/h
1775 01-01-2007 19:06:01 6 C 4.14 g/m*3 6 C 0 km/h
Sensor: Nr:Datum:Temp:Abs-Feuchte:Windchill:Wind:
Aussen-T/F 1776 01-01-2007 19:18:02 6 C 4.21 g/m*3 6 C 0 km/h
1777 01-01-2007 19:30:02 5.3 C 4.3 g/m*3 5.3 C 0 km/h
1778 01-01-2007 19:42:01 5.1 C 4.38 g/m*3 5.1 C 0 km/h
1779 01-01-2007 19:54:02 5.3 C 4.37 g/m*3 5.3 C 0 km/h
1780 01-01-2007 20:06:01 5.5 C 4.35 g/m*3 5.5 C 0 km/h
1781 01-01-2007 20:18:02 5.4 C 4.33 g/m*3 5.4 C 0 km/h
1782 01-01-2007 20:30:02 5.2 C 4.34 g/m*3 5.2 C 0 km/h
1783 01-01-2007 20:42:02 5.2 C 4.41 g/m*3 5.2 C 0 km/h
1784 01-01-2007 20:54:02 5 C 4.35 g/m*3 5 C 0 km/h
1785 01-01-2007 21:06:02 5 C 4.35 g/m*3 5 C 0 km/h
1786 01-01-2007 21:18:02 5 C 4.42 g/m*3 5 C 0 km/h
1787 01-01-2007 21:30:02 4.8 C 4.49 g/m*3 4.8 C 0 km/h
1788 01-01-2007 21:42:02 4.9 C 4.52 g/m*3 4.9 C 0 km/h
1789 01-01-2007 21:54:02 5 C 4.48 g/m*3 5 C 0 km/h
1790 01-01-2007 22:06:02 4.9 C 4.52 g/m*3 4.9 C 0 km/h
1791 01-01-2007 22:18:02 4.7 C 4.53 g/m*3 4.7 C 0 km/h
1792 01-01-2007 22:30:02 4.8 C 4.49 g/m*3 4.8 C 0 km/h
1793 01-01-2007 22:42:02 4.8 C 4.56 g/m*3 4.8 C 0 km/h
1794 01-01-2007 22:54:02 4.7 C 4.53 g/m*3 4.7 C 0 km/h
1795 01-01-2007 23:06:03 4.6 C 4.57 g/m*3 4.6 C 0 km/h
1796 01-01-2007 23:18:02 4.4 C 4.57 g/m*3 4.4 C 0 km/h
1797 01-01-2007 23:30:02 4.1 C 4.54 g/m*3 4.1 C 0 km/h
1798 01-01-2007 23:42:02 4.2 C 4.64 g/m*3 4.2 C 0 km/h
1799 01-01-2007 23:54:01 3.8 C 4.58 g/m*3 3.8 C 0 km/h
1800 02-01-2007 00:06:02 3.5 C 4.61 g/m*3 3.5 C 0 km/h
Sensor: Nr:Datum:Temp:Abs-Feuchte:Windchill:Wind:
Aussen-T/F 1801 02-01-2007 00:18:02 3.6 C 4.77 g/m*3 3.6 C 0 km/h
1802 02-01-2007 00:30:02 3.4 C 4.7 g/m*3 3.4 C 0 km/h
1803 02-01-2007 00:42:02 3.2 C 4.64 g/m*3 3.2 C 0 km/h
1804 02-01-2007 00:54:02 3.2 C 4.7 g/m*3 3.2 C 0 km/h
1805 02-01-2007 01:06:03 3.1 C 4.73 g/m*3 3.1 C 0 km/h
1806 02-01-2007 01:18:02 3 C 4.7 g/m*3 3 C 0 km/h
1807 02-01-2007 01:30:02 3 C 4.76 g/m*3 3 C 0 km/h
1808 02-01-2007 01:42:02 3 C 4.76 g/m*3 3 C 0 km/h
1809 02-01-2007 01:54:01 3.1 C 4.85 g/m*3 3.1 C 0 km/h
1810 02-01-2007 02:06:01 3.2 C 4.88 g/m*3 3.2 C 0 km/h
1811 02-01-2007 02:18:02 3.1 C 4.85 g/m*3 3.1 C 0 km/h
1812 02-01-2007 02:30:02 3 C 4.82 g/m*3 3 C 0 km/h
1813 02-01-2007 02:42:01 2.9 C 4.84 g/m*3 2.9 C 0 km/h
1814 02-01-2007 02:54:01 2.8 C 4.81 g/m*3 2.8 C 0 km/h
1815 02-01-2007 03:06:01 2.9 C 4.84 g/m*3 2.9 C 0 km/h
1816 02-01-2007 03:18:01 3 C 4.88 g/m*3 3 C 0 km/h
1817 02-01-2007 03:30:01 3.1 C 4.91 g/m*3 3.1 C 0 km/h
1818 02-01-2007 03:42:02 3.3 C 4.97 g/m*3 3.3 C 0 km/h
1819 02-01-2007 03:54:02 3.5 C 5.04 g/m*3 3.5 C 0 km/h
1820 02-01-2007 04:06:01 3.4 C 4.95 g/m*3 3.4 C 0 km/h
1821 02-01-2007 04:18:02 3.4 C 4.95 g/m*3 3.4 C 0 km/h
1822 02-01-2007 04:30:02 3.3 C 4.91 g/m*3 3.3 C 0 km/h
1823 02-01-2007 04:42:01 3.3 C 4.97 g/m*3 3.3 C 0 km/h
1824 02-01-2007 04:54:02 3.3 C 5.04 g/m*3 3.3 C 0 km/h
1825 02-01-2007 05:06:01 3.3 C 5.1 g/m*3 3.3 C 0 km/h
Sensor: Nr:Datum:Temp:Abs-Feuchte:Windchill:Wind:
Aussen-T/F 1826 02-01-2007 05:18:01 3.4 C 5.13 g/m*3 3.4 C 0 km/h
1827 02-01-2007 05:30:01 3.5 C 5.23 g/m*3 3.5 C 0 km/h
1828 02-01-2007 05:42:02 3.6 C 5.32 g/m*3 3.6 C 0 km/h
1829 02-01-2007 05:54:02 3.7 C 5.48 g/m*3 3.7 C 0 km/h
1830 02-01-2007 06:06:01 3.8 C 5.52 g/m*3 3.8 C 0 km/h
1831 02-01-2007 06:18:02 3.7 C 5.48 g/m*3 3.7 C 0 km/h
1832 02-01-2007 06:30:02 3.8 C 5.52 g/m*3 3.8 C 0 km/h
1833 02-01-2007 06:42:01 3.8 C 5.52 g/m*3 3.8 C 0 km/h
1834 02-01-2007 06:54:02 4 C 5.34 g/m*3 4 C 0 km/h
1835 02-01-2007 07:06:02 4.3 C 5.19 g/m*3 4.3 C 0 km/h
1836 02-01-2007 07:18:01 4.6 C 4.9 g/m*3 4.6 C 0 km/h
1837 02-01-2007 07:30:01 4.6 C 4.76 g/m*3 4.6 C 0 km/h
1838 02-01-2007 07:42:02 4.7 C 4.53 g/m*3 4.7 C 0 km/h
1839 02-01-2007 07:54:01 4.7 C 4.4 g/m*3 4.7 C 0 km/h
1840 02-01-2007 08:06:01 4.8 C 4.29 g/m*3 4.8 C 0 km/h
1841 02-01-2007 08:18:01 4.6 C 4.1 g/m*3 4.6 C 0 km/h
1842 02-01-2007 08:30:01 4.7 C 4.13 g/m*3 4.7 C 0 km/h
1843 02-01-2007 08:42:02 4.7 C 4.06 g/m*3 4.7 C 0 km/h
1844 02-01-2007 08:54:02 4.6 C 4.1 g/m*3 4.6 C 0 km/h
1845 02-01-2007 09:06:02 4.7 C 4.2 g/m*3 4.7 C 0 km/h
1846 02-01-2007 09:18:01 4.5 C 4.27 g/m*3 4.5 C 0 km/h
1847 02-01-2007 09:30:01 4.1 C 4.42 g/m*3 4.1 C 0 km/h
1848 02-01-2007 09:42:02 4.2 C 4.38 g/m*3 4.2 C 0 km/h
1849 02-01-2007 09:54:02 4.4 C 4.37 g/m*3 4.4 C 0 km/h
1850 02-01-2007 10:06:01 4.5 C 4.34 g/m*3 4.5 C 0 km/h
Sensor: Nr:Datum:Temp:Abs-Feuchte:Windchill:Wind:
Aussen-T/F 1851 02-01-2007 10:18:01 4.5 C 4.34 g/m*3 4.5 C 0 km/h
1852 02-01-2007 10:30:01 4.7 C 4.4 g/m*3 4.7 C 0 km/h
1853 02-01-2007 10:42:02 4.4 C 4.31 g/m*3 4.4 C 0 km/h
1854 02-01-2007 10:54:01 4.7 C 4.26 g/m*3 4.7 C 0 km/h
1855 02-01-2007 11:06:02 4.7 C 4.26 g/m*3 4.7 C 0 km/h
1856 02-01-2007 11:18:01 4.9 C 4.32 g/m*3 4.9 C 0 km/h
1857 02-01-2007 11:30:01 5.3 C 4.23 g/m*3 5.3 C 0 km/h
1858 02-01-2007 11:42:02 5.6 C 4.24 g/m*3 5.6 C 0 km/h
1859 02-01-2007 11:54:02 5.9 C 4.25 g/m*3 5.9 C 0 km/h
1860 02-01-2007 12:06:01 5.8 C 4.23 g/m*3 5.8 C 0 km/h
1861 02-01-2007 12:18:01 5.8 C 4.15 g/m*3 5.8 C 0 km/h
1862 02-01-2007 12:30:01 5.9 C 4.04 g/m*3 5.9 C 0 km/h
1863 02-01-2007 12:42:02 5.9 C 4.04 g/m*3 5.9 C 0 km/h
1864 02-01-2007 12:54:01 6 C 3.99 g/m*3 6 C 0 km/h
1865 02-01-2007 13:06:01 6.1 C 4.02 g/m*3 6.1 C 0 km/h
1866 02-01-2007 13:18:01 5.9 C 4.18 g/m*3 5.9 C 0 km/h
1867 02-01-2007 13:30:01 5.6 C 4.24 g/m*3 5.6 C 0 km/h
1868 02-01-2007 13:42:02 5.4 C 4.4 g/m*3 5.4 C 0 km/h
1869 02-01-2007 13:54:02 5.4 C 4.47 g/m*3 5.4 C 0 km/h
1870 02-01-2007 14:06:01 5.6 C 4.38 g/m*3 5.6 C 0 km/h
1871 02-01-2007 14:18:01 5.6 C 4.45 g/m*3 5.6 C 0 km/h
1872 02-01-2007 14:30:01 5.5 C 4.42 g/m*3 5.5 C 0 km/h
1873 02-01-2007 14:42:02 5.6 C 4.38 g/m*3 5.6 C 0 km/h
1874 02-01-2007 14:54:02 5.7 C 4.41 g/m*3 5.7 C 0 km/h
1875 02-01-2007 15:06:01 5.8 C 4.44 g/m*3 5.8 C 0 km/h
Sensor: Nr:Datum:Temp:Abs-Feuchte:Windchill:Wind:
Aussen-T/F 1876 02-01-2007 15:18:02 5.8 C 4.44 g/m*3 5.8 C 0 km/h
1877 02-01-2007 15:30:02 5.8 C 4.44 g/m*3 5.8 C 0 km/h
1878 02-01-2007 15:42:02 5.8 C 4.44 g/m*3 5.8 C 0 km/h
1879 02-01-2007 15:54:02 5.8 C 4.51 g/m*3 5.8 C 0 km/h
1880 02-01-2007 16:06:01 5.7 C 4.55 g/m*3 5.7 C 0 km/h
1881 02-01-2007 16:18:02 5.6 C 4.67 g/m*3 5.6 C 0 km/h
1882 02-01-2007 16:30:02 5.4 C 4.67 g/m*3 5.4 C 0 km/h
1883 02-01-2007 16:42:02 4.9 C 5 g/m*3 4.9 C 0 km/h
1884 02-01-2007 16:54:02 4.7 C 5.2 g/m*3 4.7 C 0 km/h
1885 02-01-2007 17:06:01 4.5 C 5.13 g/m*3 4.5 C 0 km/h
1886 02-01-2007 17:18:02 4.3 C 5.06 g/m*3 4.3 C 0 km/h
1887 02-01-2007 17:30:02 4.1 C 5.06 g/m*3 4.1 C 0 km/h
1888 02-01-2007 17:42:01 4.2 C 5.09 g/m*3 4.2 C 0 km/h
1889 02-01-2007 17:54:02 4.4 C 5.16 g/m*3 4.4 C 0 km/h
1890 02-01-2007 18:06:01 4.2 C 5.09 g/m*3 4.2 C 0 km/h
1891 02-01-2007 18:18:02 4.3 C 5.19 g/m*3 4.3 C 0 km/h
1892 02-01-2007 18:30:02 4.1 C 5.12 g/m*3 4.1 C 0 km/h
1893 02-01-2007 18:42:01 4 C 5.09 g/m*3 4 C 0 km/h
1894 02-01-2007 18:54:01 4.2 C 5.09 g/m*3 4.2 C 0 km/h
1895 02-01-2007 19:06:01 3.8 C 4.89 g/m*3 3.8 C 0 km/h
1896 02-01-2007 19:18:02 3.9 C 4.86 g/m*3 3.9 C 0 km/h
1897 02-01-2007 19:30:02 3.9 C 4.86 g/m*3 3.9 C 0 km/h
1898 02-01-2007 19:42:01 4.1 C 4.93 g/m*3 4.1 C 0 km/h
1899 02-01-2007 19:54:01 4.2 C 4.9 g/m*3 4.2 C 0 km/h
1900 02-01-2007 20:06:01 4.2 C 4.9 g/m*3 4.2 C 0 km/h
Sensor: Nr:Datum:Temp:Abs-Feuchte:Windchill:Wind:
Aussen-T/F 1901 02-01-2007 20:18:01 4.1 C 4.86 g/m*3 4.1 C 0 km/h
1902 02-01-2007 20:30:01 4 C 4.9 g/m*3 4 C 0 km/h
1903 02-01-2007 20:42:02 4 C 5.02 g/m*3 4 C 0 km/h
1904 02-01-2007 20:54:02 4 C 5.02 g/m*3 4 C 0 km/h
1905 02-01-2007 21:06:02 4 C 5.09 g/m*3 4 C 0 km/h
1906 02-01-2007 21:18:01 4 C 5.09 g/m*3 4 C 0 km/h
1907 02-01-2007 21:30:01 4 C 5.15 g/m*3 4 C 0 km/h
1908 02-01-2007 21:42:01 4.1 C 5.18 g/m*3 4.1 C 0 km/h
1909 02-01-2007 21:54:01 4.2 C 5.22 g/m*3 4.2 C 0 km/h
1910 02-01-2007 22:06:02 4.2 C 5.22 g/m*3 4.2 C 0 km/h
1911 02-01-2007 22:18:01 4.2 C 5.28 g/m*3 4.2 C 0 km/h
1912 02-01-2007 22:30:01 4.1 C 5.25 g/m*3 4.1 C 0 km/h
1913 02-01-2007 22:42:01 4.1 C 5.25 g/m*3 4.1 C 0 km/h
1914 02-01-2007 22:54:01 4.2 C 5.28 g/m*3 4.2 C 0 km/h
1915 02-01-2007 23:06:02 4.2 C 5.28 g/m*3 4.2 C 0 km/h
1916 02-01-2007 23:18:01 4.3 C 5.32 g/m*3 4.3 C 0 km/h
1917 02-01-2007 23:30:01 4.2 C 5.28 g/m*3 4.2 C 0 km/h
1918 02-01-2007 23:42:01 4.3 C 5.25 g/m*3 4.3 C 0 km/h
1919 02-01-2007 23:54:01 4.4 C 5.29 g/m*3 4.4 C 0 km/h
1920 03-01-2007 00:06:02 4.5 C 5.26 g/m*3 4.5 C 0 km/h
1921 03-01-2007 00:18:02 4.5 C 5.26 g/m*3 4.5 C 0 km/h
1922 03-01-2007 00:30:02 4.5 C 5.26 g/m*3 4.5 C 0 km/h
1923 03-01-2007 00:42:02 4.5 C 5.26 g/m*3 4.5 C 0 km/h
1924 03-01-2007 00:54:02 4.6 C 5.23 g/m*3 4.6 C 0 km/h
1925 03-01-2007 01:06:01 4.6 C 5.23 g/m*3 4.6 C 0 km/h
Sensor: Nr:Datum:Temp:Abs-Feuchte:Windchill:Wind:
Aussen-T/F 1926 03-01-2007 01:18:01 4.7 C 5.26 g/m*3 4.7 C 0 km/h
1927 03-01-2007 01:30:01 4.8 C 5.3 g/m*3 4.8 C 0 km/h
1928 03-01-2007 01:42:02 4.8 C 5.3 g/m*3 4.8 C 0 km/h
1929 03-01-2007 01:54:02 4.8 C 5.3 g/m*3 4.8 C 0 km/h
1930 03-01-2007 02:06:01 4.8 C 5.3 g/m*3 4.8 C 0 km/h
1931 03-01-2007 02:18:01 4.8 C 5.36 g/m*3 4.8 C 0 km/h
1932 03-01-2007 02:30:01 5 C 5.3 g/m*3 5 C 0 km/h
1933 03-01-2007 02:42:02 5 C 5.3 g/m*3 5 C 0 km/h
1934 03-01-2007 02:55:04 5 C 5.3 g/m*3 5 C 0 km/h
1935 03-01-2007 03:07:04 4.9 C 5.4 g/m*3 4.9 C 0 km/h
1936 03-01-2007 03:19:04 4.8 C 5.43 g/m*3 4.8 C 0 km/h
1937 03-01-2007 03:31:01 4.8 C 5.43 g/m*3 4.8 C 0 km/h
1938 03-01-2007 03:43:01 4.8 C 5.43 g/m*3 4.8 C 0 km/h
1939 03-01-2007 03:55:01 4.8 C 5.57 g/m*3 4.8 C 0 km/h
1940 03-01-2007 04:07:01 4.8 C 5.63 g/m*3 4.8 C 0 km/h
1941 03-01-2007 04:19:01 4.7 C 5.66 g/m*3 4.7 C 0 km/h
1942 03-01-2007 04:31:01 4.6 C 5.69 g/m*3 4.6 C 0 km/h
1943 03-01-2007 04:43:01 4.5 C 5.65 g/m*3 4.5 C 0 km/h
1944 03-01-2007 04:55:01 4.5 C 5.65 g/m*3 4.5 C 0 km/h
1945 03-01-2007 05:07:01 4.5 C 5.72 g/m*3 4.5 C 0 km/h
1946 03-01-2007 05:19:02 4.5 C 5.78 g/m*3 4.5 C 0 km/h
1947 03-01-2007 05:31:01 4.5 C 5.78 g/m*3 4.5 C 0 km/h
1948 03-01-2007 05:43:01 4.5 C 5.78 g/m*3 4.5 C 0 km/h
1949 03-01-2007 05:55:02 4.2 C 5.67 g/m*3 4.2 C 0 km/h
1950 03-01-2007 06:07:01 3.9 C 5.56 g/m*3 3.9 C 0 km/h
Sensor: Nr:Datum:Temp:Abs-Feuchte:Windchill:Wind:
Aussen-T/F 1951 03-01-2007 06:19:02 4 C 5.59 g/m*3 4 C 0 km/h
1952 03-01-2007 06:31:01 4.2 C 5.73 g/m*3 4.2 C 0 km/h
1953 03-01-2007 06:43:01 4.2 C 5.73 g/m*3 4.2 C 0 km/h
1954 03-01-2007 06:55:01 4.1 C 5.7 g/m*3 4.1 C 0 km/h
1955 03-01-2007 07:07:01 3.9 C 5.62 g/m*3 3.9 C 0 km/h
1956 03-01-2007 07:19:02 3.7 C 5.55 g/m*3 3.7 C 0 km/h
1957 03-01-2007 07:31:01 3.6 C 5.51 g/m*3 3.6 C 0 km/h
1958 03-01-2007 07:43:01 3.5 C 5.47 g/m*3 3.5 C 0 km/h
1959 03-01-2007 07:55:02 3.3 C 5.4 g/m*3 3.3 C 0 km/h
1960 03-01-2007 08:07:01 3.3 C 5.4 g/m*3 3.3 C 0 km/h
1961 03-01-2007 08:19:02 3.4 C 5.5 g/m*3 3.4 C 0 km/h
1962 03-01-2007 08:31:01 3.5 C 5.53 g/m*3 3.5 C 0 km/h
1963 03-01-2007 08:43:01 3.6 C 5.63 g/m*3 3.6 C 0 km/h
1964 03-01-2007 08:55:02 3.5 C 5.53 g/m*3 3.5 C 0 km/h
1965 03-01-2007 09:07:01 3.8 C 5.71 g/m*3 3.8 C 0 km/h
1966 03-01-2007 09:19:02 3.9 C 5.68 g/m*3 3.9 C 0 km/h
1967 03-01-2007 09:31:01 4 C 5.72 g/m*3 4 C 0 km/h
1968 03-01-2007 09:43:01 4.1 C 5.7 g/m*3 4.1 C 0 km/h
1969 03-01-2007 09:55:02 4.4 C 5.75 g/m*3 4.4 C 0 km/h
1970 03-01-2007 10:07:02 4.7 C 5.66 g/m*3 4.7 C 0 km/h
1971 03-01-2007 10:19:02 4.7 C 5.53 g/m*3 4.7 C 0 km/h
1972 03-01-2007 10:31:01 4.8 C 5.5 g/m*3 4.8 C 0 km/h
1973 03-01-2007 10:43:01 5 C 5.37 g/m*3 5 C 0 km/h
1974 03-01-2007 10:55:01 5.1 C 5.34 g/m*3 5.1 C 0 km/h
1975 03-01-2007 11:07:02 5.4 C 5.23 g/m*3 5.4 C 0 km/h
Sensor: Nr:Datum:Temp:Abs-Feuchte:Windchill:Wind:
Aussen-T/F 1976 03-01-2007 11:19:02 5.6 C 4.95 g/m*3 5.6 C 0 km/h
1977 03-01-2007 11:31:01 5.8 C 4.94 g/m*3 5.8 C 0 km/h
1978 03-01-2007 11:43:01 5.8 C 4.94 g/m*3 5.8 C 0 km/h
1979 03-01-2007 11:55:01 5.8 C 4.94 g/m*3 5.8 C 0 km/h
1980 03-01-2007 12:07:02 5.9 C 4.9 g/m*3 5.9 C 0 km/h
1981 03-01-2007 12:19:01 6 C 4.86 g/m*3 6 C 0 km/h
1982 03-01-2007 12:31:02 6.2 C 4.93 g/m*3 6.2 C 0 km/h
1983 03-01-2007 12:43:02 6.2 C 4.85 g/m*3 6.2 C 0 km/h
1984 03-01-2007 12:55:02 6.3 C 4.81 g/m*3 6.3 C 0 km/h
1985 03-01-2007 13:07:03 6.4 C 4.84 g/m*3 6.4 C 0 km/h
1986 03-01-2007 13:19:02 6.4 C 4.77 g/m*3 6.4 C 0 km/h
1987 03-01-2007 13:31:03 6.4 C 4.84 g/m*3 6.4 C 0 km/h
1988 03-01-2007 13:43:03 6.4 C 4.77 g/m*3 6.4 C 0 km/h
1989 03-01-2007 13:55:02 6.4 C 4.77 g/m*3 6.4 C 0 km/h
1990 03-01-2007 14:07:02 6.4 C 4.84 g/m*3 6.4 C 0 km/h
1991 03-01-2007 14:19:02 6.3 C 4.81 g/m*3 6.3 C 0 km/h
1992 03-01-2007 14:31:02 6.2 C 4.85 g/m*3 6.2 C 0 km/h
1993 03-01-2007 14:43:02 6.3 C 4.89 g/m*3 6.3 C 0 km/h
1994 03-01-2007 14:55:02 6.4 C 4.92 g/m*3 6.4 C 0 km/h
1995 03-01-2007 15:07:02 6.4 C 4.99 g/m*3 6.4 C 0 km/h
1996 03-01-2007 15:19:02 6.4 C 4.99 g/m*3 6.4 C 0 km/h
1997 03-01-2007 15:31:02 6.4 C 5.07 g/m*3 6.4 C 0 km/h
1998 03-01-2007 15:43:02 6.4 C 5.14 g/m*3 6.4 C 0 km/h
1999 03-01-2007 15:55:02 6.4 C 5.14 g/m*3 6.4 C 0 km/h
2000 03-01-2007 16:07:02 6.4 C 5.14 g/m*3 6.4 C 0 km/h
Sensor: Nr:Datum:Temp:Abs-Feuchte:Windchill:Wind:
Aussen-T/F 2001 03-01-2007 16:19:02 6.4 C 5.22 g/m*3 6.4 C 0 km/h
2002 03-01-2007 16:31:02 6.5 C 5.17 g/m*3 6.5 C 0 km/h
2003 03-01-2007 16:43:02 6.4 C 5.22 g/m*3 6.4 C 0 km/h
2004 03-01-2007 16:55:02 6.4 C 5.14 g/m*3 6.4 C 0 km/h
2005 03-01-2007 17:07:02 6.6 C 5.06 g/m*3 6.6 C 0 km/h
2006 03-01-2007 17:19:02 6.7 C 5.09 g/m*3 6.7 C 0 km/h
2007 03-01-2007 17:31:03 6.6 C 5.13 g/m*3 6.6 C 0 km/h
2008 03-01-2007 17:43:03 6.7 C 5.24 g/m*3 6.7 C 0 km/h
2009 03-01-2007 17:55:02 6.7 C 5.17 g/m*3 6.7 C 0 km/h
2010 03-01-2007 18:07:02 6.7 C 5.17 g/m*3 6.7 C 0 km/h
2011 03-01-2007 18:19:02 6.8 C 5.05 g/m*3 6.8 C 0 km/h
2012 03-01-2007 18:31:02 6.7 C 5.09 g/m*3 6.7 C 0 km/h
2013 03-01-2007 18:43:02 6.6 C 5.13 g/m*3 6.6 C 0 km/h
2014 03-01-2007 18:55:02 6.7 C 5.09 g/m*3 6.7 C 0 km/h
2015 03-01-2007 19:07:02 6.8 C 4.97 g/m*3 6.8 C 0 km/h
2016 03-01-2007 19:19:02 6.9 C 5 g/m*3 6.9 C 0 km/h
2017 03-01-2007 19:31:02 7 C 5.04 g/m*3 7 C 0 km/h
2018 03-01-2007 19:43:02 6.9 C 5.08 g/m*3 6.9 C 0 km/h
2019 03-01-2007 19:55:02 7 C 5.11 g/m*3 7 C 0 km/h
2020 03-01-2007 20:07:02 7 C 5.11 g/m*3 7 C 0 km/h
2021 03-01-2007 20:19:01 7.1 C 5.07 g/m*3 7.1 C 0 km/h
2022 03-01-2007 20:31:02 7.2 C 5.1 g/m*3 7.2 C 0 km/h
2023 03-01-2007 20:43:02 7.3 C 5.14 g/m*3 7.3 C 0 km/h
2024 03-01-2007 20:55:02 7.3 C 5.14 g/m*3 7.3 C 0 km/h
2025 03-01-2007 21:07:01 7.3 C 5.14 g/m*3 7.3 C 0 km/h
Sensor: Nr:Datum:Temp:Abs-Feuchte:Windchill:Wind:
Aussen-T/F 2026 03-01-2007 21:19:02 7.3 C 5.14 g/m*3 7.3 C 0 km/h
2027 03-01-2007 21:31:02 7.3 C 5.06 g/m*3 7.3 C 0 km/h
2028 03-01-2007 21:43:02 7.4 C 5.01 g/m*3 7.4 C 0 km/h
2029 03-01-2007 21:55:01 7.3 C 5.06 g/m*3 7.3 C 0 km/h
2030 03-01-2007 22:07:01 7.3 C 5.06 g/m*3 7.3 C 0 km/h
2031 03-01-2007 22:19:02 7.4 C 5.01 g/m*3 7.4 C 0 km/h
2032 03-01-2007 22:31:02 7.4 C 5.01 g/m*3 7.4 C 0 km/h
2033 03-01-2007 22:43:02 7.5 C 5.04 g/m*3 7.5 C 0 km/h
2034 03-01-2007 22:55:02 7.5 C 5.04 g/m*3 7.5 C 0 km/h
2035 03-01-2007 23:07:02 7.6 C 4.99 g/m*3 7.6 C 0 km/h
2036 03-01-2007 23:19:02 7.6 C 4.99 g/m*3 7.6 C 0 km/h
2037 03-01-2007 23:31:02 7.6 C 4.99 g/m*3 7.6 C 0 km/h
2038 03-01-2007 23:43:02 7.6 C 4.99 g/m*3 7.6 C 0 km/h
2039 03-01-2007 23:55:02 7.5 C 4.96 g/m*3 7.5 C 0 km/h
2040 04-01-2007 00:07:02 7.5 C 4.96 g/m*3 7.5 C 0 km/h
2041 04-01-2007 00:19:02 7.6 C 4.99 g/m*3 7.6 C 0 km/h
2042 04-01-2007 00:31:02 7.5 C 4.96 g/m*3 7.5 C 0 km/h
2043 04-01-2007 00:43:02 7.5 C 4.96 g/m*3 7.5 C 0 km/h
2044 04-01-2007 00:55:02 7.5 C 4.88 g/m*3 7.5 C 0 km/h
2045 04-01-2007 01:07:02 7.5 C 4.96 g/m*3 7.5 C 0 km/h
2046 04-01-2007 01:19:02 7.5 C 4.96 g/m*3 7.5 C 0 km/h
2047 04-01-2007 01:31:02 7.4 C 5.01 g/m*3 7.4 C 0 km/h
2048 04-01-2007 01:43:02 7.4 C 5.01 g/m*3 7.4 C 0 km/h
2049 04-01-2007 01:55:01 7.4 C 5.01 g/m*3 7.4 C 0 km/h
2050 04-01-2007 02:07:02 7.4 C 5.01 g/m*3 7.4 C 0 km/h
Sensor: Nr:Datum:Temp:Abs-Feuchte:Windchill:Wind:
Aussen-T/F 2051 04-01-2007 02:19:02 7.4 C 5.01 g/m*3 7.4 C 0 km/h
2052 04-01-2007 02:31:02 7.4 C 5.01 g/m*3 7.4 C 0 km/h
2053 04-01-2007 02:43:02 7.4 C 5.01 g/m*3 7.4 C 0 km/h
2054 04-01-2007 02:56:04 7.4 C 5.01 g/m*3 7.4 C 0 km/h
2055 04-01-2007 03:08:04 7.4 C 5.01 g/m*3 7.4 C 0 km/h
2056 04-01-2007 03:20:04 7.5 C 4.96 g/m*3 7.5 C 0 km/h
2057 04-01-2007 03:32:02 7.5 C 4.96 g/m*3 7.5 C 0 km/h
2058 04-01-2007 03:44:03 7.5 C 4.96 g/m*3 7.5 C 0 km/h
2059 04-01-2007 03:56:03 7.5 C 4.96 g/m*3 7.5 C 0 km/h
2060 04-01-2007 04:08:02 7.5 C 4.96 g/m*3 7.5 C 0 km/h
2061 04-01-2007 04:20:02 7.6 C 4.99 g/m*3 7.6 C 0 km/h
2062 04-01-2007 04:32:02 7.6 C 4.99 g/m*3 7.6 C 0 km/h
2063 04-01-2007 04:44:02 7.6 C 4.99 g/m*3 7.6 C 0 km/h
2064 04-01-2007 04:56:02 7.6 C 4.99 g/m*3 7.6 C 0 km/h
2065 04-01-2007 05:08:02 7.6 C 4.99 g/m*3 7.6 C 0 km/h
2066 04-01-2007 05:20:02 7.6 C 5.08 g/m*3 7.6 C 0 km/h
2067 04-01-2007 05:32:02 7.5 C 5.04 g/m*3 7.5 C 0 km/h
2068 04-01-2007 05:44:02 7.5 C 5.04 g/m*3 7.5 C 0 km/h
2069 04-01-2007 05:56:01 7.6 C 5.16 g/m*3 7.6 C 0 km/h
2070 04-01-2007 06:08:02 7.6 C 5.08 g/m*3 7.6 C 0 km/h
2071 04-01-2007 06:20:02 7.5 C 5.12 g/m*3 7.5 C 0 km/h
2072 04-01-2007 06:32:01 7 C 5.35 g/m*3 7 C 0 km/h
2073 04-01-2007 06:44:01 6.8 C 5.58 g/m*3 6.8 C 0 km/h
2074 04-01-2007 06:56:01 6.8 C 5.66 g/m*3 6.8 C 0 km/h
2075 04-01-2007 07:08:02 6.8 C 5.51 g/m*3 6.8 C 0 km/h
Sensor: Nr:Datum:Temp:Abs-Feuchte:Windchill:Wind:
Aussen-T/F 2076 04-01-2007 07:20:02 6.9 C 5.54 g/m*3 6.9 C 0 km/h
2077 04-01-2007 07:32:02 7 C 5.42 g/m*3 7 C 0 km/h
2078 04-01-2007 07:44:02 7 C 5.35 g/m*3 7 C 0 km/h
2079 04-01-2007 07:56:02 6.9 C 5.39 g/m*3 6.9 C 0 km/h
2080 04-01-2007 08:08:03 6.7 C 5.39 g/m*3 6.7 C 0 km/h
2081 04-01-2007 08:20:02 6.6 C 5.36 g/m*3 6.6 C 0 km/h
2082 04-01-2007 08:32:02 6.8 C 5.43 g/m*3 6.8 C 0 km/h
2083 04-01-2007 08:44:03 6.9 C 5.39 g/m*3 6.9 C 0 km/h
2084 04-01-2007 08:56:01 6.9 C 5.39 g/m*3 6.9 C 0 km/h
2085 04-01-2007 09:08:02 7.1 C 5.38 g/m*3 7.1 C 0 km/h
2086 04-01-2007 09:20:02 6.9 C 5.54 g/m*3 6.9 C 0 km/h
2087 04-01-2007 09:32:02 7 C 5.5 g/m*3 7 C 0 km/h
2088 04-01-2007 09:44:02 7.2 C 5.57 g/m*3 7.2 C 0 km/h
2089 04-01-2007 09:56:02 7.4 C 5.57 g/m*3 7.4 C 0 km/h
2090 04-01-2007 10:08:03 7.5 C 5.6 g/m*3 7.5 C 0 km/h
2091 04-01-2007 10:20:02 7.6 C 5.64 g/m*3 7.6 C 0 km/h
2092 04-01-2007 10:32:02 7.7 C 5.68 g/m*3 7.7 C 0 km/h
2093 04-01-2007 10:44:02 7.9 C 5.67 g/m*3 7.9 C 0 km/h
2094 04-01-2007 10:56:01 8 C 5.62 g/m*3 8 C 0 km/h
2095 04-01-2007 11:08:01 8 C 5.62 g/m*3 8 C 0 km/h
2096 04-01-2007 11:20:02 8 C 5.79 g/m*3 8 C 0 km/h
2097 04-01-2007 11:32:02 7.8 C 6.04 g/m*3 7.8 C 0 km/h
2098 04-01-2007 11:44:02 7.9 C 6.16 g/m*3 7.9 C 0 km/h
2099 04-01-2007 11:56:02 8 C 6.2 g/m*3 8 C 0 km/h
2100 04-01-2007 12:08:02 8.2 C 6.2 g/m*3 8.2 C 0 km/h
Sensor: Nr:Datum:Temp:Abs-Feuchte:Windchill:Wind:
Aussen-T/F 2101 04-01-2007 12:20:03 8.2 C 6.11 g/m*3 8.2 C 0 km/h
2102 04-01-2007 12:32:02 8.2 C 6.11 g/m*3 8.2 C 0 km/h
2103 04-01-2007 12:44:02 8.3 C 6.07 g/m*3 8.3 C 0 km/h
2104 04-01-2007 12:56:02 8.6 C 6.1 g/m*3 8.6 C 0 km/h
2105 04-01-2007 13:08:02 9 C 5.82 g/m*3 9 C 0 km/h
2106 04-01-2007 13:20:01 9.1 C 5.77 g/m*3 9.1 C 0 km/h
2107 04-01-2007 13:32:02 9 C 5.82 g/m*3 9 C 0 km/h
2108 04-01-2007 13:44:02 8.6 C 5.93 g/m*3 8.6 C 0 km/h
2109 04-01-2007 13:56:02 8.5 C 6.15 g/m*3 8.5 C 0 km/h
2110 04-01-2007 14:08:01 8.6 C 6.02 g/m*3 8.6 C 0 km/h
2111 04-01-2007 14:20:01 8.8 C 5.83 g/m*3 8.8 C 0 km/h
2112 04-01-2007 14:32:02 9 C 5.82 g/m*3 9 C 0 km/h
2113 04-01-2007 14:44:02 9.2 C 5.36 g/m*3 9.2 C 0 km/h
2114 04-01-2007 14:56:02 9.2 C 5.18 g/m*3 9.2 C 0 km/h
2115 04-01-2007 15:08:02 9.1 C 5.15 g/m*3 9.1 C 0 km/h
2116 04-01-2007 15:20:02 9.3 C 5.03 g/m*3 9.3 C 0 km/h
2117 04-01-2007 15:32:03 9.1 C 5.06 g/m*3 9.1 C 0 km/h
2118 04-01-2007 15:44:03 9 C 5.03 g/m*3 9 C 0 km/h
2119 04-01-2007 15:56:02 8.9 C 5.08 g/m*3 8.9 C 0 km/h
2120 04-01-2007 16:08:02 8.9 C 4.99 g/m*3 8.9 C 0 km/h
2121 04-01-2007 16:20:02 8.6 C 4.9 g/m*3 8.6 C 0 km/h
2122 04-01-2007 16:32:03 8.5 C 4.95 g/m*3 8.5 C 0 km/h
2123 04-01-2007 16:44:03 8.7 C 5.02 g/m*3 8.7 C 0 km/h
2124 04-01-2007 16:56:02 8.5 C 4.87 g/m*3 8.5 C 0 km/h
2125 04-01-2007 17:08:02 8.5 C 4.95 g/m*3 8.5 C 0 km/h
Sensor: Nr:Datum:Temp:Abs-Feuchte:Windchill:Wind:
Aussen-T/F 2126 04-01-2007 17:20:02 8.5 C 4.95 g/m*3 8.5 C 0 km/h
2127 04-01-2007 17:32:03 8.5 C 5.04 g/m*3 8.5 C 0 km/h
2128 04-01-2007 17:44:03 8.2 C 5.02 g/m*3 8.2 C 0 km/h
2129 04-01-2007 17:56:02 8.2 C 5.02 g/m*3 8.2 C 0 km/h
2130 04-01-2007 18:08:02 8.1 C 4.99 g/m*3 8.1 C 0 km/h
2131 04-01-2007 18:20:02 7.9 C 5.09 g/m*3 7.9 C 0 km/h
2132 04-01-2007 18:32:03 8 C 5.13 g/m*3 8 C 0 km/h
2133 04-01-2007 18:44:03 8 C 5.13 g/m*3 8 C 0 km/h
2134 04-01-2007 18:56:02 7.9 C 5.26 g/m*3 7.9 C 0 km/h
2135 04-01-2007 19:08:02 7.6 C 5.16 g/m*3 7.6 C 0 km/h
2136 04-01-2007 19:20:02 7.3 C 5.29 g/m*3 7.3 C 0 km/h
2137 04-01-2007 19:32:03 7.1 C 5.3 g/m*3 7.1 C 0 km/h
2138 04-01-2007 19:44:03 6.9 C 5.39 g/m*3 6.9 C 0 km/h
2139 04-01-2007 19:56:02 6.9 C 5.31 g/m*3 6.9 C 0 km/h
2140 04-01-2007 20:08:02 7.3 C 5.29 g/m*3 7.3 C 0 km/h
2141 04-01-2007 20:20:02 7.4 C 5.25 g/m*3 7.4 C 0 km/h
2142 04-01-2007 20:32:03 7.2 C 5.26 g/m*3 7.2 C 0 km/h
2143 04-01-2007 20:44:03 7.1 C 5.23 g/m*3 7.1 C 0 km/h
2144 04-01-2007 20:56:02 7.2 C 5.26 g/m*3 7.2 C 0 km/h
2145 04-01-2007 21:08:02 7.1 C 5.23 g/m*3 7.1 C 0 km/h
2146 04-01-2007 21:20:02 7.1 C 5.38 g/m*3 7.1 C 0 km/h
2147 04-01-2007 21:32:03 7.1 C 5.54 g/m*3 7.1 C 0 km/h
2148 04-01-2007 21:44:03 7.3 C 5.61 g/m*3 7.3 C 0 km/h
2149 04-01-2007 21:56:02 7.4 C 5.49 g/m*3 7.4 C 0 km/h
2150 04-01-2007 22:08:02 7.6 C 5.48 g/m*3 7.6 C 0 km/h
Sensor: Nr:Datum:Temp:Abs-Feuchte:Windchill:Wind:
Aussen-T/F 2151 04-01-2007 22:20:02 7.7 C 5.43 g/m*3 7.7 C 0 km/h
2152 04-01-2007 22:32:02 7.8 C 5.39 g/m*3 7.8 C 0 km/h
2153 04-01-2007 22:44:02 8 C 5.29 g/m*3 8 C 0 km/h
2154 04-01-2007 22:56:02 7.9 C 5.42 g/m*3 7.9 C 0 km/h
2155 04-01-2007 23:08:02 7.9 C 5.42 g/m*3 7.9 C 0 km/h
2156 04-01-2007 23:20:02 7.8 C 5.47 g/m*3 7.8 C 0 km/h
2157 04-01-2007 23:32:02 7.9 C 5.42 g/m*3 7.9 C 0 km/h
2158 04-01-2007 23:44:02 7.8 C 5.47 g/m*3 7.8 C 0 km/h
2159 04-01-2007 23:56:02 7.9 C 5.34 g/m*3 7.9 C 0 km/h
2160 05-01-2007 00:08:02 7.9 C 5.26 g/m*3 7.9 C 0 km/h
2161 05-01-2007 00:20:02 8 C 5.04 g/m*3 8 C 0 km/h
2162 05-01-2007 00:32:02 8 C 5.04 g/m*3 8 C 0 km/h
2163 05-01-2007 00:44:02 7.5 C 5.28 g/m*3 7.5 C 0 km/h
2164 05-01-2007 00:56:02 7.3 C 5.37 g/m*3 7.3 C 0 km/h
2165 05-01-2007 01:08:02 7.2 C 5.34 g/m*3 7.2 C 0 km/h
2166 05-01-2007 01:20:02 6.8 C 5.35 g/m*3 6.8 C 0 km/h
2167 05-01-2007 01:32:02 6.8 C 5.43 g/m*3 6.8 C 0 km/h
2168 05-01-2007 01:44:02 7 C 5.35 g/m*3 7 C 0 km/h
2169 05-01-2007 01:56:01 6.9 C 5.47 g/m*3 6.9 C 0 km/h
2170 05-01-2007 02:08:01 6.8 C 5.58 g/m*3 6.8 C 0 km/h
2171 05-01-2007 02:20:01 6.9 C 5.47 g/m*3 6.9 C 0 km/h
2172 05-01-2007 02:32:02 7.5 C 5.2 g/m*3 7.5 C 0 km/h
2173 05-01-2007 02:44:02 7.3 C 5.21 g/m*3 7.3 C 0 km/h
2174 05-01-2007 02:56:01 7.4 C 5.25 g/m*3 7.4 C 0 km/h
2175 05-01-2007 03:08:01 7.4 C 5.33 g/m*3 7.4 C 0 km/h
Sensor: Nr:Datum:Temp:Abs-Feuchte:Windchill:Wind:
Aussen-T/F 2176 05-01-2007 03:20:02 7.1 C 5.38 g/m*3 7.1 C 0 km/h
2177 05-01-2007 03:32:02 7.1 C 5.54 g/m*3 7.1 C 0 km/h
2178 05-01-2007 03:44:02 7 C 5.58 g/m*3 7 C 0 km/h
2179 05-01-2007 03:56:02 6.9 C 5.7 g/m*3 6.9 C 0 km/h
2180 05-01-2007 04:08:02 6.9 C 5.7 g/m*3 6.9 C 0 km/h
2181 05-01-2007 04:20:02 6.9 C 5.62 g/m*3 6.9 C 0 km/h
2182 05-01-2007 04:32:01 6.8 C 5.66 g/m*3 6.8 C 0 km/h
2183 05-01-2007 04:44:01 6.9 C 5.7 g/m*3 6.9 C 0 km/h
2184 05-01-2007 04:56:02 7 C 5.58 g/m*3 7 C 0 km/h
2185 05-01-2007 05:08:01 7.1 C 5.54 g/m*3 7.1 C 0 km/h
2186 05-01-2007 05:20:02 7 C 5.58 g/m*3 7 C 0 km/h
2187 05-01-2007 05:32:01 6.9 C 5.7 g/m*3 6.9 C 0 km/h
2188 05-01-2007 05:44:01 6.9 C 5.7 g/m*3 6.9 C 0 km/h
2189 05-01-2007 05:56:01 7 C 5.66 g/m*3 7 C 0 km/h
2190 05-01-2007 06:08:01 6.9 C 5.7 g/m*3 6.9 C 0 km/h
2191 05-01-2007 06:20:01 7.1 C 5.62 g/m*3 7.1 C 0 km/h
2192 05-01-2007 06:32:02 7.1 C 5.62 g/m*3 7.1 C 0 km/h
2193 05-01-2007 06:44:02 7.1 C 5.54 g/m*3 7.1 C 0 km/h
2194 05-01-2007 06:56:02 7.2 C 5.57 g/m*3 7.2 C 0 km/h
2195 05-01-2007 07:08:01 7.3 C 5.37 g/m*3 7.3 C 0 km/h
2196 05-01-2007 07:20:01 7.3 C 5.37 g/m*3 7.3 C 0 km/h
2197 05-01-2007 07:32:02 7.3 C 5.29 g/m*3 7.3 C 0 km/h
2198 05-01-2007 07:44:02 7.4 C 5.33 g/m*3 7.4 C 0 km/h
2199 05-01-2007 07:56:02 7.5 C 5.2 g/m*3 7.5 C 0 km/h
2200 05-01-2007 08:08:01 7.6 C 5.16 g/m*3 7.6 C 0 km/h
Sensor: Nr:Datum:Temp:Abs-Feuchte:Windchill:Wind:
Aussen-T/F 2201 05-01-2007 08:20:01 7.7 C 5.19 g/m*3 7.7 C 0 km/h
2202 05-01-2007 08:32:02 7.8 C 5.14 g/m*3 7.8 C 0 km/h
2203 05-01-2007 08:44:02 7.9 C 5.09 g/m*3 7.9 C 0 km/h
2204 05-01-2007 08:56:02 7.8 C 5.14 g/m*3 7.8 C 0 km/h
2205 05-01-2007 09:08:01 7.9 C 5.17 g/m*3 7.9 C 0 km/h
2206 05-01-2007 09:20:01 7.9 C 5.26 g/m*3 7.9 C 0 km/h
2207 05-01-2007 09:32:02 7.8 C 5.3 g/m*3 7.8 C 0 km/h
2208 05-01-2007 09:44:02 7.8 C 5.39 g/m*3 7.8 C 0 km/h
2209 05-01-2007 09:56:02 7.8 C 5.39 g/m*3 7.8 C 0 km/h
2210 05-01-2007 10:08:01 7.9 C 5.42 g/m*3 7.9 C 0 km/h
2211 05-01-2007 10:20:01 8 C 5.37 g/m*3 8 C 0 km/h
2212 05-01-2007 10:32:02 8.2 C 5.44 g/m*3 8.2 C 0 km/h
2213 05-01-2007 10:44:02 8.4 C 5.43 g/m*3 8.4 C 0 km/h
2214 05-01-2007 10:56:02 8.5 C 5.38 g/m*3 8.5 C 0 km/h
2215 05-01-2007 11:08:01 8.5 C 5.29 g/m*3 8.5 C 0 km/h
2216 05-01-2007 11:20:01 8.5 C 5.29 g/m*3 8.5 C 0 km/h
2217 05-01-2007 11:32:02 8.5 C 5.29 g/m*3 8.5 C 0 km/h
2218 05-01-2007 11:44:02 8.4 C 5.26 g/m*3 8.4 C 0 km/h
2219 05-01-2007 11:56:02 8.4 C 5.26 g/m*3 8.4 C 0 km/h
2220 05-01-2007 12:08:01 8.4 C 5.26 g/m*3 8.4 C 0 km/h
2221 05-01-2007 12:20:01 8.4 C 5.26 g/m*3 8.4 C 0 km/h
2222 05-01-2007 12:32:02 8.5 C 5.29 g/m*3 8.5 C 0 km/h
2223 05-01-2007 12:44:02 8.3 C 5.48 g/m*3 8.3 C 0 km/h
2224 05-01-2007 12:56:02 7.9 C 5.83 g/m*3 7.9 C 0 km/h
2225 05-01-2007 13:08:01 7.7 C 5.84 g/m*3 7.7 C 0 km/h
Sensor: Nr:Datum:Temp:Abs-Feuchte:Windchill:Wind:
Aussen-T/F 2226 05-01-2007 13:20:01 7.7 C 5.92 g/m*3 7.7 C 0 km/h
2227 05-01-2007 13:32:02 7.8 C 5.96 g/m*3 7.8 C 0 km/h
2228 05-01-2007 13:44:02 7.9 C 6 g/m*3 7.9 C 0 km/h
2229 05-01-2007 13:56:02 8 C 5.95 g/m*3 8 C 0 km/h
2230 05-01-2007 14:08:01 8.1 C 5.91 g/m*3 8.1 C 0 km/h
2231 05-01-2007 14:20:01 8.1 C 5.91 g/m*3 8.1 C 0 km/h
2232 05-01-2007 14:32:02 8.3 C 5.9 g/m*3 8.3 C 0 km/h
2233 05-01-2007 14:44:02 8.5 C 5.89 g/m*3 8.5 C 0 km/h
2234 05-01-2007 14:56:02 8.5 C 5.81 g/m*3 8.5 C 0 km/h
2235 05-01-2007 15:08:01 8.5 C 5.89 g/m*3 8.5 C 0 km/h
2236 05-01-2007 15:20:01 8.5 C 5.89 g/m*3 8.5 C 0 km/h
2237 05-01-2007 15:32:02 8.5 C 5.98 g/m*3 8.5 C 0 km/h
2238 05-01-2007 15:44:02 8.5 C 5.98 g/m*3 8.5 C 0 km/h
2239 05-01-2007 15:56:02 8.6 C 6.02 g/m*3 8.6 C 0 km/h
2240 05-01-2007 16:08:01 8.5 C 6.06 g/m*3 8.5 C 0 km/h
2241 05-01-2007 16:20:01 8.5 C 6.06 g/m*3 8.5 C 0 km/h
2242 05-01-2007 16:32:02 8.4 C 6.11 g/m*3 8.4 C 0 km/h
2243 05-01-2007 16:44:02 8.3 C 6.15 g/m*3 8.3 C 0 km/h
2244 05-01-2007 16:56:02 8.3 C 6.24 g/m*3 8.3 C 0 km/h
2245 05-01-2007 17:08:01 8.4 C 6.28 g/m*3 8.4 C 0 km/h
2246 05-01-2007 17:20:01 8.5 C 6.23 g/m*3 8.5 C 0 km/h
2247 05-01-2007 17:32:02 8.5 C 6.15 g/m*3 8.5 C 0 km/h
2248 05-01-2007 17:44:02 8.6 C 6.1 g/m*3 8.6 C 0 km/h
2249 05-01-2007 17:56:02 8.6 C 6.02 g/m*3 8.6 C 0 km/h
2250 05-01-2007 18:08:07 8.8 C 6.01 g/m*3 8.8 C 0 km/h
Sensor: Nr:Datum:Temp:Abs-Feuchte:Windchill:Wind:
Aussen-T/F 2251 05-01-2007 18:20:01 8.7 C 6.05 g/m*3 8.7 C 0 km/h
2252 05-01-2007 18:32:01 8.7 C 6.05 g/m*3 8.7 C 0 km/h
2253 05-01-2007 18:44:01 8.7 C 5.97 g/m*3 8.7 C 0 km/h
2254 05-01-2007 18:56:01 8.9 C 6.04 g/m*3 8.9 C 0 km/h
2255 05-01-2007 19:08:01 9 C 5.91 g/m*3 9 C 0 km/h
2256 05-01-2007 19:20:02 9 C 5.91 g/m*3 9 C 0 km/h
2257 05-01-2007 19:32:02 9.1 C 5.94 g/m*3 9.1 C 0 km/h
2258 05-01-2007 19:44:02 9 C 5.91 g/m*3 9 C 0 km/h
2259 05-01-2007 19:56:01 9 C 5.91 g/m*3 9 C 0 km/h
2260 05-01-2007 20:08:01 9 C 5.99 g/m*3 9 C 0 km/h
2261 05-01-2007 20:20:02 9 C 5.91 g/m*3 9 C 0 km/h
2262 05-01-2007 20:32:02 9.1 C 5.94 g/m*3 9.1 C 0 km/h
2263 05-01-2007 20:44:02 9.2 C 5.98 g/m*3 9.2 C 0 km/h
2264 05-01-2007 20:56:01 9.1 C 5.94 g/m*3 9.1 C 0 km/h
2265 05-01-2007 21:08:01 9.2 C 5.98 g/m*3 9.2 C 0 km/h
2266 05-01-2007 21:20:02 9.2 C 6.07 g/m*3 9.2 C 0 km/h
2267 05-01-2007 21:32:02 9.2 C 6.07 g/m*3 9.2 C 0 km/h
2268 05-01-2007 21:44:02 9.2 C 6.16 g/m*3 9.2 C 0 km/h
2269 05-01-2007 21:56:01 9.1 C 6.12 g/m*3 9.1 C 0 km/h
2270 05-01-2007 22:08:01 9.2 C 6.16 g/m*3 9.2 C 0 km/h
2271 05-01-2007 22:20:02 9.2 C 6.25 g/m*3 9.2 C 0 km/h
2272 05-01-2007 22:32:02 9.2 C 6.25 g/m*3 9.2 C 0 km/h
2273 05-01-2007 22:44:02 9.2 C 6.25 g/m*3 9.2 C 0 km/h
2274 05-01-2007 22:56:01 9.2 C 6.25 g/m*3 9.2 C 0 km/h
2275 05-01-2007 23:08:02 9.3 C 6.2 g/m*3 9.3 C 0 km/h
Sensor: Nr:Datum:Temp:Abs-Feuchte:Windchill:Wind:
Aussen-T/F 2276 05-01-2007 23:20:02 9.5 C 6.19 g/m*3 9.5 C 0 km/h
2277 05-01-2007 23:32:02 9.4 C 6.24 g/m*3 9.4 C 0 km/h
2278 05-01-2007 23:44:02 9.5 C 6.28 g/m*3 9.5 C 0 km/h
2279 05-01-2007 23:56:01 9.5 C 6.28 g/m*3 9.5 C 0 km/h
2280 06-01-2007 00:08:02 9.6 C 6.23 g/m*3 9.6 C 0 km/h
2281 06-01-2007 00:20:02 9.5 C 6.19 g/m*3 9.5 C 0 km/h
2282 06-01-2007 00:32:02 9.6 C 6.23 g/m*3 9.6 C 0 km/h
2283 06-01-2007 00:44:02 9.6 C 6.23 g/m*3 9.6 C 0 km/h
2284 06-01-2007 00:56:02 9.5 C 6.28 g/m*3 9.5 C 0 km/h
2285 06-01-2007 01:08:02 9.5 C 6.28 g/m*3 9.5 C 0 km/h
2286 06-01-2007 01:20:02 9.5 C 6.37 g/m*3 9.5 C 0 km/h
2287 06-01-2007 01:32:02 9.2 C 6.43 g/m*3 9.2 C 0 km/h
2288 06-01-2007 01:44:02 9 C 6.7 g/m*3 9 C 0 km/h
2289 06-01-2007 01:56:02 9 C 6.7 g/m*3 9 C 0 km/h
2290 06-01-2007 02:08:01 9 C 6.7 g/m*3 9 C 0 km/h
2291 06-01-2007 02:20:01 9.2 C 6.7 g/m*3 9.2 C 0 km/h
2292 06-01-2007 02:32:02 9.3 C 6.65 g/m*3 9.3 C 0 km/h
2293 06-01-2007 02:44:02 9.4 C 6.69 g/m*3 9.4 C 0 km/h
2294 06-01-2007 02:57:04 9.4 C 6.6 g/m*3 9.4 C 0 km/h
2295 06-01-2007 03:09:04 9.5 C 6.55 g/m*3 9.5 C 0 km/h
2296 06-01-2007 03:21:05 9.5 C 6.64 g/m*3 9.5 C 0 km/h
2297 06-01-2007 03:33:02 9.4 C 6.6 g/m*3 9.4 C 0 km/h
2298 06-01-2007 03:45:02 9.5 C 6.64 g/m*3 9.5 C 0 km/h
2299 06-01-2007 03:57:03 9.5 C 6.74 g/m*3 9.5 C 0 km/h
2300 06-01-2007 04:09:02 9.5 C 6.74 g/m*3 9.5 C 0 km/h
Sensor: Nr:Datum:Temp:Abs-Feuchte:Windchill:Wind:
Aussen-T/F 2301 06-01-2007 04:21:02 9.6 C 6.78 g/m*3 9.6 C 0 km/h
2302 06-01-2007 04:33:02 9.6 C 6.78 g/m*3 9.6 C 0 km/h
2303 06-01-2007 04:45:02 9.5 C 6.83 g/m*3 9.5 C 0 km/h
2304 06-01-2007 04:57:02 9.5 C 6.92 g/m*3 9.5 C 0 km/h
2305 06-01-2007 05:09:02 9.7 C 6.91 g/m*3 9.7 C 0 km/h
2306 06-01-2007 05:21:04 9.7 C 6.82 g/m*3 9.7 C 0 km/h
2307 06-01-2007 05:33:03 9.8 C 6.87 g/m*3 9.8 C 0 km/h
2308 06-01-2007 05:45:02 9.8 C 6.87 g/m*3 9.8 C 0 km/h
2309 06-01-2007 05:57:02 9.9 C 6.91 g/m*3 9.9 C 0 km/h
2310 06-01-2007 06:09:03 9.8 C 6.87 g/m*3 9.8 C 0 km/h
2311 06-01-2007 06:21:03 9.8 C 6.96 g/m*3 9.8 C 0 km/h
2312 06-01-2007 06:33:03 9.8 C 7.05 g/m*3 9.8 C 0 km/h
2313 06-01-2007 06:45:02 9.7 C 7.19 g/m*3 9.7 C 0 km/h
2314 06-01-2007 06:57:02 9.7 C 7.28 g/m*3 9.7 C 0 km/h
2315 06-01-2007 07:09:02 9.8 C 7.33 g/m*3 9.8 C 0 km/h
2316 06-01-2007 07:21:02 9.7 C 7.28 g/m*3 9.7 C 0 km/h
2317 06-01-2007 07:33:02 9.8 C 7.33 g/m*3 9.8 C 0 km/h
2318 06-01-2007 07:45:02 9.8 C 7.24 g/m*3 9.8 C 0 km/h
2319 06-01-2007 07:57:02 9.9 C 7.28 g/m*3 9.9 C 0 km/h
2320 06-01-2007 08:09:01 9.8 C 7.24 g/m*3 9.8 C 0 km/h
2321 06-01-2007 08:21:01 10 C 7.14 g/m*3 10 C 0 km/h
2322 06-01-2007 08:33:02 10.1 C 7.09 g/m*3 10.1 C 0 km/h
2323 06-01-2007 08:45:01 10 C 7.05 g/m*3 10 C 0 km/h
2324 06-01-2007 08:57:01 10 C 7.14 g/m*3 10 C 0 km/h
2325 06-01-2007 09:09:01 10 C 7.14 g/m*3 10 C 0 km/h
Sensor: Nr:Datum:Temp:Abs-Feuchte:Windchill:Wind:
Aussen-T/F 2326 06-01-2007 09:21:01 9.8 C 7.33 g/m*3 9.8 C 0 km/h
2327 06-01-2007 09:33:02 9.7 C 7.65 g/m*3 9.7 C 0 km/h
2328 06-01-2007 09:45:02 9.6 C 7.69 g/m*3 9.6 C 0 km/h
2329 06-01-2007 09:57:03 9.6 C 7.88 g/m*3 9.6 C 0 km/h
2330 06-01-2007 10:09:02 9.6 C 7.97 g/m*3 9.6 C 0 km/h
2331 06-01-2007 10:21:02 9.8 C 8.07 g/m*3 9.8 C 0 km/h
2332 06-01-2007 10:33:03 9.9 C 8.12 g/m*3 9.9 C 0 km/h
2333 06-01-2007 10:45:02 10 C 7.89 g/m*3 10 C 0 km/h
2334 06-01-2007 10:57:02 10.1 C 7.94 g/m*3 10.1 C 0 km/h
2335 06-01-2007 11:09:02 10.2 C 7.8 g/m*3 10.2 C 0 km/h
2336 06-01-2007 11:21:02 10.4 C 7.81 g/m*3 10.4 C 0 km/h
2337 06-01-2007 11:33:02 10.6 C 7.81 g/m*3 10.6 C 0 km/h
2338 06-01-2007 11:45:02 10.6 C 7.61 g/m*3 10.6 C 0 km/h
2339 06-01-2007 11:57:02 10.7 C 7.66 g/m*3 10.7 C 0 km/h
2340 06-01-2007 12:09:02 11 C 7.51 g/m*3 11 C 0 km/h
2341 06-01-2007 12:21:02 11 C 7.41 g/m*3 11 C 0 km/h
2342 06-01-2007 12:33:02 11.1 C 7.35 g/m*3 11.1 C 0 km/h
2343 06-01-2007 12:45:02 11.2 C 7.4 g/m*3 11.2 C 0 km/h
2344 06-01-2007 12:57:02 11.3 C 7.34 g/m*3 11.3 C 0 km/h
2345 06-01-2007 13:09:02 11.4 C 7.29 g/m*3 11.4 C 0 km/h
2346 06-01-2007 13:21:02 11.4 C 7.29 g/m*3 11.4 C 0 km/h
2347 06-01-2007 13:33:01 11.4 C 7.39 g/m*3 11.4 C 0 km/h
2348 06-01-2007 13:45:02 11.5 C 7.44 g/m*3 11.5 C 0 km/h
2349 06-01-2007 13:57:02 11.6 C 7.38 g/m*3 11.6 C 0 km/h
2350 06-01-2007 14:09:02 11.6 C 7.48 g/m*3 11.6 C 0 km/h
Sensor: Nr:Datum:Temp:Abs-Feuchte:Windchill:Wind:
Aussen-T/F 2351 06-01-2007 14:21:02 11.7 C 7.43 g/m*3 11.7 C 0 km/h
2352 06-01-2007 14:33:02 11.8 C 7.37 g/m*3 11.8 C 0 km/h
2353 06-01-2007 14:45:02 12 C 7.35 g/m*3 12 C 0 km/h
2354 06-01-2007 14:57:02 12 C 7.25 g/m*3 12 C 0 km/h
2355 06-01-2007 15:09:02 12 C 7.25 g/m*3 12 C 0 km/h
2356 06-01-2007 15:21:02 12 C 7.25 g/m*3 12 C 0 km/h
2357 06-01-2007 15:33:02 12 C 7.25 g/m*3 12 C 0 km/h
2358 06-01-2007 15:45:02 11.9 C 7.31 g/m*3 11.9 C 0 km/h
2359 06-01-2007 15:57:02 11.8 C 7.37 g/m*3 11.8 C 0 km/h
2360 06-01-2007 16:09:02 11.7 C 7.43 g/m*3 11.7 C 0 km/h
2361 06-01-2007 16:21:02 11.4 C 7.49 g/m*3 11.4 C 0 km/h
2362 06-01-2007 16:33:02 11.3 C 7.55 g/m*3 11.3 C 0 km/h
2363 06-01-2007 16:45:02 11.3 C 7.55 g/m*3 11.3 C 0 km/h
2364 06-01-2007 16:57:02 11.1 C 7.55 g/m*3 11.1 C 0 km/h
2365 06-01-2007 17:09:02 10.9 C 7.76 g/m*3 10.9 C 0 km/h
2366 06-01-2007 17:21:02 10.8 C 7.81 g/m*3 10.8 C 0 km/h
2367 06-01-2007 17:33:02 10.7 C 7.76 g/m*3 10.7 C 0 km/h
2368 06-01-2007 17:45:02 10.8 C 7.71 g/m*3 10.8 C 0 km/h
2369 06-01-2007 17:57:02 10.9 C 7.76 g/m*3 10.9 C 0 km/h
2370 06-01-2007 18:09:02 10.7 C 7.66 g/m*3 10.7 C 0 km/h
2371 06-01-2007 18:21:02 10.9 C 7.76 g/m*3 10.9 C 0 km/h
2372 06-01-2007 18:33:02 11 C 7.51 g/m*3 11 C 0 km/h
2373 06-01-2007 18:45:02 11.1 C 7.45 g/m*3 11.1 C 0 km/h
2374 06-01-2007 18:57:02 11.2 C 7.3 g/m*3 11.2 C 0 km/h
2375 06-01-2007 19:09:02 11.3 C 7.24 g/m*3 11.3 C 0 km/h
Sensor: Nr:Datum:Temp:Abs-Feuchte:Windchill:Wind:
Aussen-T/F 2376 06-01-2007 19:21:02 11.2 C 7.2 g/m*3 11.2 C 0 km/h
2377 06-01-2007 19:33:02 11.2 C 7.1 g/m*3 11.2 C 0 km/h
2378 06-01-2007 19:45:02 11.3 C 7.04 g/m*3 11.3 C 0 km/h
2379 06-01-2007 19:57:02 11.4 C 6.88 g/m*3 11.4 C 0 km/h
2380 06-01-2007 20:09:03 11.5 C 6.71 g/m*3 11.5 C 0 km/h
2381 06-01-2007 20:21:02 11.5 C 6.82 g/m*3 11.5 C 0 km/h
2382 06-01-2007 20:33:02 11.6 C 6.86 g/m*3 11.6 C 0 km/h
2383 06-01-2007 20:45:01 11.4 C 6.98 g/m*3 11.4 C 0 km/h
2384 06-01-2007 20:57:01 11.1 C 7.05 g/m*3 11.1 C 0 km/h
2385 06-01-2007 21:09:02 11.2 C 7.1 g/m*3 11.2 C 0 km/h
2386 06-01-2007 21:21:02 11.2 C 7.1 g/m*3 11.2 C 0 km/h
2387 06-01-2007 21:33:01 11.2 C 7.1 g/m*3 11.2 C 0 km/h
2388 06-01-2007 21:45:02 11.2 C 7.1 g/m*3 11.2 C 0 km/h
2389 06-01-2007 21:57:02 11.2 C 7.2 g/m*3 11.2 C 0 km/h
2390 06-01-2007 22:09:02 11.1 C 7.25 g/m*3 11.1 C 0 km/h
2391 06-01-2007 22:21:02 11.1 C 7.25 g/m*3 11.1 C 0 km/h
2392 06-01-2007 22:33:02 11.1 C 7.25 g/m*3 11.1 C 0 km/h
2393 06-01-2007 22:45:01 11.2 C 7.2 g/m*3 11.2 C 0 km/h
2394 06-01-2007 22:57:01 11.4 C 7.19 g/m*3 11.4 C 0 km/h
2395 06-01-2007 23:09:02 11.2 C 7.2 g/m*3 11.2 C 0 km/h
2396 06-01-2007 23:21:02 11 C 7.31 g/m*3 11 C 0 km/h
2397 06-01-2007 23:33:01 11 C 7.31 g/m*3 11 C 0 km/h
2398 06-01-2007 23:45:02 10.8 C 7.31 g/m*3 10.8 C 0 km/h
2399 06-01-2007 23:57:02 10.9 C 7.26 g/m*3 10.9 C 0 km/h
2400 07-01-2007 00:09:02 11 C 7.21 g/m*3 11 C 0 km/h
Sensor: Nr:Datum:Temp:Abs-Feuchte:Windchill:Wind:
Aussen-T/F 2401 07-01-2007 00:21:02 10.6 C 7.52 g/m*3 10.6 C 0 km/h
2402 07-01-2007 00:33:02 10.4 C 7.61 g/m*3 10.4 C 0 km/h
2403 07-01-2007 00:45:02 10.2 C 7.61 g/m*3 10.2 C 0 km/h
2404 07-01-2007 00:57:02 10.4 C 7.71 g/m*3 10.4 C 0 km/h
2405 07-01-2007 01:09:02 10.2 C 7.61 g/m*3 10.2 C 0 km/h
2406 07-01-2007 01:21:02 10.2 C 7.61 g/m*3 10.2 C 0 km/h
2407 07-01-2007 01:33:02 10.1 C 7.66 g/m*3 10.1 C 0 km/h
2408 07-01-2007 01:45:02 10 C 7.71 g/m*3 10 C 0 km/h
2409 07-01-2007 01:57:02 10 C 7.8 g/m*3 10 C 0 km/h
2410 07-01-2007 02:09:02 9.8 C 7.7 g/m*3 9.8 C 0 km/h
2411 07-01-2007 02:21:02 10.2 C 7.42 g/m*3 10.2 C 0 km/h
2412 07-01-2007 02:33:02 10.1 C 7.09 g/m*3 10.1 C 0 km/h
2413 07-01-2007 02:46:03 9.7 C 6.91 g/m*3 9.7 C 0 km/h
2414 07-01-2007 02:58:04 9.4 C 6.6 g/m*3 9.4 C 0 km/h
2415 07-01-2007 03:10:04 9.3 C 6.38 g/m*3 9.3 C 0 km/h
2416 07-01-2007 03:22:04 9.3 C 6.38 g/m*3 9.3 C 0 km/h
2417 07-01-2007 03:34:02 9.1 C 6.3 g/m*3 9.1 C 0 km/h
2418 07-01-2007 03:46:02 9 C 6.17 g/m*3 9 C 0 km/h
2419 07-01-2007 03:58:02 8.9 C 6.22 g/m*3 8.9 C 0 km/h
2420 07-01-2007 04:10:02 8.6 C 6.27 g/m*3 8.6 C 0 km/h
2421 07-01-2007 04:22:03 8.5 C 6.23 g/m*3 8.5 C 0 km/h
2422 07-01-2007 04:34:02 8.6 C 6.02 g/m*3 8.6 C 0 km/h
2423 07-01-2007 04:46:02 8.6 C 5.93 g/m*3 8.6 C 0 km/h
2424 07-01-2007 04:58:02 8.8 C 5.83 g/m*3 8.8 C 0 km/h
2425 07-01-2007 05:10:03 8.7 C 5.79 g/m*3 8.7 C 0 km/h
Sensor: Nr:Datum:Temp:Abs-Feuchte:Windchill:Wind:
Aussen-T/F 2426 07-01-2007 05:22:03 8.4 C 5.85 g/m*3 8.4 C 0 km/h
2427 07-01-2007 05:34:02 8.5 C 5.81 g/m*3 8.5 C 0 km/h
2428 07-01-2007 05:46:02 8.5 C 5.55 g/m*3 8.5 C 0 km/h
2429 07-01-2007 05:58:03 8.6 C 5.33 g/m*3 8.6 C 0 km/h
2430 07-01-2007 06:10:02 8.5 C 5.29 g/m*3 8.5 C 0 km/h
2431 07-01-2007 06:22:02 8.4 C 5.34 g/m*3 8.4 C 0 km/h
2432 07-01-2007 06:34:03 8.3 C 5.31 g/m*3 8.3 C 0 km/h
2433 07-01-2007 06:46:02 8.3 C 5.31 g/m*3 8.3 C 0 km/h
2434 07-01-2007 06:58:02 8.2 C 5.28 g/m*3 8.2 C 0 km/h
2435 07-01-2007 07:10:02 8.2 C 5.28 g/m*3 8.2 C 0 km/h
2436 07-01-2007 07:22:02 8.2 C 5.11 g/m*3 8.2 C 0 km/h
2437 07-01-2007 07:34:02 8.2 C 5.11 g/m*3 8.2 C 0 km/h
2438 07-01-2007 07:46:02 8.1 C 4.91 g/m*3 8.1 C 0 km/h
2439 07-01-2007 07:58:02 7.9 C 4.76 g/m*3 7.9 C 0 km/h
2440 07-01-2007 08:10:01 7.9 C 4.6 g/m*3 7.9 C 0 km/h
2441 07-01-2007 08:22:01 7.9 C 4.6 g/m*3 7.9 C 0 km/h
2442 07-01-2007 08:34:02 7.6 C 4.67 g/m*3 7.6 C 0 km/h
2443 07-01-2007 08:46:02 7.8 C 4.73 g/m*3 7.8 C 0 km/h
2444 07-01-2007 08:58:02 7.7 C 4.78 g/m*3 7.7 C 0 km/h
2445 07-01-2007 09:10:02 7.6 C 4.83 g/m*3 7.6 C 0 km/h
2446 07-01-2007 09:22:02 7.3 C 4.82 g/m*3 7.3 C 0 km/h
2447 07-01-2007 09:34:03 7.2 C 4.95 g/m*3 7.2 C 0 km/h
2448 07-01-2007 09:46:02 6.9 C 5.08 g/m*3 6.9 C 0 km/h
2449 07-01-2007 09:58:02 6.8 C 5.12 g/m*3 6.8 C 0 km/h
2450 07-01-2007 10:10:02 6.6 C 5.21 g/m*3 6.6 C 0 km/h
Sensor: Nr:Datum:Temp:Abs-Feuchte:Windchill:Wind:
Aussen-T/F 2451 07-01-2007 10:22:02 7 C 5.11 g/m*3 7 C 0 km/h
2452 07-01-2007 10:34:02 7.4 C 5.09 g/m*3 7.4 C 0 km/h
2453 07-01-2007 10:46:02 8.1 C 5.08 g/m*3 8.1 C 0 km/h
2454 07-01-2007 10:58:02 8.5 C 5.12 g/m*3 8.5 C 0 km/h
2455 07-01-2007 11:10:02 8.6 C 5.07 g/m*3 8.6 C 0 km/h
2456 07-01-2007 11:22:02 8.8 C 5.14 g/m*3 8.8 C 0 km/h
2457 07-01-2007 11:34:02 9 C 5.03 g/m*3 9 C 0 km/h
2458 07-01-2007 11:46:02 9.1 C 4.88 g/m*3 9.1 C 0 km/h
2459 07-01-2007 11:58:02 9.1 C 4.88 g/m*3 9.1 C 0 km/h
2460 07-01-2007 12:10:03 9.2 C 4.91 g/m*3 9.2 C 0 km/h
2461 07-01-2007 12:22:02 9.2 C 4.82 g/m*3 9.2 C 0 km/h
2462 07-01-2007 12:34:02 9.3 C 4.85 g/m*3 9.3 C 0 km/h
2463 07-01-2007 12:46:02 9.6 C 4.95 g/m*3 9.6 C 0 km/h
2464 07-01-2007 12:58:02 9.7 C 4.79 g/m*3 9.7 C 0 km/h
2465 07-01-2007 13:10:03 9.8 C 4.82 g/m*3 9.8 C 0 km/h
2466 07-01-2007 13:22:02 9.7 C 4.7 g/m*3 9.7 C 0 km/h
2467 07-01-2007 13:34:02 9.8 C 4.55 g/m*3 9.8 C 0 km/h
2468 07-01-2007 13:46:02 9.8 C 4.55 g/m*3 9.8 C 0 km/h
2469 07-01-2007 13:58:02 9.7 C 4.52 g/m*3 9.7 C 0 km/h
2470 07-01-2007 14:10:02 9.7 C 4.61 g/m*3 9.7 C 0 km/h
2471 07-01-2007 14:22:01 9.6 C 4.58 g/m*3 9.6 C 0 km/h
2472 07-01-2007 14:34:02 9.6 C 4.49 g/m*3 9.6 C 0 km/h
2473 07-01-2007 14:46:02 9.6 C 4.67 g/m*3 9.6 C 0 km/h
2474 07-01-2007 14:58:02 9.4 C 4.61 g/m*3 9.4 C 0 km/h
2475 07-01-2007 15:10:03 9.3 C 4.67 g/m*3 9.3 C 0 km/h
Sensor: Nr:Datum:Temp:Abs-Feuchte:Windchill:Wind:
Aussen-T/F 2476 07-01-2007 15:22:02 9.2 C 4.64 g/m*3 9.2 C 0 km/h
2477 07-01-2007 15:34:01 9.2 C 4.64 g/m*3 9.2 C 0 km/h
2478 07-01-2007 15:46:01 9.2 C 4.73 g/m*3 9.2 C 0 km/h
2479 07-01-2007 15:58:01 9.1 C 4.7 g/m*3 9.1 C 0 km/h
2480 07-01-2007 16:10:02 9 C 4.67 g/m*3 9 C 0 km/h
2481 07-01-2007 16:22:02 9 C 4.67 g/m*3 9 C 0 km/h
2482 07-01-2007 16:34:02 8.9 C 4.64 g/m*3 8.9 C 0 km/h
2483 07-01-2007 16:46:03 8.9 C 4.56 g/m*3 8.9 C 0 km/h
2484 07-01-2007 16:58:03 8.9 C 4.56 g/m*3 8.9 C 0 km/h
2485 07-01-2007 17:10:02 8.9 C 4.56 g/m*3 8.9 C 0 km/h
2486 07-01-2007 17:22:02 8.9 C 4.47 g/m*3 8.9 C 0 km/h
2487 07-01-2007 17:34:02 8.9 C 4.47 g/m*3 8.9 C 0 km/h
2488 07-01-2007 17:46:03 8.9 C 4.38 g/m*3 8.9 C 0 km/h
2489 07-01-2007 17:58:03 9 C 4.23 g/m*3 9 C 0 km/h
2490 07-01-2007 18:10:03 9 C 4.14 g/m*3 9 C 0 km/h
2491 07-01-2007 18:22:02 8.9 C 4.2 g/m*3 8.9 C 0 km/h
2492 07-01-2007 18:34:02 8.8 C 4.35 g/m*3 8.8 C 0 km/h
2493 07-01-2007 18:46:02 8.7 C 4.41 g/m*3 8.7 C 0 km/h
2494 07-01-2007 18:58:02 8.6 C 4.38 g/m*3 8.6 C 0 km/h
2495 07-01-2007 19:10:02 8.5 C 4.44 g/m*3 8.5 C 0 km/h
2496 07-01-2007 19:22:02 8.5 C 4.35 g/m*3 8.5 C 0 km/h
2497 07-01-2007 19:34:01 8.4 C 4.41 g/m*3 8.4 C 0 km/h
2498 07-01-2007 19:46:02 8.4 C 4.5 g/m*3 8.4 C 0 km/h
2499 07-01-2007 19:58:02 8.2 C 4.44 g/m*3 8.2 C 0 km/h
2500 07-01-2007 20:10:02 8.2 C 4.44 g/m*3 8.2 C 0 km/h
Sensor: Nr:Datum:Temp:Abs-Feuchte:Windchill:Wind:
Aussen-T/F 2501 07-01-2007 20:22:02 8.5 C 4.53 g/m*3 8.5 C 0 km/h
2502 07-01-2007 20:34:02 7.9 C 4.52 g/m*3 7.9 C 0 km/h
2503 07-01-2007 20:46:03 7.8 C 4.49 g/m*3 7.8 C 0 km/h
2504 07-01-2007 20:58:03 7.7 C 4.46 g/m*3 7.7 C 0 km/h
2505 07-01-2007 21:10:03 7.3 C 4.5 g/m*3 7.3 C 0 km/h
2506 07-01-2007 21:22:02 7 C 4.49 g/m*3 7 C 0 km/h
2507 07-01-2007 21:34:02 6.9 C 4.62 g/m*3 6.9 C 0 km/h
2508 07-01-2007 21:46:02 7 C 4.57 g/m*3 7 C 0 km/h
2509 07-01-2007 21:58:02 7 C 4.57 g/m*3 7 C 0 km/h
2510 07-01-2007 22:10:02 6.9 C 4.62 g/m*3 6.9 C 0 km/h
2511 07-01-2007 22:22:01 6.8 C 4.67 g/m*3 6.8 C 0 km/h
2512 07-01-2007 22:34:01 6.7 C 4.71 g/m*3 6.7 C 0 km/h
2513 07-01-2007 22:46:02 6.6 C 4.76 g/m*3 6.6 C 0 km/h
2514 07-01-2007 22:58:02 6.5 C 4.72 g/m*3 6.5 C 0 km/h
2515 07-01-2007 23:10:02 6.3 C 4.66 g/m*3 6.3 C 0 km/h
2516 07-01-2007 23:22:01 6.3 C 4.74 g/m*3 6.3 C 0 km/h
2517 07-01-2007 23:34:02 6.4 C 4.77 g/m*3 6.4 C 0 km/h
2518 07-01-2007 23:46:02 6.5 C 4.72 g/m*3 6.5 C 0 km/h
2519 07-01-2007 23:58:02 6.5 C 4.72 g/m*3 6.5 C 0 km/h
2520 08-01-2007 00:10:01 6.6 C 4.68 g/m*3 6.6 C 0 km/h
2521 08-01-2007 00:22:02 6.7 C 4.71 g/m*3 6.7 C 0 km/h
2522 08-01-2007 00:34:02 6.6 C 4.68 g/m*3 6.6 C 0 km/h
2523 08-01-2007 00:46:02 6.6 C 4.68 g/m*3 6.6 C 0 km/h
2524 08-01-2007 00:58:02 6.4 C 4.69 g/m*3 6.4 C 0 km/h
2525 08-01-2007 01:10:02 6.5 C 4.72 g/m*3 6.5 C 0 km/h
Sensor: Nr:Datum:Temp:Abs-Feuchte:Windchill:Wind:
Aussen-T/F 2526 08-01-2007 01:22:02 6.3 C 4.74 g/m*3 6.3 C 0 km/h
2527 08-01-2007 01:34:02 6.2 C 4.78 g/m*3 6.2 C 0 km/h
2528 08-01-2007 01:46:02 6.1 C 4.75 g/m*3 6.1 C 0 km/h
2529 08-01-2007 01:58:02 6.1 C 4.75 g/m*3 6.1 C 0 km/h
2530 08-01-2007 02:10:02 6.2 C 4.71 g/m*3 6.2 C 0 km/h
2531 08-01-2007 02:22:02 6.2 C 4.71 g/m*3 6.2 C 0 km/h
2532 08-01-2007 02:34:02 6.3 C 4.66 g/m*3 6.3 C 0 km/h
2533 08-01-2007 02:47:04 6.3 C 4.66 g/m*3 6.3 C 0 km/h
2534 08-01-2007 02:59:04 6.7 C 4.71 g/m*3 6.7 C 0 km/h
2535 08-01-2007 03:11:04 6.9 C 4.7 g/m*3 6.9 C 0 km/h
2536 08-01-2007 03:23:04 7 C 4.65 g/m*3 7 C 0 km/h
2537 08-01-2007 03:35:03 7.1 C 4.68 g/m*3 7.1 C 0 km/h
2538 08-01-2007 03:47:03 7.3 C 4.74 g/m*3 7.3 C 0 km/h
2539 08-01-2007 03:59:03 7.3 C 4.74 g/m*3 7.3 C 0 km/h
2540 08-01-2007 04:11:03 7.3 C 4.82 g/m*3 7.3 C 0 km/h
2541 08-01-2007 04:23:03 7.4 C 4.93 g/m*3 7.4 C 0 km/h
2542 08-01-2007 04:35:03 7.5 C 4.96 g/m*3 7.5 C 0 km/h
2543 08-01-2007 04:47:01 7.4 C 5.01 g/m*3 7.4 C 0 km/h
2544 08-01-2007 04:59:01 7.4 C 5.17 g/m*3 7.4 C 0 km/h
2545 08-01-2007 05:11:01 7.5 C 5.28 g/m*3 7.5 C 0 km/h
2546 08-01-2007 05:23:02 7.7 C 5.43 g/m*3 7.7 C 0 km/h
2547 08-01-2007 05:35:01 8 C 5.37 g/m*3 8 C 0 km/h
2548 08-01-2007 05:47:02 8.4 C 5.43 g/m*3 8.4 C 0 km/h
2549 08-01-2007 05:59:03 8.8 C 5.4 g/m*3 8.8 C 0 km/h
2550 08-01-2007 06:11:02 8.9 C 5.43 g/m*3 8.9 C 0 km/h
Sensor: Nr:Datum:Temp:Abs-Feuchte:Windchill:Wind:
Aussen-T/F 2551 08-01-2007 06:23:02 8.6 C 5.5 g/m*3 8.6 C 0 km/h
2552 08-01-2007 06:35:02 8.2 C 5.69 g/m*3 8.2 C 0 km/h
2553 08-01-2007 06:47:02 8 C 5.79 g/m*3 8 C 0 km/h
2554 08-01-2007 06:59:03 8 C 5.95 g/m*3 8 C 0 km/h
2555 08-01-2007 07:11:01 8.2 C 6.03 g/m*3 8.2 C 0 km/h
2556 08-01-2007 07:23:01 8.3 C 6.07 g/m*3 8.3 C 0 km/h
2557 08-01-2007 07:35:02 8.3 C 6.15 g/m*3 8.3 C 0 km/h
2558 08-01-2007 07:47:02 8.4 C 6.11 g/m*3 8.4 C 0 km/h
2559 08-01-2007 07:59:03 8.4 C 6.11 g/m*3 8.4 C 0 km/h
2560 08-01-2007 08:11:02 8.3 C 6.15 g/m*3 8.3 C 0 km/h
2561 08-01-2007 08:23:02 8.3 C 6.24 g/m*3 8.3 C 0 km/h
2562 08-01-2007 08:35:03 8.3 C 6.32 g/m*3 8.3 C 0 km/h
2563 08-01-2007 08:47:02 8.4 C 6.36 g/m*3 8.4 C 0 km/h
2564 08-01-2007 08:59:03 8.5 C 6.4 g/m*3 8.5 C 0 km/h
2565 08-01-2007 09:11:02 8.6 C 6.44 g/m*3 8.6 C 0 km/h
2566 08-01-2007 09:23:02 9 C 6.35 g/m*3 9 C 0 km/h
2567 08-01-2007 09:35:02 9.3 C 6.29 g/m*3 9.3 C 0 km/h
2568 08-01-2007 09:47:02 9.5 C 6.28 g/m*3 9.5 C 0 km/h
2569 08-01-2007 09:59:03 9.5 C 6.46 g/m*3 9.5 C 0 km/h
2570 08-01-2007 10:11:02 9.5 C 6.55 g/m*3 9.5 C 0 km/h
2571 08-01-2007 10:23:01 9.4 C 6.51 g/m*3 9.4 C 0 km/h
2572 08-01-2007 10:35:02 9.9 C 6.44 g/m*3 9.9 C 0 km/h
2573 08-01-2007 10:47:02 10.5 C 6.3 g/m*3 10.5 C 0 km/h
2574 08-01-2007 10:59:02 10.8 C 6.42 g/m*3 10.8 C 0 km/h
2575 08-01-2007 11:11:02 10.6 C 6.44 g/m*3 10.6 C 0 km/h
Sensor: Nr:Datum:Temp:Abs-Feuchte:Windchill:Wind:
Aussen-T/F 2576 08-01-2007 11:23:03 10.6 C 6.44 g/m*3 10.6 C 0 km/h
2577 08-01-2007 11:35:02 11 C 6.41 g/m*3 11 C 0 km/h
2578 08-01-2007 11:47:02 11 C 6.41 g/m*3 11 C 0 km/h
2579 08-01-2007 11:59:02 11.1 C 6.45 g/m*3 11.1 C 0 km/h
2580 08-01-2007 12:11:01 11.2 C 6.39 g/m*3 11.2 C 0 km/h
2581 08-01-2007 12:23:02 11 C 6.51 g/m*3 11 C 0 km/h
2582 08-01-2007 12:35:02 10.8 C 6.72 g/m*3 10.8 C 0 km/h
2583 08-01-2007 12:47:02 11 C 6.71 g/m*3 11 C 0 km/h
2584 08-01-2007 12:59:02 10.9 C 7.06 g/m*3 10.9 C 0 km/h
2585 08-01-2007 13:11:02 10.6 C 6.93 g/m*3 10.6 C 0 km/h
2586 08-01-2007 13:23:03 10.7 C 6.97 g/m*3 10.7 C 0 km/h
2587 08-01-2007 13:35:03 10.8 C 6.92 g/m*3 10.8 C 0 km/h
2588 08-01-2007 13:47:02 11 C 6.91 g/m*3 11 C 0 km/h
2589 08-01-2007 13:59:02 11.3 C 6.83 g/m*3 11.3 C 0 km/h
2590 08-01-2007 14:11:02 11.5 C 6.51 g/m*3 11.5 C 0 km/h
2591 08-01-2007 14:23:02 11.5 C 6.4 g/m*3 11.5 C 0 km/h
2592 08-01-2007 14:35:02 11.6 C 6.13 g/m*3 11.6 C 0 km/h
2593 08-01-2007 14:47:01 11.4 C 5.95 g/m*3 11.4 C 0 km/h
2594 08-01-2007 14:59:01 11.3 C 6.12 g/m*3 11.3 C 0 km/h
2595 08-01-2007 15:11:01 11.4 C 6.16 g/m*3 11.4 C 0 km/h
2596 08-01-2007 15:23:02 11.3 C 6.02 g/m*3 11.3 C 0 km/h
2597 08-01-2007 15:35:02 11.1 C 5.84 g/m*3 11.1 C 0 km/h
2598 08-01-2007 15:47:02 11 C 5.71 g/m*3 11 C 0 km/h
2599 08-01-2007 15:59:02 10.9 C 5.67 g/m*3 10.9 C 0 km/h
2600 08-01-2007 16:11:02 10.8 C 5.54 g/m*3 10.8 C 0 km/h
Sensor: Nr:Datum:Temp:Abs-Feuchte:Windchill:Wind:
Aussen-T/F 2601 08-01-2007 16:23:02 10.5 C 5.63 g/m*3 10.5 C 0 km/h
2602 08-01-2007 16:35:02 10.4 C 5.69 g/m*3 10.4 C 0 km/h
2603 08-01-2007 16:47:02 10.1 C 5.67 g/m*3 10.1 C 0 km/h
2604 08-01-2007 16:59:02 9.7 C 5.81 g/m*3 9.7 C 0 km/h
2605 08-01-2007 17:11:01 9.6 C 5.86 g/m*3 9.6 C 0 km/h
2606 08-01-2007 17:23:02 9.7 C 5.81 g/m*3 9.7 C 0 km/h
2607 08-01-2007 17:35:02 9.8 C 5.85 g/m*3 9.8 C 0 km/h
2608 08-01-2007 17:47:02 10 C 5.73 g/m*3 10 C 0 km/h
2609 08-01-2007 17:59:03 10.1 C 5.67 g/m*3 10.1 C 0 km/h
2610 08-01-2007 18:11:01 10.1 C 5.67 g/m*3 10.1 C 0 km/h
2611 08-01-2007 18:23:01 10.2 C 5.61 g/m*3 10.2 C 0 km/h
2612 08-01-2007 18:35:02 10.2 C 5.61 g/m*3 10.2 C 0 km/h
2613 08-01-2007 18:47:02 10.2 C 5.52 g/m*3 10.2 C 0 km/h
2614 08-01-2007 18:59:02 10.4 C 5.49 g/m*3 10.4 C 0 km/h
2615 08-01-2007 19:11:02 10.4 C 5.49 g/m*3 10.4 C 0 km/h
2616 08-01-2007 19:23:02 10.4 C 5.49 g/m*3 10.4 C 0 km/h
2617 08-01-2007 19:35:03 10.6 C 5.47 g/m*3 10.6 C 0 km/h
2618 08-01-2007 19:47:02 10.6 C 5.47 g/m*3 10.6 C 0 km/h
2619 08-01-2007 19:59:02 10.6 C 5.47 g/m*3 10.6 C 0 km/h
2620 08-01-2007 20:11:02 10.7 C 5.5 g/m*3 10.7 C 0 km/h
2621 08-01-2007 20:23:02 10.5 C 5.63 g/m*3 10.5 C 0 km/h
2622 08-01-2007 20:35:03 10.3 C 5.65 g/m*3 10.3 C 0 km/h
2623 08-01-2007 20:47:02 10.5 C 5.53 g/m*3 10.5 C 0 km/h
2624 08-01-2007 20:59:02 10.6 C 5.56 g/m*3 10.6 C 0 km/h
2625 08-01-2007 21:11:02 10.5 C 5.53 g/m*3 10.5 C 0 km/h
Sensor: Nr:Datum:Temp:Abs-Feuchte:Windchill:Wind:
Aussen-T/F 2626 08-01-2007 21:23:02 10.4 C 5.69 g/m*3 10.4 C 0 km/h
2627 08-01-2007 21:35:02 10.4 C 5.78 g/m*3 10.4 C 0 km/h
2628 08-01-2007 21:47:02 10.3 C 5.84 g/m*3 10.3 C 0 km/h
2629 08-01-2007 21:59:02 10.2 C 5.9 g/m*3 10.2 C 0 km/h
2630 08-01-2007 22:11:02 10.3 C 5.94 g/m*3 10.3 C 0 km/h
2631 08-01-2007 22:23:02 10.2 C 6 g/m*3 10.2 C 0 km/h
2632 08-01-2007 22:35:03 10.2 C 6.09 g/m*3 10.2 C 0 km/h
2633 08-01-2007 22:47:02 10.2 C 6.09 g/m*3 10.2 C 0 km/h
2634 08-01-2007 22:59:02 10.2 C 6.19 g/m*3 10.2 C 0 km/h
2635 08-01-2007 23:11:02 10.4 C 6.17 g/m*3 10.4 C 0 km/h
2636 08-01-2007 23:23:02 10.5 C 6.21 g/m*3 10.5 C 0 km/h
2637 08-01-2007 23:35:03 10.5 C 6.21 g/m*3 10.5 C 0 km/h
2638 08-01-2007 23:47:02 10.7 C 6.38 g/m*3 10.7 C 0 km/h
2639 08-01-2007 23:59:02 10.7 C 6.38 g/m*3 10.7 C 0 km/h
2640 09-01-2007 00:11:02 10.7 C 6.38 g/m*3 10.7 C 0 km/h
2641 09-01-2007 00:23:03 10.8 C 6.52 g/m*3 10.8 C 0 km/h
2642 09-01-2007 00:35:02 10.9 C 6.56 g/m*3 10.9 C 0 km/h
2643 09-01-2007 00:47:02 10.8 C 6.62 g/m*3 10.8 C 0 km/h
2644 09-01-2007 00:59:02 10.8 C 6.62 g/m*3 10.8 C 0 km/h
2645 09-01-2007 01:11:03 10.9 C 6.76 g/m*3 10.9 C 0 km/h
2646 09-01-2007 01:23:02 11 C 6.71 g/m*3 11 C 0 km/h
2647 09-01-2007 01:35:02 11.1 C 6.75 g/m*3 11.1 C 0 km/h
2648 09-01-2007 01:47:02 11.2 C 6.79 g/m*3 11.2 C 0 km/h
2649 09-01-2007 01:59:02 11.2 C 6.89 g/m*3 11.2 C 0 km/h
2650 09-01-2007 02:11:02 11.4 C 6.98 g/m*3 11.4 C 0 km/h
Sensor: Nr:Datum:Temp:Abs-Feuchte:Windchill:Wind:
Aussen-T/F 2651 09-01-2007 02:23:02 11.5 C 7.13 g/m*3 11.5 C 0 km/h
2652 09-01-2007 02:35:02 11.4 C 7.08 g/m*3 11.4 C 0 km/h
2653 09-01-2007 02:47:02 11.5 C 7.23 g/m*3 11.5 C 0 km/h
2654 09-01-2007 02:59:02 11.6 C 7.28 g/m*3 11.6 C 0 km/h
2655 09-01-2007 03:11:01 11.7 C 7.32 g/m*3 11.7 C 0 km/h
2656 09-01-2007 03:23:01 11.8 C 7.37 g/m*3 11.8 C 0 km/h
2657 09-01-2007 03:35:02 11.9 C 7.41 g/m*3 11.9 C 0 km/h
2658 09-01-2007 03:47:02 12 C 7.46 g/m*3 12 C 0 km/h
2659 09-01-2007 03:59:02 12.1 C 7.51 g/m*3 12.1 C 0 km/h
2660 09-01-2007 04:11:02 12.1 C 7.61 g/m*3 12.1 C 0 km/h
2661 09-01-2007 04:23:02 12.3 C 7.71 g/m*3 12.3 C 0 km/h
2662 09-01-2007 04:35:02 12.4 C 7.65 g/m*3 12.4 C 0 km/h
2663 09-01-2007 04:47:02 12.4 C 7.65 g/m*3 12.4 C 0 km/h
2664 09-01-2007 04:59:02 12.4 C 7.65 g/m*3 12.4 C 0 km/h
2665 09-01-2007 05:11:01 12.5 C 7.7 g/m*3 12.5 C 0 km/h
2666 09-01-2007 05:23:01 12.6 C 7.74 g/m*3 12.6 C 0 km/h
2667 09-01-2007 05:35:02 12.7 C 7.79 g/m*3 12.7 C 0 km/h
2668 09-01-2007 05:47:02 12.8 C 7.62 g/m*3 12.8 C 0 km/h
2669 09-01-2007 05:59:02 13 C 7.6 g/m*3 13 C 0 km/h
2670 09-01-2007 06:11:02 13 C 7.48 g/m*3 13 C 0 km/h
2671 09-01-2007 06:23:01 13.2 C 7.58 g/m*3 13.2 C 0 km/h
2672 09-01-2007 06:35:01 13.4 C 7.56 g/m*3 13.4 C 0 km/h
2673 09-01-2007 06:47:02 13.3 C 7.63 g/m*3 13.3 C 0 km/h
2674 09-01-2007 06:59:02 13.4 C 7.56 g/m*3 13.4 C 0 km/h
2675 09-01-2007 07:11:01 13.3 C 7.74 g/m*3 13.3 C 0 km/h
Sensor: Nr:Datum:Temp:Abs-Feuchte:Windchill:Wind:
Aussen-T/F 2676 09-01-2007 07:23:01 13.4 C 7.67 g/m*3 13.4 C 0 km/h
2677 09-01-2007 07:35:02 13.4 C 7.67 g/m*3 13.4 C 0 km/h
2678 09-01-2007 07:47:02 13.5 C 7.72 g/m*3 13.5 C 0 km/h
2679 09-01-2007 07:59:02 13.7 C 7.58 g/m*3 13.7 C 0 km/h
2680 09-01-2007 08:11:01 13.5 C 7.72 g/m*3 13.5 C 0 km/h
2681 09-01-2007 08:23:01 13.5 C 7.72 g/m*3 13.5 C 0 km/h
2682 09-01-2007 08:35:02 13.5 C 7.72 g/m*3 13.5 C 0 km/h
2683 09-01-2007 08:47:02 13.5 C 7.6 g/m*3 13.5 C 0 km/h
2684 09-01-2007 08:59:02 13.5 C 7.72 g/m*3 13.5 C 0 km/h
2685 09-01-2007 09:11:01 13.5 C 7.72 g/m*3 13.5 C 0 km/h
2686 09-01-2007 09:23:01 13.5 C 7.72 g/m*3 13.5 C 0 km/h
2687 09-01-2007 09:35:02 13.5 C 7.72 g/m*3 13.5 C 0 km/h
2688 09-01-2007 09:47:02 13.7 C 7.7 g/m*3 13.7 C 0 km/h
2689 09-01-2007 09:59:02 13.5 C 7.6 g/m*3 13.5 C 0 km/h
2690 09-01-2007 10:11:01 13.7 C 7.58 g/m*3 13.7 C 0 km/h
2691 09-01-2007 10:23:01 13.8 C 7.51 g/m*3 13.8 C 0 km/h
2692 09-01-2007 10:35:02 14 C 7.48 g/m*3 14 C 0 km/h
2693 09-01-2007 10:47:02 14.2 C 7.45 g/m*3 14.2 C 0 km/h
2694 09-01-2007 10:59:02 14.2 C 7.45 g/m*3 14.2 C 0 km/h
2695 09-01-2007 11:11:01 13.8 C 7.86 g/m*3 13.8 C 0 km/h
2696 09-01-2007 11:23:01 13.6 C 8 g/m*3 13.6 C 0 km/h
2697 09-01-2007 11:35:02 13.7 C 8.05 g/m*3 13.7 C 0 km/h
2698 09-01-2007 11:47:02 13.6 C 7.89 g/m*3 13.6 C 0 km/h
2699 09-01-2007 11:59:02 13.7 C 7.82 g/m*3 13.7 C 0 km/h
2700 09-01-2007 12:11:01 14.1 C 7.77 g/m*3 14.1 C 0 km/h
Sensor: Nr:Datum:Temp:Abs-Feuchte:Windchill:Wind:
Aussen-T/F 2701 09-01-2007 12:23:01 13.3 C 7.97 g/m*3 13.3 C 0 km/h
2702 09-01-2007 12:35:02 13.3 C 8.43 g/m*3 13.3 C 0 km/h
2703 09-01-2007 12:47:02 13 C 8.28 g/m*3 13 C 0 km/h
2704 09-01-2007 12:59:02 13.6 C 8.12 g/m*3 13.6 C 0 km/h
2705 09-01-2007 13:11:02 13.9 C 7.79 g/m*3 13.9 C 0 km/h
2706 09-01-2007 13:23:01 13.8 C 7.63 g/m*3 13.8 C 0 km/h
2707 09-01-2007 13:35:01 14.2 C 7.45 g/m*3 14.2 C 0 km/h
2708 09-01-2007 13:47:02 14.4 C 7.29 g/m*3 14.4 C 0 km/h
2709 09-01-2007 13:59:02 14.4 C 7.17 g/m*3 14.4 C 0 km/h
2710 09-01-2007 14:11:02 14.3 C 7.13 g/m*3 14.3 C 0 km/h
2711 09-01-2007 14:23:01 14.1 C 7.4 g/m*3 14.1 C 0 km/h
2712 09-01-2007 14:35:01 14 C 7.36 g/m*3 14 C 0 km/h
2713 09-01-2007 14:47:02 13.8 C 7.63 g/m*3 13.8 C 0 km/h
2714 09-01-2007 14:59:02 14.1 C 7.4 g/m*3 14.1 C 0 km/h
2715 09-01-2007 15:11:01 14.1 C 7.04 g/m*3 14.1 C 0 km/h
2716 09-01-2007 15:23:01 14 C 6.88 g/m*3 14 C 0 km/h
2717 09-01-2007 15:35:02 14 C 6.75 g/m*3 14 C 0 km/h
2718 09-01-2007 15:47:02 14 C 6.39 g/m*3 14 C 0 km/h
2719 09-01-2007 15:59:02 14 C 6.51 g/m*3 14 C 0 km/h
2720 09-01-2007 16:11:01 13.9 C 6.71 g/m*3 13.9 C 0 km/h
2721 09-01-2007 16:23:01 13.7 C 6.75 g/m*3 13.7 C 0 km/h
2722 09-01-2007 16:35:01 13.6 C 7.06 g/m*3 13.6 C 0 km/h
2723 09-01-2007 16:47:02 13.4 C 7.21 g/m*3 13.4 C 0 km/h
2724 09-01-2007 16:59:02 13.2 C 7.12 g/m*3 13.2 C 0 km/h
2725 09-01-2007 17:11:01 13.3 C 6.82 g/m*3 13.3 C 0 km/h
Sensor: Nr:Datum:Temp:Abs-Feuchte:Windchill:Wind:
Aussen-T/F 2726 09-01-2007 17:23:01 13.4 C 6.63 g/m*3 13.4 C 0 km/h
2727 09-01-2007 17:35:01 13.4 C 6.63 g/m*3 13.4 C 0 km/h
2728 09-01-2007 17:47:02 13.3 C 6.59 g/m*3 13.3 C 0 km/h
2729 09-01-2007 17:59:02 13.3 C 6.47 g/m*3 13.3 C 0 km/h
2730 09-01-2007 18:11:02 13.3 C 6.47 g/m*3 13.3 C 0 km/h
2731 09-01-2007 18:23:01 13.3 C 6.35 g/m*3 13.3 C 0 km/h
2732 09-01-2007 18:35:01 13.2 C 6.32 g/m*3 13.2 C 0 km/h
2733 09-01-2007 18:47:02 13.2 C 6.32 g/m*3 13.2 C 0 km/h
2734 09-01-2007 18:59:02 13.4 C 6.28 g/m*3 13.4 C 0 km/h
2735 09-01-2007 19:11:02 13.4 C 6.28 g/m*3 13.4 C 0 km/h
2736 09-01-2007 19:23:01 13.3 C 6.24 g/m*3 13.3 C 0 km/h
2737 09-01-2007 19:35:01 13.3 C 6.35 g/m*3 13.3 C 0 km/h
2738 09-01-2007 19:47:02 13.2 C 6.32 g/m*3 13.2 C 0 km/h
2739 09-01-2007 19:59:02 13.2 C 6.32 g/m*3 13.2 C 0 km/h
2740 09-01-2007 20:11:02 13.2 C 6.32 g/m*3 13.2 C 0 km/h
2741 09-01-2007 20:23:01 13.2 C 6.32 g/m*3 13.2 C 0 km/h
2742 09-01-2007 20:35:01 13.2 C 6.32 g/m*3 13.2 C 0 km/h
2743 09-01-2007 20:47:02 13.3 C 6.35 g/m*3 13.3 C 0 km/h
2744 09-01-2007 20:59:02 13.2 C 6.32 g/m*3 13.2 C 0 km/h
2745 09-01-2007 21:11:02 13.2 C 6.43 g/m*3 13.2 C 0 km/h
2746 09-01-2007 21:23:02 13.1 C 6.5 g/m*3 13.1 C 0 km/h
2747 09-01-2007 21:35:01 13 C 6.46 g/m*3 13 C 0 km/h
2748 09-01-2007 21:47:02 13 C 6.24 g/m*3 13 C 0 km/h
2749 09-01-2007 21:59:02 12.9 C 6.2 g/m*3 12.9 C 0 km/h
2750 09-01-2007 22:11:02 13 C 5.9 g/m*3 13 C 0 km/h
Sensor: Nr:Datum:Temp:Abs-Feuchte:Windchill:Wind:
Aussen-T/F 2751 09-01-2007 22:23:01 13.1 C 5.59 g/m*3 13.1 C 0 km/h
2752 09-01-2007 22:35:01 13 C 5.56 g/m*3 13 C 0 km/h
2753 09-01-2007 22:47:01 13 C 5.56 g/m*3 13 C 0 km/h
2754 09-01-2007 22:59:01 13 C 5.67 g/m*3 13 C 0 km/h
2755 09-01-2007 23:11:02 13 C 5.78 g/m*3 13 C 0 km/h
2756 09-01-2007 23:23:02 13 C 5.9 g/m*3 13 C 0 km/h
2757 09-01-2007 23:35:01 12.9 C 6.09 g/m*3 12.9 C 0 km/h
2758 09-01-2007 23:47:01 12.8 C 6.16 g/m*3 12.8 C 0 km/h
2759 09-01-2007 23:59:01 12.8 C 6.16 g/m*3 12.8 C 0 km/h
2760 10-01-2007 00:11:02 12.6 C 6.2 g/m*3 12.6 C 0 km/h
2761 10-01-2007 00:23:02 12.5 C 6.27 g/m*3 12.5 C 0 km/h
2762 10-01-2007 00:35:02 12.4 C 6.23 g/m*3 12.4 C 0 km/h
2763 10-01-2007 00:47:02 12.4 C 6.23 g/m*3 12.4 C 0 km/h
2764 10-01-2007 00:59:02 12.4 C 6.23 g/m*3 12.4 C 0 km/h
2765 10-01-2007 01:11:01 12.4 C 6.23 g/m*3 12.4 C 0 km/h
2766 10-01-2007 01:23:02 12.4 C 6.23 g/m*3 12.4 C 0 km/h
2767 10-01-2007 01:35:02 12.5 C 6.16 g/m*3 12.5 C 0 km/h
2768 10-01-2007 01:47:01 12.5 C 6.16 g/m*3 12.5 C 0 km/h
2769 10-01-2007 01:59:01 12.4 C 6.12 g/m*3 12.4 C 0 km/h
2770 10-01-2007 02:11:01 12.4 C 6.12 g/m*3 12.4 C 0 km/h
2771 10-01-2007 02:23:02 12.4 C 6.01 g/m*3 12.4 C 0 km/h
2772 10-01-2007 02:35:02 12.2 C 5.94 g/m*3 12.2 C 0 km/h
2773 10-01-2007 02:47:01 12.1 C 5.9 g/m*3 12.1 C 0 km/h
2774 10-01-2007 02:59:01 12.1 C 5.79 g/m*3 12.1 C 0 km/h
2775 10-01-2007 03:11:02 11.8 C 5.89 g/m*3 11.8 C 0 km/h
Sensor: Nr:Datum:Temp:Abs-Feuchte:Windchill:Wind:
Aussen-T/F 2776 10-01-2007 03:23:02 11.8 C 5.89 g/m*3 11.8 C 0 km/h
2777 10-01-2007 03:35:01 12 C 5.86 g/m*3 12 C 0 km/h
2778 10-01-2007 03:47:01 12.1 C 5.9 g/m*3 12.1 C 0 km/h
2779 10-01-2007 03:59:02 12.2 C 5.83 g/m*3 12.2 C 0 km/h
2780 10-01-2007 04:11:02 12 C 5.86 g/m*3 12 C 0 km/h
2781 10-01-2007 04:23:02 12 C 5.86 g/m*3 12 C 0 km/h
2782 10-01-2007 04:35:02 11.9 C 6.04 g/m*3 11.9 C 0 km/h
2783 10-01-2007 04:47:02 11.7 C 5.96 g/m*3 11.7 C 0 km/h
2784 10-01-2007 04:59:02 11.7 C 5.96 g/m*3 11.7 C 0 km/h
2785 10-01-2007 05:11:02 11.6 C 6.03 g/m*3 11.6 C 0 km/h
2786 10-01-2007 05:23:02 11.5 C 5.99 g/m*3 11.5 C 0 km/h
2787 10-01-2007 05:35:02 11.5 C 5.89 g/m*3 11.5 C 0 km/h
2788 10-01-2007 05:47:01 11.5 C 5.89 g/m*3 11.5 C 0 km/h
2789 10-01-2007 05:59:01 11.5 C 5.89 g/m*3 11.5 C 0 km/h
2790 10-01-2007 06:11:02 11.7 C 5.96 g/m*3 11.7 C 0 km/h
2791 10-01-2007 06:23:02 11.6 C 5.92 g/m*3 11.6 C 0 km/h
2792 10-01-2007 06:35:01 11.4 C 5.85 g/m*3 11.4 C 0 km/h
2793 10-01-2007 06:47:02 11.3 C 5.92 g/m*3 11.3 C 0 km/h
2794 10-01-2007 06:59:02 11.2 C 5.88 g/m*3 11.2 C 0 km/h
2795 10-01-2007 07:11:02 11 C 5.91 g/m*3 11 C 0 km/h
2796 10-01-2007 07:23:01 10.8 C 5.93 g/m*3 10.8 C 0 km/h
2797 10-01-2007 07:35:01 10.6 C 5.86 g/m*3 10.6 C 0 km/h
2798 10-01-2007 07:47:02 10.5 C 5.92 g/m*3 10.5 C 0 km/h
2799 10-01-2007 07:59:02 10.7 C 5.89 g/m*3 10.7 C 0 km/h
2800 10-01-2007 08:11:02 10.8 C 5.93 g/m*3 10.8 C 0 km/h
Sensor: Nr:Datum:Temp:Abs-Feuchte:Windchill:Wind:
Aussen-T/F 2801 10-01-2007 08:23:01 10.5 C 5.92 g/m*3 10.5 C 0 km/h
2802 10-01-2007 08:35:01 10.3 C 5.94 g/m*3 10.3 C 0 km/h
2803 10-01-2007 08:47:02 10.4 C 5.98 g/m*3 10.4 C 0 km/h
2804 10-01-2007 08:59:02 10.7 C 5.99 g/m*3 10.7 C 0 km/h
2805 10-01-2007 09:11:02 10.9 C 5.97 g/m*3 10.9 C 0 km/h
2806 10-01-2007 09:23:01 11.1 C 5.84 g/m*3 11.1 C 0 km/h
2807 10-01-2007 09:35:01 11 C 5.71 g/m*3 11 C 0 km/h
2808 10-01-2007 09:47:02 10.9 C 5.67 g/m*3 10.9 C 0 km/h
2809 10-01-2007 09:59:02 10.7 C 5.7 g/m*3 10.7 C 0 km/h
2810 10-01-2007 10:11:01 10.5 C 5.72 g/m*3 10.5 C 0 km/h
2811 10-01-2007 10:23:01 10.7 C 5.8 g/m*3 10.7 C 0 km/h
2812 10-01-2007 10:35:02 10.8 C 5.73 g/m*3 10.8 C 0 km/h
2813 10-01-2007 10:47:02 11.1 C 5.74 g/m*3 11.1 C 0 km/h
2814 10-01-2007 10:59:02 11.3 C 5.71 g/m*3 11.3 C 0 km/h
2815 10-01-2007 11:11:01 11.4 C 5.54 g/m*3 11.4 C 0 km/h
2816 10-01-2007 11:23:01 11.6 C 5.4 g/m*3 11.6 C 0 km/h
2817 10-01-2007 11:35:02 11.6 C 5.4 g/m*3 11.6 C 0 km/h
2818 10-01-2007 11:47:02 11.4 C 5.44 g/m*3 11.4 C 0 km/h
2819 10-01-2007 11:59:02 11.2 C 5.47 g/m*3 11.2 C 0 km/h
2820 10-01-2007 12:11:01 11.2 C 5.57 g/m*3 11.2 C 0 km/h
2821 10-01-2007 12:23:01 11.2 C 5.57 g/m*3 11.2 C 0 km/h
2822 10-01-2007 12:35:02 11.2 C 5.57 g/m*3 11.2 C 0 km/h
2823 10-01-2007 12:47:02 11.9 C 5.72 g/m*3 11.9 C 0 km/h
2824 10-01-2007 12:59:02 12.5 C 5.39 g/m*3 12.5 C 0 km/h
2825 10-01-2007 13:11:01 13.1 C 5.36 g/m*3 13.1 C 0 km/h
Sensor: Nr:Datum:Temp:Abs-Feuchte:Windchill:Wind:
Aussen-T/F 2826 10-01-2007 13:23:01 13.5 C 5.38 g/m*3 13.5 C 0 km/h
2827 10-01-2007 13:35:02 13.8 C 5.48 g/m*3 13.8 C 0 km/h
2828 10-01-2007 13:47:02 13.9 C 5.51 g/m*3 13.9 C 0 km/h
2829 10-01-2007 13:59:02 13.7 C 5.09 g/m*3 13.7 C 0 km/h
2830 10-01-2007 14:11:01 13.6 C 5.18 g/m*3 13.6 C 0 km/h
2831 10-01-2007 14:23:01 13.7 C 5.33 g/m*3 13.7 C 0 km/h
2832 10-01-2007 14:35:02 13.7 C 5.45 g/m*3 13.7 C 0 km/h
2833 10-01-2007 14:47:02 13.5 C 5.38 g/m*3 13.5 C 0 km/h
2834 10-01-2007 14:59:02 13.7 C 5.45 g/m*3 13.7 C 0 km/h
2835 10-01-2007 15:11:01 13.8 C 5.48 g/m*3 13.8 C 0 km/h
2836 10-01-2007 15:23:01 13.8 C 5.48 g/m*3 13.8 C 0 km/h
2837 10-01-2007 15:35:02 13.8 C 5.48 g/m*3 13.8 C 0 km/h
2838 10-01-2007 15:47:02 13.7 C 5.45 g/m*3 13.7 C 0 km/h
2839 10-01-2007 15:59:02 13.7 C 5.57 g/m*3 13.7 C 0 km/h
2840 10-01-2007 16:11:01 13.5 C 5.61 g/m*3 13.5 C 0 km/h
2841 10-01-2007 16:23:01 13.5 C 5.61 g/m*3 13.5 C 0 km/h
2842 10-01-2007 16:35:02 13.4 C 5.7 g/m*3 13.4 C 0 km/h
2843 10-01-2007 16:47:02 13.4 C 5.7 g/m*3 13.4 C 0 km/h
2844 10-01-2007 16:59:02 13.4 C 5.7 g/m*3 13.4 C 0 km/h
2845 10-01-2007 17:11:01 13.4 C 5.7 g/m*3 13.4 C 0 km/h
2846 10-01-2007 17:23:01 13.3 C 5.55 g/m*3 13.3 C 0 km/h
2847 10-01-2007 17:35:02 13.3 C 5.66 g/m*3 13.3 C 0 km/h
2848 10-01-2007 17:47:02 13.3 C 5.55 g/m*3 13.3 C 0 km/h
2849 10-01-2007 17:59:02 13.3 C 5.55 g/m*3 13.3 C 0 km/h
2850 10-01-2007 18:11:01 13.4 C 5.58 g/m*3 13.4 C 0 km/h
Sensor: Nr:Datum:Temp:Abs-Feuchte:Windchill:Wind:
Aussen-T/F 2851 10-01-2007 18:23:01 13.4 C 5.58 g/m*3 13.4 C 0 km/h
2852 10-01-2007 18:35:02 13.4 C 5.58 g/m*3 13.4 C 0 km/h
2853 10-01-2007 18:47:02 13.1 C 5.82 g/m*3 13.1 C 0 km/h
2854 10-01-2007 18:59:02 13.1 C 5.82 g/m*3 13.1 C 0 km/h
2855 10-01-2007 19:11:01 13.1 C 5.82 g/m*3 13.1 C 0 km/h
2856 10-01-2007 19:23:01 11.9 C 6.46 g/m*3 11.9 C 0 km/h
2857 10-01-2007 19:35:02 11.4 C 6.36 g/m*3 11.4 C 0 km/h
2858 10-01-2007 19:47:02 10.9 C 6.56 g/m*3 10.9 C 0 km/h
2859 10-01-2007 19:59:02 10.4 C 6.55 g/m*3 10.4 C 0 km/h
2860 10-01-2007 20:11:01 10.1 C 6.81 g/m*3 10.1 C 0 km/h
2861 10-01-2007 20:23:01 10.1 C 6.62 g/m*3 10.1 C 0 km/h
2862 10-01-2007 20:35:02 10.4 C 5.78 g/m*3 10.4 C 0 km/h
2863 10-01-2007 20:47:02 10.3 C 5.65 g/m*3 10.3 C 0 km/h
2864 10-01-2007 20:59:02 10.4 C 5.59 g/m*3 10.4 C 0 km/h
2865 10-01-2007 21:11:01 10.1 C 5.67 g/m*3 10.1 C 0 km/h
2866 10-01-2007 21:23:01 9.5 C 5.01 g/m*3 9.5 C 0 km/h
2867 10-01-2007 21:35:02 9.3 C 4.67 g/m*3 9.3 C 0 km/h
2868 10-01-2007 21:47:02 9.3 C 4.67 g/m*3 9.3 C 0 km/h
2869 10-01-2007 21:59:02 8.6 C 4.47 g/m*3 8.6 C 0 km/h
2870 10-01-2007 22:11:02 8.2 C 4.35 g/m*3 8.2 C 0 km/h
2871 10-01-2007 22:23:01 8.1 C 4.24 g/m*3 8.1 C 0 km/h
2872 10-01-2007 22:35:01 7.9 C 4.19 g/m*3 7.9 C 0 km/h
2873 10-01-2007 22:47:02 7.8 C 4.16 g/m*3 7.8 C 0 km/h
2874 10-01-2007 22:59:02 7.5 C 4.16 g/m*3 7.5 C 0 km/h
2875 10-01-2007 23:11:01 7.3 C 4.19 g/m*3 7.3 C 0 km/h
Sensor: Nr:Datum:Temp:Abs-Feuchte:Windchill:Wind:
Aussen-T/F 2876 10-01-2007 23:23:01 7.1 C 4.21 g/m*3 7.1 C 0 km/h
2877 10-01-2007 23:35:01 6.9 C 4.31 g/m*3 6.9 C 0 km/h
2878 10-01-2007 23:47:02 6.7 C 4.33 g/m*3 6.7 C 0 km/h
2879 10-01-2007 23:59:02 6.5 C 4.27 g/m*3 6.5 C 0 km/h
2880 11-01-2007 00:11:01 6.4 C 4.25 g/m*3 6.4 C 0 km/h
2881 11-01-2007 00:23:02 6.3 C 4.22 g/m*3 6.3 C 0 km/h
2882 11-01-2007 00:35:02 6.4 C 4.17 g/m*3 6.4 C 0 km/h
2883 11-01-2007 00:47:02 6.4 C 4.17 g/m*3 6.4 C 0 km/h
2884 11-01-2007 00:59:02 6.3 C 4.15 g/m*3 6.3 C 0 km/h
2885 11-01-2007 01:11:02 6 C 4.14 g/m*3 6 C 0 km/h
2886 11-01-2007 01:23:02 5.8 C 4.23 g/m*3 5.8 C 0 km/h
2887 11-01-2007 01:35:02 5.8 C 4.3 g/m*3 5.8 C 0 km/h
2888 11-01-2007 01:47:01 5.7 C 4.2 g/m*3 5.7 C 0 km/h
2889 11-01-2007 01:59:01 5.6 C 4.24 g/m*3 5.6 C 0 km/h
2890 11-01-2007 02:11:01 5.4 C 4.26 g/m*3 5.4 C 0 km/h
2891 11-01-2007 02:23:02 5.5 C 4.28 g/m*3 5.5 C 0 km/h
2892 11-01-2007 02:35:01 5.7 C 4.13 g/m*3 5.7 C 0 km/h
2893 11-01-2007 02:48:07 6.4 C 3.87 g/m*3 6.4 C 0 km/h
2894 11-01-2007 03:00:07 6.3 C 3.78 g/m*3 6.3 C 0 km/h
2895 11-01-2007 03:12:08 6.2 C 3.9 g/m*3 6.2 C 0 km/h
2896 11-01-2007 03:24:08 6 C 3.99 g/m*3 6 C 0 km/h
2897 11-01-2007 03:36:02 6 C 4.06 g/m*3 6 C 0 km/h
2898 11-01-2007 03:48:02 5.9 C 4.18 g/m*3 5.9 C 0 km/h
2899 11-01-2007 04:00:02 5.8 C 4.23 g/m*3 5.8 C 0 km/h
2900 11-01-2007 04:12:02 5.9 C 4.25 g/m*3 5.9 C 0 km/h
Sensor: Nr:Datum:Temp:Abs-Feuchte:Windchill:Wind:
Aussen-T/F 2901 11-01-2007 04:24:02 5.8 C 4.3 g/m*3 5.8 C 0 km/h
2902 11-01-2007 04:36:02 6.1 C 4.31 g/m*3 6.1 C 0 km/h
2903 11-01-2007 04:48:02 6 C 4.21 g/m*3 6 C 0 km/h
2904 11-01-2007 05:00:02 6.1 C 4.24 g/m*3 6.1 C 0 km/h
2905 11-01-2007 05:12:02 6.2 C 4.19 g/m*3 6.2 C 0 km/h
2906 11-01-2007 05:24:02 6.1 C 4.24 g/m*3 6.1 C 0 km/h
2907 11-01-2007 05:36:02 6.2 C 4.34 g/m*3 6.2 C 0 km/h
2908 11-01-2007 05:48:02 6.1 C 4.31 g/m*3 6.1 C 0 km/h
2909 11-01-2007 06:00:02 6.1 C 4.31 g/m*3 6.1 C 0 km/h
2910 11-01-2007 06:12:02 6.1 C 4.31 g/m*3 6.1 C 0 km/h
2911 11-01-2007 06:24:01 6.1 C 4.31 g/m*3 6.1 C 0 km/h
2912 11-01-2007 06:36:02 6.1 C 4.31 g/m*3 6.1 C 0 km/h
2913 11-01-2007 06:48:02 6.2 C 4.27 g/m*3 6.2 C 0 km/h
2914 11-01-2007 07:00:02 6.2 C 4.19 g/m*3 6.2 C 0 km/h
2915 11-01-2007 07:12:02 6.3 C 4.22 g/m*3 6.3 C 0 km/h
2916 11-01-2007 07:24:01 6.4 C 4.17 g/m*3 6.4 C 0 km/h
2917 11-01-2007 07:36:02 6.5 C 4.12 g/m*3 6.5 C 0 km/h
2918 11-01-2007 07:48:02 6.5 C 4.12 g/m*3 6.5 C 0 km/h
2919 11-01-2007 08:00:02 6.5 C 4.12 g/m*3 6.5 C 0 km/h
2920 11-01-2007 08:12:02 6.5 C 4.12 g/m*3 6.5 C 0 km/h
2921 11-01-2007 08:24:01 6.5 C 4.05 g/m*3 6.5 C 0 km/h
2922 11-01-2007 08:36:01 6.5 C 4.05 g/m*3 6.5 C 0 km/h
2923 11-01-2007 08:48:02 6.6 C 4 g/m*3 6.6 C 0 km/h
2924 11-01-2007 09:00:02 6.6 C 3.93 g/m*3 6.6 C 0 km/h
2925 11-01-2007 09:12:02 6.6 C 3.85 g/m*3 6.6 C 0 km/h
Sensor: Nr:Datum:Temp:Abs-Feuchte:Windchill:Wind:
Aussen-T/F 2926 11-01-2007 09:24:01 6.6 C 3.85 g/m*3 6.6 C 0 km/h
2927 11-01-2007 09:36:01 6.6 C 3.85 g/m*3 6.6 C 0 km/h
2928 11-01-2007 09:48:02 6.7 C 3.88 g/m*3 6.7 C 0 km/h
2929 11-01-2007 10:00:02 6.8 C 3.98 g/m*3 6.8 C 0 km/h
2930 11-01-2007 10:12:02 6.8 C 3.98 g/m*3 6.8 C 0 km/h
2931 11-01-2007 10:24:01 6.9 C 4 g/m*3 6.9 C 0 km/h
2932 11-01-2007 10:36:01 7 C 3.95 g/m*3 7 C 0 km/h
2933 11-01-2007 10:48:02 7.1 C 3.98 g/m*3 7.1 C 0 km/h
2934 11-01-2007 11:00:02 7.2 C 3.92 g/m*3 7.2 C 0 km/h
2935 11-01-2007 11:12:02 7.3 C 3.95 g/m*3 7.3 C 0 km/h
2936 11-01-2007 11:24:01 7.3 C 3.95 g/m*3 7.3 C 0 km/h
2937 11-01-2007 11:36:01 7.4 C 3.98 g/m*3 7.4 C 0 km/h
2938 11-01-2007 11:48:02 7.5 C 4 g/m*3 7.5 C 0 km/h
2939 11-01-2007 12:00:02 7.6 C 3.95 g/m*3 7.6 C 0 km/h
2940 11-01-2007 12:12:02 7.7 C 3.97 g/m*3 7.7 C 0 km/h
2941 11-01-2007 12:24:02 7.8 C 3.92 g/m*3 7.8 C 0 km/h
2942 11-01-2007 12:36:01 7.9 C 3.94 g/m*3 7.9 C 0 km/h
2943 11-01-2007 12:48:02 7.9 C 3.94 g/m*3 7.9 C 0 km/h
2944 11-01-2007 13:00:02 8.2 C 3.94 g/m*3 8.2 C 0 km/h
2945 11-01-2007 13:12:02 8.3 C 3.96 g/m*3 8.3 C 0 km/h
2946 11-01-2007 13:24:02 8.5 C 3.93 g/m*3 8.5 C 0 km/h
2947 11-01-2007 13:36:01 8.7 C 3.98 g/m*3 8.7 C 0 km/h
2948 11-01-2007 13:48:02 8.8 C 3.92 g/m*3 8.8 C 0 km/h
2949 11-01-2007 14:00:02 9 C 3.97 g/m*3 9 C 0 km/h
2950 11-01-2007 14:12:02 9.2 C 3.93 g/m*3 9.2 C 0 km/h
Sensor: Nr:Datum:Temp:Abs-Feuchte:Windchill:Wind:
Aussen-T/F 2951 11-01-2007 14:24:02 9.3 C 3.95 g/m*3 9.3 C 0 km/h
2952 11-01-2007 14:36:01 9.4 C 3.98 g/m*3 9.4 C 0 km/h
2953 11-01-2007 14:48:02 9.5 C 4.1 g/m*3 9.5 C 0 km/h
2954 11-01-2007 15:00:02 9.4 C 4.25 g/m*3 9.4 C 0 km/h
2955 11-01-2007 15:12:02 9.3 C 4.4 g/m*3 9.3 C 0 km/h
2956 11-01-2007 15:24:02 9.1 C 4.44 g/m*3 9.1 C 0 km/h
2957 11-01-2007 15:36:02 9.1 C 4.61 g/m*3 9.1 C 0 km/h
2958 11-01-2007 15:48:02 9 C 4.76 g/m*3 9 C 0 km/h
2959 11-01-2007 16:00:02 8.9 C 4.91 g/m*3 8.9 C 0 km/h
2960 11-01-2007 16:12:02 8.9 C 4.99 g/m*3 8.9 C 0 km/h
2961 11-01-2007 16:24:02 9 C 5.03 g/m*3 9 C 0 km/h
2962 11-01-2007 16:36:03 8.9 C 5.17 g/m*3 8.9 C 0 km/h
2963 11-01-2007 16:48:02 8.9 C 5.26 g/m*3 8.9 C 0 km/h
2964 11-01-2007 17:00:02 8.8 C 5.4 g/m*3 8.8 C 0 km/h
2965 11-01-2007 17:12:02 8.2 C 5.78 g/m*3 8.2 C 0 km/h
2966 11-01-2007 17:24:02 8.1 C 5.91 g/m*3 8.1 C 0 km/h
2967 11-01-2007 17:36:02 8.3 C 5.9 g/m*3 8.3 C 0 km/h
2968 11-01-2007 17:48:01 8.4 C 5.94 g/m*3 8.4 C 0 km/h
2969 11-01-2007 18:00:01 8.6 C 5.84 g/m*3 8.6 C 0 km/h
2970 11-01-2007 18:12:02 8.6 C 5.84 g/m*3 8.6 C 0 km/h
2971 11-01-2007 18:24:02 8.8 C 5.92 g/m*3 8.8 C 0 km/h
2972 11-01-2007 18:36:02 9 C 5.82 g/m*3 9 C 0 km/h
2973 11-01-2007 18:48:02 9.1 C 5.86 g/m*3 9.1 C 0 km/h
2974 11-01-2007 19:00:02 9.2 C 5.98 g/m*3 9.2 C 0 km/h
2975 11-01-2007 19:12:03 8.9 C 6.13 g/m*3 8.9 C 0 km/h
Sensor: Nr:Datum:Temp:Abs-Feuchte:Windchill:Wind:
Aussen-T/F 2976 11-01-2007 19:24:02 8.7 C 6.31 g/m*3 8.7 C 0 km/h
2977 11-01-2007 19:36:02 8.9 C 6.39 g/m*3 8.9 C 0 km/h
2978 11-01-2007 19:48:01 8.8 C 6.44 g/m*3 8.8 C 0 km/h
2979 11-01-2007 20:00:01 8.9 C 6.75 g/m*3 8.9 C 0 km/h
2980 11-01-2007 20:12:02 8.9 C 6.92 g/m*3 8.9 C 0 km/h
2981 11-01-2007 20:24:02 8.8 C 6.01 g/m*3 8.8 C 0 km/h
2982 11-01-2007 20:36:02 9.6 C 5.77 g/m*3 9.6 C 0 km/h
2983 11-01-2007 20:48:02 9.9 C 5.79 g/m*3 9.9 C 0 km/h
2984 11-01-2007 21:00:02 9.8 C 5.85 g/m*3 9.8 C 0 km/h
2985 11-01-2007 21:12:03 9.8 C 5.85 g/m*3 9.8 C 0 km/h
2986 11-01-2007 21:24:02 9.6 C 5.86 g/m*3 9.6 C 0 km/h
2987 11-01-2007 21:36:02 9.5 C 5.83 g/m*3 9.5 C 0 km/h
2988 11-01-2007 21:48:01 9.4 C 5.88 g/m*3 9.4 C 0 km/h
2989 11-01-2007 22:00:01 9.5 C 5.64 g/m*3 9.5 C 0 km/h
2990 11-01-2007 22:12:02 9.1 C 5.77 g/m*3 9.1 C 0 km/h
2991 11-01-2007 22:24:02 9.1 C 5.59 g/m*3 9.1 C 0 km/h
2992 11-01-2007 22:36:02 9.2 C 5.36 g/m*3 9.2 C 0 km/h
2993 11-01-2007 22:48:02 9.1 C 5.41 g/m*3 9.1 C 0 km/h
2994 11-01-2007 23:00:02 9 C 5.47 g/m*3 9 C 0 km/h
2995 11-01-2007 23:12:03 9.3 C 5.48 g/m*3 9.3 C 0 km/h
2996 11-01-2007 23:24:03 8.7 C 5.53 g/m*3 8.7 C 0 km/h
2997 11-01-2007 23:36:02 8.5 C 5.46 g/m*3 8.5 C 0 km/h
2998 11-01-2007 23:48:02 8.4 C 5.6 g/m*3 8.4 C 0 km/h
2999 12-01-2007 00:00:02 8.7 C 5.28 g/m*3 8.7 C 0 km/h
3000 12-01-2007 00:12:02 8.6 C 4.98 g/m*3 8.6 C 0 km/h
Sensor: Nr:Datum:Temp:Abs-Feuchte:Windchill:Wind:
Aussen-T/F 3001 12-01-2007 00:24:02 8.5 C 4.95 g/m*3 8.5 C 0 km/h
3002 12-01-2007 00:36:02 8.3 C 4.89 g/m*3 8.3 C 0 km/h
3003 12-01-2007 00:48:03 8.4 C 5.01 g/m*3 8.4 C 0 km/h
3004 12-01-2007 01:00:03 8.5 C 4.95 g/m*3 8.5 C 0 km/h
3005 12-01-2007 01:12:03 8.8 C 4.79 g/m*3 8.8 C 0 km/h
3006 12-01-2007 01:24:03 8.9 C 4.73 g/m*3 8.9 C 0 km/h
3007 12-01-2007 01:36:02 9 C 4.58 g/m*3 9 C 0 km/h
3008 12-01-2007 01:48:02 9.1 C 4.53 g/m*3 9.1 C 0 km/h
3009 12-01-2007 02:00:02 9.1 C 4.53 g/m*3 9.1 C 0 km/h
3010 12-01-2007 02:12:02 9 C 4.5 g/m*3 9 C 0 km/h
3011 12-01-2007 02:24:02 8.9 C 4.64 g/m*3 8.9 C 0 km/h
3012 12-01-2007 02:36:02 8.7 C 4.58 g/m*3 8.7 C 0 km/h
3013 12-01-2007 02:49:04 8.7 C 4.58 g/m*3 8.7 C 0 km/h
3014 12-01-2007 03:01:04 8.8 C 4.44 g/m*3 8.8 C 0 km/h
3015 12-01-2007 03:13:04 8.7 C 4.32 g/m*3 8.7 C 0 km/h
3016 12-01-2007 03:25:04 8.5 C 4.35 g/m*3 8.5 C 0 km/h
3017 12-01-2007 03:37:03 8.3 C 4.3 g/m*3 8.3 C 0 km/h
3018 12-01-2007 03:49:03 8.3 C 4.21 g/m*3 8.3 C 0 km/h
3019 12-01-2007 04:01:03 8.5 C 4.18 g/m*3 8.5 C 0 km/h
3020 12-01-2007 04:13:03 8.1 C 4.16 g/m*3 8.1 C 0 km/h
3021 12-01-2007 04:25:02 8.1 C 4.16 g/m*3 8.1 C 0 km/h
3022 12-01-2007 04:37:02 8.1 C 4.16 g/m*3 8.1 C 0 km/h
3023 12-01-2007 04:49:01 7.9 C 4.27 g/m*3 7.9 C 0 km/h
3024 12-01-2007 05:01:01 7.9 C 4.35 g/m*3 7.9 C 0 km/h
3025 12-01-2007 05:13:01 8.1 C 4.33 g/m*3 8.1 C 0 km/h
Sensor: Nr:Datum:Temp:Abs-Feuchte:Windchill:Wind:
Aussen-T/F 3026 12-01-2007 05:25:01 8.2 C 4.27 g/m*3 8.2 C 0 km/h
3027 12-01-2007 05:37:01 8.2 C 4.27 g/m*3 8.2 C 0 km/h
3028 12-01-2007 05:49:02 8.1 C 4.33 g/m*3 8.1 C 0 km/h
3029 12-01-2007 06:01:02 8.1 C 4.33 g/m*3 8.1 C 0 km/h
3030 12-01-2007 06:13:02 7.9 C 4.44 g/m*3 7.9 C 0 km/h
3031 12-01-2007 06:25:02 7.7 C 4.46 g/m*3 7.7 C 0 km/h
3032 12-01-2007 06:37:02 7.7 C 4.54 g/m*3 7.7 C 0 km/h
3033 12-01-2007 06:49:02 7.5 C 4.48 g/m*3 7.5 C 0 km/h
3034 12-01-2007 07:01:01 7.3 C 4.5 g/m*3 7.3 C 0 km/h
3035 12-01-2007 07:13:01 7.3 C 4.58 g/m*3 7.3 C 0 km/h
3036 12-01-2007 07:25:01 7.3 C 4.58 g/m*3 7.3 C 0 km/h
3037 12-01-2007 07:37:02 7.4 C 4.61 g/m*3 7.4 C 0 km/h
3038 12-01-2007 07:49:02 7.4 C 4.53 g/m*3 7.4 C 0 km/h
3039 12-01-2007 08:01:02 7.4 C 4.53 g/m*3 7.4 C 0 km/h
3040 12-01-2007 08:13:02 7.4 C 4.53 g/m*3 7.4 C 0 km/h
3041 12-01-2007 08:25:02 7.1 C 4.37 g/m*3 7.1 C 0 km/h
3042 12-01-2007 08:37:03 7 C 4.42 g/m*3 7 C 0 km/h
3043 12-01-2007 08:49:02 6.9 C 4.46 g/m*3 6.9 C 0 km/h
3044 12-01-2007 09:01:02 6.8 C 4.44 g/m*3 6.8 C 0 km/h
3045 12-01-2007 09:13:02 6.8 C 4.44 g/m*3 6.8 C 0 km/h
3046 12-01-2007 09:25:02 7.1 C 4.37 g/m*3 7.1 C 0 km/h
3047 12-01-2007 09:37:02 7.1 C 4.29 g/m*3 7.1 C 0 km/h
3048 12-01-2007 09:49:02 7 C 4.34 g/m*3 7 C 0 km/h
3049 12-01-2007 10:01:01 7.1 C 4.45 g/m*3 7.1 C 0 km/h
3050 12-01-2007 10:13:01 7.2 C 4.55 g/m*3 7.2 C 0 km/h
Sensor: Nr:Datum:Temp:Abs-Feuchte:Windchill:Wind:
Aussen-T/F 3051 12-01-2007 10:25:01 7.7 C 4.62 g/m*3 7.7 C 0 km/h
3052 12-01-2007 10:37:02 7.9 C 4.68 g/m*3 7.9 C 0 km/h
3053 12-01-2007 10:49:01 8 C 4.63 g/m*3 8 C 0 km/h
3054 12-01-2007 11:01:01 8.1 C 4.66 g/m*3 8.1 C 0 km/h
3055 12-01-2007 11:13:01 8 C 4.71 g/m*3 8 C 0 km/h
3056 12-01-2007 11:25:01 8.1 C 4.74 g/m*3 8.1 C 0 km/h
3057 12-01-2007 11:37:02 8.5 C 4.78 g/m*3 8.5 C 0 km/h
3058 12-01-2007 11:49:02 8.6 C 4.81 g/m*3 8.6 C 0 km/h
3059 12-01-2007 12:01:02 8.6 C 4.81 g/m*3 8.6 C 0 km/h
3060 12-01-2007 12:13:02 8.9 C 4.82 g/m*3 8.9 C 0 km/h
3061 12-01-2007 12:25:02 9.3 C 4.76 g/m*3 9.3 C 0 km/h
3062 12-01-2007 12:37:03 9.6 C 4.76 g/m*3 9.6 C 0 km/h
3063 12-01-2007 12:49:02 9.7 C 4.79 g/m*3 9.7 C 0 km/h
3064 12-01-2007 13:01:02 9.6 C 4.67 g/m*3 9.6 C 0 km/h
3065 12-01-2007 13:13:02 9.8 C 4.73 g/m*3 9.8 C 0 km/h
3066 12-01-2007 13:25:02 9.8 C 4.73 g/m*3 9.8 C 0 km/h
3067 12-01-2007 13:37:02 9.8 C 4.73 g/m*3 9.8 C 0 km/h
3068 12-01-2007 13:49:02 9.9 C 4.86 g/m*3 9.9 C 0 km/h
3069 12-01-2007 14:01:02 9.9 C 4.86 g/m*3 9.9 C 0 km/h
3070 12-01-2007 14:13:02 9.9 C 4.86 g/m*3 9.9 C 0 km/h
3071 12-01-2007 14:25:02 9.9 C 4.86 g/m*3 9.9 C 0 km/h
3072 12-01-2007 14:37:02 9.9 C 4.86 g/m*3 9.9 C 0 km/h
3073 12-01-2007 14:49:02 10 C 4.79 g/m*3 10 C 0 km/h
3074 12-01-2007 15:01:02 9.9 C 4.76 g/m*3 9.9 C 0 km/h
3075 12-01-2007 15:13:02 9.9 C 4.86 g/m*3 9.9 C 0 km/h
Sensor: Nr:Datum:Temp:Abs-Feuchte:Windchill:Wind:
Aussen-T/F 3076 12-01-2007 15:25:01 10 C 4.79 g/m*3 10 C 0 km/h
3077 12-01-2007 15:37:01 10 C 4.79 g/m*3 10 C 0 km/h
3078 12-01-2007 15:49:02 10 C 4.79 g/m*3 10 C 0 km/h
3079 12-01-2007 16:01:02 9.9 C 4.86 g/m*3 9.9 C 0 km/h
3080 12-01-2007 16:13:02 9.9 C 4.86 g/m*3 9.9 C 0 km/h
3081 12-01-2007 16:25:02 9.9 C 4.95 g/m*3 9.9 C 0 km/h
3082 12-01-2007 16:37:02 9.8 C 4.92 g/m*3 9.8 C 0 km/h
3083 12-01-2007 16:49:03 9.8 C 4.92 g/m*3 9.8 C 0 km/h
3084 12-01-2007 17:01:02 9.8 C 4.92 g/m*3 9.8 C 0 km/h
3085 12-01-2007 17:13:02 9.8 C 4.92 g/m*3 9.8 C 0 km/h
3086 12-01-2007 17:25:03 9.8 C 4.92 g/m*3 9.8 C 0 km/h
3087 12-01-2007 17:37:03 9.7 C 5.07 g/m*3 9.7 C 0 km/h
3088 12-01-2007 17:49:02 9.6 C 5.04 g/m*3 9.6 C 0 km/h
3089 12-01-2007 18:01:01 9.7 C 5.16 g/m*3 9.7 C 0 km/h
3090 12-01-2007 18:13:01 9.7 C 5.16 g/m*3 9.7 C 0 km/h
3091 12-01-2007 18:25:02 9.8 C 5.2 g/m*3 9.8 C 0 km/h
3092 12-01-2007 18:37:02 9.9 C 5.32 g/m*3 9.9 C 0 km/h
3093 12-01-2007 18:49:02 10 C 5.26 g/m*3 10 C 0 km/h
3094 12-01-2007 19:01:02 10.1 C 5.39 g/m*3 10.1 C 0 km/h
3095 12-01-2007 19:13:02 10.1 C 5.39 g/m*3 10.1 C 0 km/h
3096 12-01-2007 19:25:02 10.2 C 5.42 g/m*3 10.2 C 0 km/h
3097 12-01-2007 19:37:02 10.2 C 5.52 g/m*3 10.2 C 0 km/h
3098 12-01-2007 19:49:02 10.3 C 5.55 g/m*3 10.3 C 0 km/h
3099 12-01-2007 20:01:03 10.3 C 5.65 g/m*3 10.3 C 0 km/h
3100 12-01-2007 20:13:04 10.3 C 5.75 g/m*3 10.3 C 0 km/h
Sensor: Nr:Datum:Temp:Abs-Feuchte:Windchill:Wind:
Aussen-T/F 3101 12-01-2007 20:25:02 10.4 C 5.78 g/m*3 10.4 C 0 km/h
3102 12-01-2007 20:37:04 10.4 C 5.88 g/m*3 10.4 C 0 km/h
3103 12-01-2007 20:49:02 10.4 C 5.88 g/m*3 10.4 C 0 km/h
3104 12-01-2007 21:01:02 10.6 C 5.95 g/m*3 10.6 C 0 km/h
3105 12-01-2007 21:13:03 10.6 C 5.95 g/m*3 10.6 C 0 km/h
3106 12-01-2007 21:25:02 10.6 C 5.95 g/m*3 10.6 C 0 km/h
3107 12-01-2007 21:37:02 10.7 C 5.99 g/m*3 10.7 C 0 km/h
3108 12-01-2007 21:49:02 10.7 C 6.09 g/m*3 10.7 C 0 km/h
3109 12-01-2007 22:01:01 10.7 C 6.09 g/m*3 10.7 C 0 km/h
3110 12-01-2007 22:13:01 10.7 C 6.09 g/m*3 10.7 C 0 km/h
3111 12-01-2007 22:25:01 10.7 C 6.19 g/m*3 10.7 C 0 km/h
3112 12-01-2007 22:37:02 10.7 C 6.19 g/m*3 10.7 C 0 km/h
3113 12-01-2007 22:49:02 10.7 C 6.29 g/m*3 10.7 C 0 km/h
3114 12-01-2007 23:01:02 10.7 C 6.38 g/m*3 10.7 C 0 km/h
3115 12-01-2007 23:13:03 10.6 C 6.34 g/m*3 10.6 C 0 km/h
3116 12-01-2007 23:25:02 10.5 C 6.6 g/m*3 10.5 C 0 km/h
3117 12-01-2007 23:37:01 10.4 C 6.75 g/m*3 10.4 C 0 km/h
3118 12-01-2007 23:49:02 10.4 C 6.75 g/m*3 10.4 C 0 km/h
3119 13-01-2007 00:01:03 10.4 C 6.84 g/m*3 10.4 C 0 km/h
3120 13-01-2007 00:13:03 10.5 C 6.89 g/m*3 10.5 C 0 km/h
3121 13-01-2007 00:25:03 10.6 C 6.83 g/m*3 10.6 C 0 km/h
3122 13-01-2007 00:37:02 10.8 C 6.82 g/m*3 10.8 C 0 km/h
3123 13-01-2007 00:49:02 10.9 C 6.76 g/m*3 10.9 C 0 km/h
3124 13-01-2007 01:01:02 11.1 C 6.75 g/m*3 11.1 C 0 km/h
3125 13-01-2007 01:13:02 11.2 C 6.69 g/m*3 11.2 C 0 km/h
Sensor: Nr:Datum:Temp:Abs-Feuchte:Windchill:Wind:
Aussen-T/F 3126 13-01-2007 01:25:02 11.4 C 6.67 g/m*3 11.4 C 0 km/h
3127 13-01-2007 01:37:02 11.5 C 6.61 g/m*3 11.5 C 0 km/h
3128 13-01-2007 01:49:03 11.7 C 6.59 g/m*3 11.7 C 0 km/h
3129 13-01-2007 02:01:02 11.8 C 6.63 g/m*3 11.8 C 0 km/h
3130 13-01-2007 02:13:02 11.7 C 6.59 g/m*3 11.7 C 0 km/h
3131 13-01-2007 02:25:02 11.7 C 6.59 g/m*3 11.7 C 0 km/h
3132 13-01-2007 02:37:02 11.6 C 6.55 g/m*3 11.6 C 0 km/h
3133 13-01-2007 02:50:03 11.6 C 6.55 g/m*3 11.6 C 0 km/h
3134 13-01-2007 03:02:03 11.5 C 6.4 g/m*3 11.5 C 0 km/h
3135 13-01-2007 03:14:04 11.6 C 6.34 g/m*3 11.6 C 0 km/h
3136 13-01-2007 03:26:04 11.7 C 6.38 g/m*3 11.7 C 0 km/h
3137 13-01-2007 03:38:02 11.7 C 6.38 g/m*3 11.7 C 0 km/h
3138 13-01-2007 03:50:02 11.7 C 6.38 g/m*3 11.7 C 0 km/h
3139 13-01-2007 04:02:02 11.7 C 6.28 g/m*3 11.7 C 0 km/h
3140 13-01-2007 04:14:02 11.8 C 6.21 g/m*3 11.8 C 0 km/h
3141 13-01-2007 04:26:03 11.8 C 6.21 g/m*3 11.8 C 0 km/h
3142 13-01-2007 04:38:01 11.8 C 6.1 g/m*3 11.8 C 0 km/h
3143 13-01-2007 04:50:02 12 C 5.97 g/m*3 12 C 0 km/h
3144 13-01-2007 05:02:02 12 C 5.97 g/m*3 12 C 0 km/h
3145 13-01-2007 05:14:02 12 C 6.07 g/m*3 12 C 0 km/h
3146 13-01-2007 05:26:02 11.8 C 6.1 g/m*3 11.8 C 0 km/h
3147 13-01-2007 05:38:02 11.8 C 6.1 g/m*3 11.8 C 0 km/h
3148 13-01-2007 05:50:02 11.8 C 6 g/m*3 11.8 C 0 km/h
3149 13-01-2007 06:02:02 11.9 C 5.93 g/m*3 11.9 C 0 km/h
3150 13-01-2007 06:14:02 11.9 C 5.93 g/m*3 11.9 C 0 km/h
Sensor: Nr:Datum:Temp:Abs-Feuchte:Windchill:Wind:
Aussen-T/F 3151 13-01-2007 06:26:02 11.8 C 6 g/m*3 11.8 C 0 km/h
3152 13-01-2007 06:38:02 11.8 C 6.1 g/m*3 11.8 C 0 km/h
3153 13-01-2007 06:50:02 11.7 C 6.07 g/m*3 11.7 C 0 km/h
3154 13-01-2007 07:02:02 11.7 C 6.07 g/m*3 11.7 C 0 km/h
3155 13-01-2007 07:14:02 11.7 C 6.07 g/m*3 11.7 C 0 km/h
3156 13-01-2007 07:26:02 11.6 C 6.03 g/m*3 11.6 C 0 km/h
3157 13-01-2007 07:38:02 11.5 C 5.99 g/m*3 11.5 C 0 km/h
3158 13-01-2007 07:50:02 11.4 C 6.06 g/m*3 11.4 C 0 km/h
3159 13-01-2007 08:02:02 11.4 C 6.06 g/m*3 11.4 C 0 km/h
3160 13-01-2007 08:14:02 11.4 C 6.06 g/m*3 11.4 C 0 km/h
3161 13-01-2007 08:26:02 11.4 C 6.16 g/m*3 11.4 C 0 km/h
3162 13-01-2007 08:38:01 11.3 C 6.12 g/m*3 11.3 C 0 km/h
3163 13-01-2007 08:50:02 11.3 C 6.12 g/m*3 11.3 C 0 km/h
3164 13-01-2007 09:02:02 11.4 C 6.16 g/m*3 11.4 C 0 km/h
3165 13-01-2007 09:14:02 11.4 C 6.06 g/m*3 11.4 C 0 km/h
3166 13-01-2007 09:26:02 11.4 C 6.06 g/m*3 11.4 C 0 km/h
3167 13-01-2007 09:38:01 11.4 C 6.06 g/m*3 11.4 C 0 km/h
3168 13-01-2007 09:50:02 11.5 C 5.99 g/m*3 11.5 C 0 km/h
3169 13-01-2007 10:02:02 11.6 C 6.03 g/m*3 11.6 C 0 km/h
3170 13-01-2007 10:14:02 11.8 C 6 g/m*3 11.8 C 0 km/h
3171 13-01-2007 10:26:02 11.9 C 6.04 g/m*3 11.9 C 0 km/h
3172 13-01-2007 10:38:02 12.1 C 5.68 g/m*3 12.1 C 0 km/h
3173 13-01-2007 10:50:02 12.4 C 5.57 g/m*3 12.4 C 0 km/h
3174 13-01-2007 11:02:03 12.4 C 5.57 g/m*3 12.4 C 0 km/h
3175 13-01-2007 11:14:03 12.4 C 5.57 g/m*3 12.4 C 0 km/h
Sensor: Nr:Datum:Temp:Abs-Feuchte:Windchill:Wind:
Aussen-T/F 3176 13-01-2007 11:26:03 12.4 C 5.68 g/m*3 12.4 C 0 km/h
3177 13-01-2007 11:38:02 12.8 C 5.6 g/m*3 12.8 C 0 km/h
3178 13-01-2007 11:50:02 13 C 5.67 g/m*3 13 C 0 km/h
3179 13-01-2007 12:02:01 12.9 C 5.75 g/m*3 12.9 C 0 km/h
3180 13-01-2007 12:14:01 13 C 5.78 g/m*3 13 C 0 km/h
3181 13-01-2007 12:26:01 12.8 C 5.71 g/m*3 12.8 C 0 km/h
3182 13-01-2007 12:38:02 12.7 C 5.79 g/m*3 12.7 C 0 km/h
3183 13-01-2007 12:50:02 12.4 C 5.68 g/m*3 12.4 C 0 km/h
3184 13-01-2007 13:02:01 12.3 C 5.75 g/m*3 12.3 C 0 km/h
3185 13-01-2007 13:14:01 12.5 C 5.83 g/m*3 12.5 C 0 km/h
3186 13-01-2007 13:26:01 12.6 C 5.86 g/m*3 12.6 C 0 km/h
3187 13-01-2007 13:38:01 12.8 C 5.82 g/m*3 12.8 C 0 km/h
3188 13-01-2007 13:50:02 12.8 C 5.71 g/m*3 12.8 C 0 km/h
3189 13-01-2007 14:02:02 12.8 C 5.71 g/m*3 12.8 C 0 km/h
3190 13-01-2007 14:14:02 13 C 5.67 g/m*3 13 C 0 km/h
3191 13-01-2007 14:26:02 12.8 C 5.6 g/m*3 12.8 C 0 km/h
3192 13-01-2007 14:38:03 12.6 C 5.64 g/m*3 12.6 C 0 km/h
3193 13-01-2007 14:50:02 12.5 C 5.61 g/m*3 12.5 C 0 km/h
3194 13-01-2007 15:02:02 12.6 C 5.64 g/m*3 12.6 C 0 km/h
3195 13-01-2007 15:14:02 12.6 C 5.64 g/m*3 12.6 C 0 km/h
3196 13-01-2007 15:26:02 12.6 C 5.64 g/m*3 12.6 C 0 km/h
3197 13-01-2007 15:38:03 12.7 C 5.79 g/m*3 12.7 C 0 km/h
3198 13-01-2007 15:50:02 12.5 C 5.72 g/m*3 12.5 C 0 km/h
3199 13-01-2007 16:02:02 12.4 C 5.79 g/m*3 12.4 C 0 km/h
3200 13-01-2007 16:14:02 12.3 C 5.86 g/m*3 12.3 C 0 km/h
Sensor: Nr:Datum:Temp:Abs-Feuchte:Windchill:Wind:
Aussen-T/F 3201 13-01-2007 16:26:02 12.2 C 5.83 g/m*3 12.2 C 0 km/h
3202 13-01-2007 16:38:02 12.1 C 5.68 g/m*3 12.1 C 0 km/h
3203 13-01-2007 16:50:02 12.1 C 5.47 g/m*3 12.1 C 0 km/h
3204 13-01-2007 17:02:03 12.1 C 5.47 g/m*3 12.1 C 0 km/h
3205 13-01-2007 17:14:03 12 C 5.54 g/m*3 12 C 0 km/h
3206 13-01-2007 17:26:02 12.1 C 5.58 g/m*3 12.1 C 0 km/h
3207 13-01-2007 17:38:02 12.1 C 5.58 g/m*3 12.1 C 0 km/h
3208 13-01-2007 17:50:02 12 C 5.65 g/m*3 12 C 0 km/h
3209 13-01-2007 18:02:02 12 C 5.75 g/m*3 12 C 0 km/h
3210 13-01-2007 18:14:02 12 C 5.86 g/m*3 12 C 0 km/h
3211 13-01-2007 18:26:02 12 C 5.86 g/m*3 12 C 0 km/h
3212 13-01-2007 18:38:02 12 C 5.86 g/m*3 12 C 0 km/h
3213 13-01-2007 18:50:02 12 C 5.86 g/m*3 12 C 0 km/h
3214 13-01-2007 19:02:03 12 C 5.86 g/m*3 12 C 0 km/h
3215 13-01-2007 19:14:03 12 C 5.97 g/m*3 12 C 0 km/h
3216 13-01-2007 19:26:03 12 C 6.07 g/m*3 12 C 0 km/h
3217 13-01-2007 19:38:03 11.9 C 6.25 g/m*3 11.9 C 0 km/h
3218 13-01-2007 19:50:02 11.9 C 6.14 g/m*3 11.9 C 0 km/h
3219 13-01-2007 20:02:02 11.9 C 6.14 g/m*3 11.9 C 0 km/h
3220 13-01-2007 20:14:02 11.9 C 6.04 g/m*3 11.9 C 0 km/h
3221 13-01-2007 20:26:02 11.8 C 6.1 g/m*3 11.8 C 0 km/h
3222 13-01-2007 20:38:02 11.8 C 6.1 g/m*3 11.8 C 0 km/h
3223 13-01-2007 20:50:02 11.6 C 6.34 g/m*3 11.6 C 0 km/h
3224 13-01-2007 21:02:02 11.5 C 6.51 g/m*3 11.5 C 0 km/h
3225 13-01-2007 21:14:02 11.3 C 6.63 g/m*3 11.3 C 0 km/h
Sensor: Nr:Datum:Temp:Abs-Feuchte:Windchill:Wind:
Aussen-T/F 3226 13-01-2007 21:26:02 11.2 C 6.59 g/m*3 11.2 C 0 km/h
3227 13-01-2007 21:38:02 11.2 C 6.69 g/m*3 11.2 C 0 km/h
3228 13-01-2007 21:50:02 11.2 C 6.69 g/m*3 11.2 C 0 km/h
3229 13-01-2007 22:02:02 10.9 C 6.96 g/m*3 10.9 C 0 km/h
3230 13-01-2007 22:14:02 10.6 C 7.12 g/m*3 10.6 C 0 km/h
3231 13-01-2007 22:26:02 10.5 C 7.08 g/m*3 10.5 C 0 km/h
3232 13-01-2007 22:38:01 10.8 C 7.02 g/m*3 10.8 C 0 km/h
3233 13-01-2007 22:50:02 10.9 C 6.96 g/m*3 10.9 C 0 km/h
3234 13-01-2007 23:02:02 11.1 C 6.85 g/m*3 11.1 C 0 km/h
3235 13-01-2007 23:14:02 11 C 6.71 g/m*3 11 C 0 km/h
3236 13-01-2007 23:26:02 11.1 C 6.75 g/m*3 11.1 C 0 km/h
3237 13-01-2007 23:38:02 11.1 C 6.75 g/m*3 11.1 C 0 km/h
3238 13-01-2007 23:50:03 11.1 C 6.65 g/m*3 11.1 C 0 km/h
3239 14-01-2007 00:02:02 11.1 C 6.65 g/m*3 11.1 C 0 km/h
3240 14-01-2007 00:14:02 11.1 C 6.45 g/m*3 11.1 C